Provisional Data: Kitchen Creek near Huntington Mills, PA


Please select a monitoring station.
Please select start date.
Please select start date.

<
Toggle Unit: C/F Toggle Unit: C/F
Sample Time Temperature (C) Temperature (F) Specific Conductivity (mS/cm) pH   Turbidity (NTU+) DO (mg/L)
1/12/2021 12:00:00 AM 0.13 32.234 0.065 6.06 2.89 14.44
1/12/2021 12:15:00 AM 0.1 32.18 0.065 6.07 2.9 14.46
1/12/2021 12:30:00 AM 0.07 32.126 0.065 6.06 2.9 14.47
1/12/2021 12:45:00 AM 0.04 32.072 0.065 6.06 2.91 14.48
1/12/2021 1:00:00 AM 0.01 32.018 0.065 6.06 2.86 14.49
1/12/2021 1:15:00 AM -0.02 31.964 0.065 6.06 2.87 14.51
1/12/2021 1:30:00 AM -0.05 31.91 0.065 6.05 2.88 14.52
1/12/2021 1:45:00 AM -0.08 31.856 0.065 6.09 2.94 14.53
1/12/2021 2:00:00 AM -0.11 31.802 0.065 6.06 2.92 14.54
1/12/2021 2:15:00 AM -0.11 31.802 0.065 6.1 2.95 14.56
1/12/2021 2:30:00 AM -0.1 31.82 0.065 6.13 3.04 14.57
1/12/2021 2:45:00 AM -0.1 31.82 0.065 6.13 3 14.58
1/12/2021 3:00:00 AM -0.09 31.838 0.065 6.11 2.95 14.58
1/12/2021 3:15:00 AM -0.09 31.838 0.065 6.12 2.93 14.59
1/12/2021 3:30:00 AM -0.09 31.838 0.065 6.12 2.95 14.59
1/12/2021 3:45:00 AM -0.09 31.838 0.065 6.1 3.1 14.58
1/12/2021 4:00:00 AM -0.09 31.838 0.065 6.1 2.96 14.58
1/12/2021 4:15:00 AM -0.09 31.838 0.065 6.11 2.93 14.58
1/12/2021 4:30:00 AM -0.09 31.838 0.066 6.12 2.98 14.57
1/12/2021 4:45:00 AM -0.09 31.838 0.066 6.11 3.14 14.57
1/12/2021 5:00:00 AM -0.09 31.838 0.066 6.12 2.96 14.57
1/12/2021 5:15:00 AM -0.09 31.838 0.066 6.12 2.94 14.56
1/12/2021 5:30:00 AM -0.09 31.838 0.066 6.12 2.96 14.56
1/12/2021 5:45:00 AM -0.09 31.838 0.066 6.13 2.96 14.56
1/12/2021 6:00:00 AM -0.09 31.838 0.066 6.12 2.97 14.56
1/12/2021 6:15:00 AM -0.09 31.838 0.066 6.13 2.96 14.56
1/12/2021 6:30:00 AM -0.09 31.838 0.067 6.12 2.92 14.56
1/12/2021 6:45:00 AM -0.09 31.838 0.067 6.14 2.92 14.56
1/12/2021 7:00:00 AM -0.09 31.838 0.067 6.13 2.91 14.57
1/12/2021 7:15:00 AM -0.09 31.838 0.068 6.13 2.95 14.57
1/12/2021 7:30:00 AM -0.09 31.838 0.068 6.13 2.97 14.57
1/12/2021 7:45:00 AM -0.09 31.838 0.068 6.13 2.92 14.57
1/12/2021 8:00:00 AM -0.09 31.838 0.068 6.13 2.95 14.58
1/12/2021 8:15:00 AM -0.09 31.838 0.068 6.13 2.92 14.59
1/12/2021 8:30:00 AM -0.09 31.838 0.068 6.13 2.95 14.59
1/12/2021 8:45:00 AM -0.08 31.856 0.068 6.15 4.14 14.59
1/12/2021 9:00:00 AM -0.08 31.856 0.068 6.14 6.67 14.59
1/12/2021 9:15:00 AM -0.08 31.856 0.068 6.13 4.33 14.59
1/12/2021 9:30:00 AM -0.08 31.856 0.068 6.15 3.01 14.58
1/12/2021 9:45:00 AM -0.08 31.856 0.068 6.14 2.9 14.59
1/12/2021 10:00:00 AM -0.07 31.874 0.068 6.15 2.94 14.58
1/12/2021 10:15:00 AM -0.03 31.946 0.068 6.05 2.93 14.56
1/12/2021 10:30:00 AM -0.02 31.964 0.068 6.09 2.91 14.56
1/12/2021 10:45:00 AM 0 32 0.068 6.09 3.01 14.55
1/12/2021 11:00:00 AM 0.01 32.018 0.067 6.09 2.97 14.54
1/12/2021 11:15:00 AM 0.01 32.018 0.067 6.09 2.99 14.53
1/12/2021 11:30:00 AM 0 32 0.067 6.1 3.04 14.52
1/12/2021 11:45:00 AM -0.01 31.982 0.067 6.09 3.01 14.49
1/12/2021 12:00:00 PM -0.01 31.982 0.067 6.13 3.1 14.46
1/12/2021 12:15:00 PM 0.21 32.378 0.066 6.14 2.99 14.43
1/12/2021 12:30:00 PM 0.35 32.63 0.066 6.14 3.02 14.4
1/12/2021 12:45:00 PM 0.45 32.81 0.066 6.14 2.94 14.38
1/12/2021 1:00:00 PM 0.52 32.936 0.066 6.13 2.98 14.35
1/12/2021 1:15:00 PM 0.58 33.044 0.066 6.13 2.93 14.33
1/12/2021 1:30:00 PM 0.61 33.098 0.066 6.11 2.97 14.32
1/12/2021 1:45:00 PM 0.64 33.152 0.066 6.12 2.91 14.31
1/12/2021 2:00:00 PM 0.65 33.17 0.065 6.11 2.89 14.3
1/12/2021 2:15:00 PM 0.69 33.242 0.064 6.11 2.9 14.27
1/12/2021 2:30:00 PM 0.73 33.314 0.063 6.11 2.9 14.25
1/12/2021 2:45:00 PM 0.76 33.368 0.063 6.1 2.85 14.23
1/12/2021 3:00:00 PM 0.78 33.404 0.063 6.11 2.83 14.21
1/12/2021 3:15:00 PM 0.8 33.44 0.063 6.09 2.89 14.2
1/12/2021 3:30:00 PM 0.81 33.458 0.062 6.08 2.79 14.2
1/12/2021 3:45:00 PM 0.81 33.458 0.062 6.09 2.85 14.19
1/12/2021 4:00:00 PM 0.81 33.458 0.063 6.08 2.88 14.18
1/12/2021 4:15:00 PM 0.81 33.458 0.063 6.08 2.83 14.18
1/12/2021 4:30:00 PM 0.79 33.422 0.063 6.07 2.85 14.18
1/12/2021 4:45:00 PM 0.78 33.404 0.063 6.09 2.86 14.18
1/12/2021 5:00:00 PM 0.77 33.386 0.063 6.07 2.9 14.17
1/12/2021 5:15:00 PM 0.76 33.368 0.063 6.07 2.89 14.17
1/12/2021 5:30:00 PM 0.75 33.35 0.063 6.07 2.91 14.17
1/12/2021 5:45:00 PM 0.75 33.35 0.064 6.07 2.85 14.17
1/12/2021 6:00:00 PM 0.76 33.368 0.064 6.09 2.87 14.17
1/12/2021 6:15:00 PM 0.76 33.368 0.064 6.08 2.87 14.16
1/12/2021 6:30:00 PM 0.77 33.386 0.064 6.07 2.88 14.16
1/12/2021 6:45:00 PM 0.78 33.404 0.064 6.07 2.9 14.15
1/12/2021 7:00:00 PM 0.78 33.404 0.064 6.06 2.87 14.15
1/12/2021 7:15:00 PM 0.79 33.422 0.064 6.07 2.86 14.14
1/12/2021 7:30:00 PM 0.8 33.44 0.064 6.07 2.91 14.14
1/12/2021 7:45:00 PM 0.81 33.458 0.064 6.06 2.9 14.14
1/12/2021 8:00:00 PM 0.81 33.458 0.064 6.06 2.86 14.14
1/12/2021 8:15:00 PM 0.82 33.476 0.064 6.07 2.88 14.14
1/12/2021 8:30:00 PM 0.82 33.476 0.064 6.07 2.85 14.13
1/12/2021 8:45:00 PM 0.83 33.494 0.064 6.07 2.89 14.13
1/12/2021 9:00:00 PM 0.83 33.494 0.064 6.06 2.86 14.13
1/12/2021 9:15:00 PM 0.84 33.512 0.064 6.08 2.86 14.12
1/12/2021 9:30:00 PM 0.84 33.512 0.064 6.08 2.9 14.12
1/12/2021 9:45:00 PM 0.85 33.53 0.064 6.07 2.91 14.12
1/12/2021 10:00:00 PM 0.85 33.53 0.065 6.06 2.84 14.11
1/12/2021 10:15:00 PM 0.86 33.548 0.065 6.09 2.89 14.12
1/12/2021 10:30:00 PM 0.87 33.566 0.065 6.1 2.87 14.11
1/12/2021 10:45:00 PM 0.87 33.566 0.065 6.1 2.97 14.11
1/12/2021 11:00:00 PM 0.88 33.584 0.065 6.09 2.86 14.11
1/12/2021 11:15:00 PM 0.89 33.602 0.065 6.08 2.96 14.1
1/12/2021 11:30:00 PM 0.9 33.62 0.065 6.09 2.88 14.1
1/12/2021 11:45:00 PM 0.9 33.62 0.065 6.1 2.89 14.09
1/13/2021 12:00:00 AM 0.91 33.638 0.065 6.09 2.95 14.09
1/13/2021 12:15:00 AM 0.91 33.638 0.065 6.1 2.84 14.09
1/13/2021 12:30:00 AM 0.92 33.656 0.065 6.09 2.9 14.08
1/13/2021 12:45:00 AM 0.92 33.656 0.065 6.09 2.86 14.07
1/13/2021 1:00:00 AM 0.93 33.674 0.065 6.09 2.87 14.08
1/13/2021 1:15:00 AM 0.93 33.674 0.065 6.1 2.92 14.07
1/13/2021 1:30:00 AM 0.94 33.692 0.065 6.09 2.88 14.07
1/13/2021 1:45:00 AM 0.94 33.692 0.065 6.1 2.85 14.07
1/13/2021 2:00:00 AM 0.94 33.692 0.065 6.09 2.84 14.06
1/13/2021 2:15:00 AM 0.95 33.71 0.065 6.09 2.92 14.06
1/13/2021 2:30:00 AM 0.95 33.71 0.065 6.1 2.87 14.06
1/13/2021 2:45:00 AM 0.95 33.71 0.065 6.09 2.84 14.06
1/13/2021 3:00:00 AM 0.96 33.728 0.065 6.09 2.9 14.06
1/13/2021 3:15:00 AM 0.96 33.728 0.065 6.11 2.86 14.06
1/13/2021 3:30:00 AM 0.96 33.728 0.065 6.1 2.87 14.06
1/13/2021 3:45:00 AM 0.96 33.728 0.065 6.1 2.85 14.05
1/13/2021 4:00:00 AM 0.96 33.728 0.065 6.1 2.86 14.05
1/13/2021 4:15:00 AM 0.96 33.728 0.065 6.09 2.94 14.05
1/13/2021 4:30:00 AM 0.97 33.746 0.065 6.07 2.87 14.05
1/13/2021 4:45:00 AM 0.96 33.728 0.065 6.1 2.93 14.05
1/13/2021 5:00:00 AM 0.96 33.728 0.065 6.09 2.87 14.05
1/13/2021 5:15:00 AM 0.96 33.728 0.065 6.08 2.91 14.05
1/13/2021 5:30:00 AM 0.96 33.728 0.065 6.09 2.9 14.05
1/13/2021 5:45:00 AM 0.96 33.728 0.065 6.1 3.05 14.05
1/13/2021 6:00:00 AM 0.96 33.728 0.065 6.09 2.94 14.05
1/13/2021 6:15:00 AM 0.96 33.728 0.065 6.09 3 14.05
1/13/2021 6:30:00 AM 0.96 33.728 0.065 6.1 2.98 14.05
1/13/2021 6:45:00 AM 0.96 33.728 0.065 6.1 3.16 14.05
1/13/2021 7:00:00 AM 0.96 33.728 0.065 6.11 2.95 14.05
1/13/2021 7:15:00 AM 0.96 33.728 0.065 6.1 2.99 14.05
1/13/2021 7:30:00 AM 0.96 33.728 0.065 6.09 3.01 14.05
1/13/2021 7:45:00 AM 0.96 33.728 0.065 6.09 2.99 14.05
1/13/2021 8:00:00 AM 0.97 33.746 0.065 6.1 3.12 14.06
1/13/2021 8:15:00 AM 0.97 33.746 0.065 6.1 3.02 14.06
1/13/2021 8:30:00 AM 0.99 33.782 0.065 6.12 3.02 14.07
1/13/2021 8:45:00 AM 1 33.8 0.065 6.12 3.02 14.07
1/13/2021 9:00:00 AM 1.02 33.836 0.065 6.12 2.99 14.07
1/13/2021 9:15:00 AM 1.03 33.854 0.065 6.13 2.96 14.07
1/13/2021 9:30:00 AM 1.05 33.89 0.065 6.12 2.99 14.07
1/13/2021 9:45:00 AM 1.07 33.926 0.065 6.12 3.01 14.06
1/13/2021 10:00:00 AM 1.08 33.944 0.065 6.12 3 14.05
1/13/2021 10:15:00 AM 1.09 33.962 0.065 6.13 3 14.05
1/13/2021 10:30:00 AM 1.11 33.998 0.065 6.13 2.97 14.05
1/13/2021 10:45:00 AM 1.12 34.016 0.065 6.12 2.95 14.05
1/13/2021 11:00:00 AM 1.14 34.052 0.065 6.13 3.01 14.04
1/13/2021 11:15:00 AM 1.16 34.088 0.065 6.13 3.05 14.03
1/13/2021 11:30:00 AM 1.17 34.106 0.065 6.12 3.01 14.03
1/13/2021 11:45:00 AM 1.18 34.124 0.065 6.14 2.94 14.02
1/13/2021 12:00:00 PM 1.2 34.16 0.065 6.13 2.95 14.01
1/13/2021 12:15:00 PM 1.22 34.196 0.065 6.13 2.96 14
1/13/2021 12:30:00 PM 1.23 34.214 0.065 6.13 2.95 13.99
1/13/2021 12:45:00 PM 1.25 34.25 0.065 6.13 3.01 13.98
1/13/2021 1:00:00 PM 1.26 34.268 0.065 6.14 2.99 13.97
1/13/2021 1:15:00 PM 1.27 34.286 0.065 6.14 2.96 13.96
1/13/2021 1:30:00 PM 1.3 34.34 0.065 6.12 2.96 13.96
1/13/2021 1:45:00 PM 1.32 34.376 0.065 6.12 3.13 13.94
1/13/2021 2:00:00 PM 1.33 34.394 0.065 6.13 3.01 13.94
1/13/2021 2:15:00 PM 1.35 34.43 0.065 6.11 3.17 13.93
1/13/2021 2:30:00 PM 1.36 34.448 0.065 6.13 3.09 13.92
1/13/2021 2:45:00 PM 1.38 34.484 0.065 6.13 3.04 13.91
1/13/2021 3:00:00 PM 1.39 34.502 0.065 6.12 2.95 13.89
1/13/2021 3:15:00 PM 1.4 34.52 0.065 6.12 3.12 13.89
1/13/2021 3:30:00 PM 1.41 34.538 0.065 6.12 3.14 13.88
1/13/2021 3:45:00 PM 1.42 34.556 0.065 6.11 3.08 13.87
1/13/2021 4:00:00 PM 1.41 34.538 0.065 6.1 2.96 13.86
1/13/2021 4:15:00 PM 1.42 34.556 0.065 6.11 3.01 13.86
1/13/2021 4:30:00 PM 1.41 34.538 0.065 6.1 3.05 13.85
1/13/2021 4:45:00 PM 1.41 34.538 0.065 6.11 2.93 13.84
1/13/2021 5:00:00 PM 1.41 34.538 0.065 6.1 2.96 13.83
1/13/2021 5:15:00 PM 1.4 34.52 0.065 6.11 2.96 13.83
1/13/2021 5:30:00 PM 1.38 34.484 0.065 6.11 2.9 13.83
1/13/2021 5:45:00 PM 1.37 34.466 0.065 6.1 2.8 13.83
1/13/2021 6:00:00 PM 1.36 34.448 0.065 6.11 2.79 13.84
1/13/2021 6:15:00 PM 1.35 34.43 0.065 6.1 2.91 13.84
1/13/2021 6:30:00 PM 1.33 34.394 0.065 6.11 2.97 13.84
1/13/2021 6:45:00 PM 1.31 34.358 0.065 6.1 2.88 13.85
1/13/2021 7:00:00 PM 1.29 34.322 0.065 6.1 2.89 13.85
1/13/2021 7:15:00 PM 1.27 34.286 0.065 6.09 2.96 13.86
1/13/2021 7:30:00 PM 1.25 34.25 0.065 6.1 2.89 13.87
1/13/2021 7:45:00 PM 1.23 34.214 0.065 6.1 2.79 13.87
1/13/2021 8:00:00 PM 1.22 34.196 0.065 6.1 2.85 13.88
1/13/2021 8:15:00 PM 1.2 34.16 0.065 6.09 2.83 13.89
1/13/2021 8:30:00 PM 1.19 34.142 0.065 6.09 2.97 13.89
1/13/2021 8:45:00 PM 1.18 34.124 0.065 6.09 2.88 13.9
1/13/2021 9:00:00 PM 1.18 34.124 0.065 6.1 2.83 13.9
1/13/2021 9:15:00 PM 1.17 34.106 0.065 6.1 2.84 13.9
1/13/2021 9:30:00 PM 1.17 34.106 0.065 6.09 2.81 13.9
1/13/2021 9:45:00 PM 1.16 34.088 0.065 6.08 2.87 13.91
1/13/2021 10:00:00 PM 1.16 34.088 0.065 6.1 2.8 13.91
1/13/2021 10:15:00 PM 1.16 34.088 0.065 6.09 2.83 13.91
1/13/2021 10:30:00 PM 1.15 34.07 0.065 6.1 2.84 13.91
1/13/2021 10:45:00 PM 1.15 34.07 0.065 6.08 2.83 13.91
1/13/2021 11:00:00 PM 1.14 34.052 0.065 6.09 2.87 13.91
1/13/2021 11:15:00 PM 1.14 34.052 0.065 6.1 2.86 13.92
1/13/2021 11:30:00 PM 1.13 34.034 0.065 6.1 2.83 13.92
1/13/2021 11:45:00 PM 1.12 34.016 0.065 6.09 2.84 13.92
1/14/2021 12:00:00 AM 1.11 33.998 0.065 6.11 2.84 13.92
1/14/2021 12:15:00 AM 1.11 33.998 0.065 6.1 2.86 13.92
1/14/2021 12:30:00 AM 1.1 33.98 0.065 6.1 2.87 13.92
1/14/2021 12:45:00 AM 1.1 33.98 0.065 6.1 2.89 13.92
1/14/2021 1:00:00 AM 1.1 33.98 0.065 6.09 2.9 13.92
1/14/2021 1:15:00 AM 1.09 33.962 0.065 6.09 2.97 13.92
1/14/2021 1:30:00 AM 1.09 33.962 0.065 6.1 2.86 13.92
1/14/2021 1:45:00 AM 1.09 33.962 0.065 6.09 2.85 13.92
1/14/2021 2:00:00 AM 1.09 33.962 0.065 6.1 3.01 13.92
1/14/2021 2:15:00 AM 1.1 33.98 0.065 6.09 2.9 13.92
1/14/2021 2:30:00 AM 1.1 33.98 0.065 6.1 2.86 13.92
1/14/2021 2:45:00 AM 1.1 33.98 0.065 6.09 2.94 13.92
1/14/2021 3:00:00 AM 1.1 33.98 0.065 6.09 2.89 13.92
1/14/2021 3:15:00 AM 1.1 33.98 0.065 6.1 2.86 13.91
1/14/2021 3:30:00 AM 1.1 33.98 0.065 6.09 2.9 13.91
1/14/2021 3:45:00 AM 1.1 33.98 0.065 6.11 2.92 13.91
1/14/2021 4:00:00 AM 1.1 33.98 0.065 6.1 2.89 13.91
1/14/2021 4:15:00 AM 1.1 33.98 0.065 6.1 2.91 13.91
1/14/2021 4:30:00 AM 1.1 33.98 0.065 6.1 2.96 13.91
1/14/2021 4:45:00 AM 1.1 33.98 0.065 6.11 2.92 13.9
1/14/2021 5:00:00 AM 1.1 33.98 0.065 6.1 2.91 13.91
1/14/2021 5:15:00 AM 1.1 33.98 0.065 6.1 2.97 13.91
1/14/2021 5:30:00 AM 1.1 33.98 0.065 6.1 3.02 13.91
1/14/2021 5:45:00 AM 1.11 33.998 0.065 6.11 2.92 13.9
1/14/2021 6:00:00 AM 1.11 33.998 0.065 6.09 2.91 13.91
1/14/2021 6:15:00 AM 1.11 33.998 0.065 6.1 2.89 13.9
1/14/2021 6:30:00 AM 1.11 33.998 0.065 6.1 2.9 13.9
1/14/2021 6:45:00 AM 1.12 34.016 0.065 6.1 2.96 13.91
1/14/2021 7:00:00 AM 1.12 34.016 0.065 6.09 2.95 13.9
1/14/2021 7:15:00 AM 1.12 34.016 0.065 6.1 2.93 13.9
1/14/2021 7:30:00 AM 1.1 33.98 0.065 6.09 2.97 13.91
1/14/2021 7:45:00 AM 1.09 33.962 0.065 6.1 2.97 13.92
1/14/2021 8:00:00 AM 1.08 33.944 0.065 6.09 2.94 13.92
1/14/2021 8:15:00 AM 1.06 33.908 0.065 6.11 2.94 13.93
1/14/2021 8:30:00 AM 1.01 33.818 0.065 6.09 2.96 13.94
1/14/2021 8:45:00 AM 0.93 33.674 0.065 6.09 2.92 13.96
1/14/2021 9:00:00 AM 0.92 33.656 0.065 6.09 2.98 13.98
1/14/2021 9:15:00 AM 0.93 33.674 0.065 6.1 2.99 14
1/14/2021 9:30:00 AM 0.97 33.746 0.064 6.11 3.07 14.01
1/14/2021 9:45:00 AM 1.01 33.818 0.064 6.11 2.96 14.01
1/14/2021 10:00:00 AM 1.07 33.926 0.064 6.12 2.97 14.01
1/14/2021 10:15:00 AM 1.14 34.052 0.064 6.12 2.97 13.99
1/14/2021 10:30:00 AM 1.22 34.196 0.064 6.13 2.94 13.97
1/14/2021 10:45:00 AM 1.29 34.322 0.064 6.14 2.89 13.94
1/14/2021 11:00:00 AM 1.35 34.43 0.064 6.13 2.94 13.91
1/14/2021 11:15:00 AM 1.44 34.592 0.064 6.13 2.96 13.87
1/14/2021 11:30:00 AM 1.51 34.718 0.064 6.13 2.91 13.84
1/14/2021 11:45:00 AM 1.56 34.808 0.064 6.14 2.96 13.81
1/14/2021 12:00:00 PM 1.63 34.934 0.064 6.15 2.95 13.78
1/14/2021 12:15:00 PM 1.67 35.006 0.064 6.14 2.94 13.76
1/14/2021 12:30:00 PM 1.73 35.114 0.064 6.15 2.94 13.74
1/14/2021 12:45:00 PM 1.79 35.222 0.064 6.15 2.9 13.72
1/14/2021 1:00:00 PM 1.84 35.312 0.064 6.15 2.86 13.69
1/14/2021 1:15:00 PM 1.89 35.402 0.064 6.14 2.9 13.67
1/14/2021 1:30:00 PM 1.94 35.492 0.064 6.15 2.87 13.65
1/14/2021 1:45:00 PM 2.01 35.618 0.064 6.16 2.84 13.64
1/14/2021 2:00:00 PM 2.08 35.744 0.064 6.15 2.85 13.61
1/14/2021 2:15:00 PM 2.12 35.816 0.064 6.15 2.9 13.59
1/14/2021 2:30:00 PM 2.17 35.906 0.064 6.15 2.94 13.57
1/14/2021 2:45:00 PM 2.23 36.014 0.064 6.15 2.9 13.54
1/14/2021 3:00:00 PM 2.25 36.05 0.064 6.15 2.86 13.52
1/14/2021 3:15:00 PM 2.26 36.068 0.064 6.15 2.91 13.5
1/14/2021 3:30:00 PM 2.27 36.086 0.064 6.14 2.96 13.49
1/14/2021 3:45:00 PM 2.28 36.104 0.064 6.13 2.93 13.49
1/14/2021 4:00:00 PM 2.29 36.122 0.064 6.13 2.96 13.48
1/14/2021 4:15:00 PM 2.28 36.104 0.064 6.12 2.9 13.47
1/14/2021 4:30:00 PM 2.26 36.068 0.064 6.11 2.99 13.47
1/14/2021 4:45:00 PM 2.25 36.05 0.064 6.11 2.93 13.46
1/14/2021 5:00:00 PM 2.24 36.032 0.064 6.12 2.97 13.47
1/14/2021 5:15:00 PM 2.22 35.996 0.064 6.11 2.97 13.46
1/14/2021 5:30:00 PM 2.21 35.978 0.064 6.11 2.97 13.47
1/14/2021 5:45:00 PM 2.19 35.942 0.064 6.11 3 13.47
1/14/2021 6:00:00 PM 2.18 35.924 0.064 6.11 2.93 13.48
1/14/2021 6:15:00 PM 2.16 35.888 0.064 6.1 3.06 13.49
1/14/2021 6:30:00 PM 2.15 35.87 0.064 6.1 2.99 13.5
1/14/2021 6:45:00 PM 2.14 35.852 0.064 6.1 4.51 13.5
1/14/2021 7:00:00 PM 2.13 35.834 0.064 6.1 3.82 13.51
1/14/2021 7:15:00 PM 2.11 35.798 0.064 6.09 2.95 13.51
1/14/2021 7:30:00 PM 2.1 35.78 0.064 6.09 2.93 13.52
1/14/2021 7:45:00 PM 2.09 35.762 0.064 6.09 2.87 13.53
1/14/2021 8:00:00 PM 2.08 35.744 0.064 6.08 2.87 13.53
1/14/2021 8:15:00 PM 2.07 35.726 0.064 6.09 2.97 13.53
1/14/2021 8:30:00 PM 2.06 35.708 0.064 6.09 2.96 13.54
1/14/2021 8:45:00 PM 2.05 35.69 0.064 6.09 3.03 13.55
1/14/2021 9:00:00 PM 2.04 35.672 0.064 6.08 2.97 13.55
1/14/2021 9:15:00 PM 2.03 35.654 0.064 6.09 2.9 13.56
1/14/2021 9:30:00 PM 2.02 35.636 0.064 6.08 2.94 13.56
1/14/2021 9:45:00 PM 2.02 35.636 0.064 6.08 2.99 13.57
1/14/2021 10:00:00 PM 2.01 35.618 0.064 6.09 2.95 13.57
1/14/2021 10:15:00 PM 2.01 35.618 0.064 6.1 2.95 13.57
1/14/2021 10:30:00 PM 2 35.6 0.064 6.09 2.98 13.58
1/14/2021 10:45:00 PM 2 35.6 0.064 6.09 2.96 13.58
1/14/2021 11:00:00 PM 1.99 35.582 0.064 6.08 3.06 13.58
1/14/2021 11:15:00 PM 1.99 35.582 0.064 6.09 2.89 13.58
1/14/2021 11:30:00 PM 1.97 35.546 0.064 6.09 2.96 13.59
1/14/2021 11:45:00 PM 1.96 35.528 0.064 6.1 3.03 13.59
1/15/2021 12:00:00 AM 1.95 35.51 0.064 6.08 2.98 13.59
1/15/2021 12:15:00 AM 1.93 35.474 0.064 6.1 3.03 13.59
1/15/2021 12:30:00 AM 1.91 35.438 0.064 6.1 3.07 13.6
1/15/2021 12:45:00 AM 1.89 35.402 0.064 6.09 3.06 13.61
1/15/2021 1:00:00 AM 1.87 35.366 0.064 6.09 3.08 13.62
1/15/2021 1:15:00 AM 1.85 35.33 0.064 6.09 3.11 13.63
1/15/2021 1:30:00 AM 1.83 35.294 0.064 6.09 3.12 13.63
1/15/2021 1:45:00 AM 1.81 35.258 0.064 6.09 3.14 13.64
1/15/2021 2:00:00 AM 1.79 35.222 0.064 6.09 3.11 13.66
1/15/2021 2:15:00 AM 1.76 35.168 0.064 6.09 3.1 13.67
1/15/2021 2:30:00 AM 1.74 35.132 0.064 6.09 3.17 13.68
1/15/2021 2:45:00 AM 1.71 35.078 0.064 6.08 3.11 13.7
1/15/2021 3:00:00 AM 1.69 35.042 0.064 6.07 3.08 13.7
1/15/2021 3:15:00 AM 1.66 34.988 0.064 6.08 3.35 13.7
1/15/2021 3:30:00 AM 1.64 34.952 0.064 6.08 3.34 13.72
1/15/2021 3:45:00 AM 1.61 34.898 0.064 6.09 3.21 13.72
1/15/2021 4:00:00 AM 1.59 34.862 0.064 6.1 3.11 13.74
1/15/2021 4:15:00 AM 1.57 34.826 0.064 6.09 3.31 13.74
1/15/2021 4:30:00 AM 1.55 34.79 0.064 6.09 3.33 13.75
1/15/2021 4:45:00 AM 1.53 34.754 0.064 6.09 3.29 13.75
1/15/2021 5:00:00 AM 1.5 34.7 0.064 6.09 3.24 13.76
1/15/2021 5:15:00 AM 1.48 34.664 0.064 6.09 3.25 13.77
1/15/2021 5:30:00 AM 1.46 34.628 0.064 6.1 3.39 13.78
1/15/2021 5:45:00 AM 1.43 34.574 0.064 6.1 3.3 13.79
1/15/2021 6:00:00 AM 1.41 34.538 0.064 6.09 3.27 13.79
1/15/2021 6:15:00 AM 1.39 34.502 0.064 6.1 3.29 13.8
1/15/2021 6:30:00 AM 1.37 34.466 0.064 6.09 3.25 13.81
1/15/2021 6:45:00 AM 1.35 34.43 0.064 6.08 3.29 13.82
1/15/2021 7:00:00 AM 1.34 34.412 0.064 6.1 3.12 13.82
1/15/2021 7:15:00 AM 1.33 34.394 0.064 6.09 3.11 13.83
1/15/2021 7:30:00 AM 1.32 34.376 0.064 6.1 3.27 13.84
1/15/2021 7:45:00 AM 1.32 34.376 0.064 6.1 3.3 13.84
1/15/2021 8:00:00 AM 1.32 34.376 0.064 6.1 2.84 13.85
1/15/2021 8:15:00 AM 1.32 34.376 0.064 6.11 3.46 13.86
1/15/2021 8:30:00 AM 1.32 34.376 0.064 6.11 3.45 13.87
1/15/2021 8:45:00 AM 1.34 34.412 0.064 6.1 2.82 13.87
1/15/2021 9:00:00 AM 1.36 34.448 0.064 6.1 2.83 13.87
1/15/2021 9:15:00 AM 1.38 34.484 0.064 6.13 2.8 13.88
1/15/2021 9:30:00 AM 1.41 34.538 0.064 6.12 2.9 13.88
1/15/2021 9:45:00 AM 1.45 34.61 0.064 6.12 2.86 13.88
1/15/2021 10:00:00 AM 1.5 34.7 0.064 6.13 2.81 13.87
1/15/2021 10:15:00 AM 1.54 34.772 0.064 6.13 2.82 13.86
1/15/2021 10:30:00 AM 1.59 34.862 0.064 6.14 2.87 13.84
1/15/2021 10:45:00 AM 1.64 34.952 0.064 6.14 2.83 13.82
1/15/2021 11:00:00 AM 1.72 35.096 0.064 6.15 2.89 13.8
1/15/2021 11:15:00 AM 1.8 35.24 0.064 6.15 2.83 13.78
1/15/2021 11:30:00 AM 1.87 35.366 0.064 6.15 2.84 13.75
1/15/2021 11:45:00 AM 1.92 35.456 0.064 6.15 2.81 13.71
1/15/2021 12:00:00 PM 1.97 35.546 0.064 6.14 2.86 13.69
1/15/2021 12:15:00 PM 2.01 35.618 0.064 6.14 2.82 13.66
1/15/2021 12:30:00 PM 2.05 35.69 0.064 6.15 2.83 13.64
1/15/2021 12:45:00 PM 2.08 35.744 0.064 6.13 2.83 13.62
1/15/2021 1:00:00 PM 2.11 35.798 0.064 6.14 2.82 13.6
1/15/2021 1:15:00 PM 2.14 35.852 0.064 6.13 2.85 13.58
1/15/2021 1:30:00 PM 2.17 35.906 0.064 6.13 2.79 13.57
1/15/2021 1:45:00 PM 2.19 35.942 0.064 6.14 2.87 13.55
1/15/2021 2:00:00 PM 2.2 35.96 0.064 6.12 2.82 13.54
1/15/2021 2:15:00 PM 2.21 35.978 0.064 6.13 2.87 13.51
1/15/2021 2:30:00 PM 2.22 35.996 0.064 6.11 2.91 13.49
1/15/2021 2:45:00 PM 2.23 36.014 0.064 6.12 2.8 13.49
1/15/2021 3:00:00 PM 2.24 36.032 0.064 6.12 2.9 13.49
1/15/2021 3:15:00 PM 2.26 36.068 0.064 6.13 2.89 13.48
1/15/2021 3:30:00 PM 2.28 36.104 0.064 6.12 2.83 13.46
1/15/2021 3:45:00 PM 2.29 36.122 0.064 6.12 2.81 13.45
1/15/2021 4:00:00 PM 2.3 36.14 0.064 6.12 2.89 13.44
1/15/2021 4:15:00 PM 2.31 36.158 0.064 6.12 2.78 13.43
1/15/2021 4:30:00 PM 2.32 36.176 0.064 6.13 2.9 13.42
1/15/2021 4:45:00 PM 2.33 36.194 0.064 6.12 2.88 13.42
1/15/2021 5:00:00 PM 2.34 36.212 0.064 6.11 2.91 13.41
1/15/2021 5:15:00 PM 2.35 36.23 0.064 6.11 2.74 13.4
1/15/2021 5:30:00 PM 2.36 36.248 0.064 6.12 2.92 13.39
1/15/2021 5:45:00 PM 2.38 36.284 0.064 6.13 2.77 13.39
1/15/2021 6:00:00 PM 2.39 36.302 0.064 6.13 3.02 13.38
1/15/2021 6:15:00 PM 2.41 36.338 0.064 6.12 2.82 13.38
1/15/2021 6:30:00 PM 2.42 36.356 0.064 6.12 2.86 13.37
1/15/2021 6:45:00 PM 2.43 36.374 0.064 6.12 2.78 13.36
1/15/2021 7:00:00 PM 2.46 36.428 0.064 6.13 2.84 13.35
1/15/2021 7:15:00 PM 2.48 36.464 0.064 6.13 2.81 13.35
1/15/2021 7:30:00 PM 2.5 36.5 0.064 6.12 2.86 13.34
1/15/2021 7:45:00 PM 2.51 36.518 0.064 6.13 2.84 13.33
1/15/2021 8:00:00 PM 2.53 36.554 0.064 6.12 2.83 13.33
1/15/2021 8:15:00 PM 2.54 36.572 0.064 6.13 2.91 13.32
1/15/2021 8:30:00 PM 2.54 36.572 0.064 6.11 2.87 13.31
1/15/2021 8:45:00 PM 2.55 36.59 0.064 6.12 2.86 13.31
1/15/2021 9:00:00 PM 2.55 36.59 0.064 6.12 2.94 13.31
1/15/2021 9:15:00 PM 2.56 36.608 0.064 6.12 2.94 13.3
1/15/2021 9:30:00 PM 2.56 36.608 0.064 6.11 2.92 13.3
1/15/2021 9:45:00 PM 2.57 36.626 0.064 6.11 2.94 13.3
1/15/2021 10:00:00 PM 2.57 36.626 0.064 6.1 2.95 13.29
1/15/2021 10:15:00 PM 2.57 36.626 0.063 6.11 2.92 13.29
1/15/2021 10:30:00 PM 2.57 36.626 0.063 6.12 2.95 13.29
1/15/2021 10:45:00 PM 2.58 36.644 0.063 6.1 2.97 13.28
1/15/2021 11:00:00 PM 2.58 36.644 0.063 6.1 3.08 13.28
1/15/2021 11:15:00 PM 2.58 36.644 0.063 6.1 3.13 13.28
1/15/2021 11:30:00 PM 2.59 36.662 0.063 6.1 3.59 13.28
1/15/2021 11:45:00 PM 2.6 36.68 0.063 6.1 3.87 13.27
1/16/2021 12:00:00 AM 2.61 36.698 0.063 6.1 4.44 13.26
1/16/2021 12:15:00 AM 2.62 36.716 0.063 6.1 4.72 13.26
1/16/2021 12:30:00 AM 2.62 36.716 0.063 6.12 6.68 13.26
1/16/2021 12:45:00 AM 2.62 36.716 0.063 6.11 9.56 13.26
1/16/2021 1:00:00 AM 2.61 36.698 0.063 6.11 10.19 13.26
1/16/2021 1:15:00 AM 2.61 36.698 0.063 6.11 9.77 13.26
1/16/2021 1:30:00 AM 2.6 36.68 0.063 6.11 9.96 13.26
1/16/2021 1:45:00 AM 2.59 36.662 0.062 6.12 10.18 13.27
1/16/2021 2:00:00 AM 2.58 36.644 0.063 6.15 10.88 13.28
1/16/2021 2:15:00 AM 2.58 36.644 0.063 6.17 10.69 13.28
1/16/2021 2:30:00 AM 2.58 36.644 0.063 6.19 11.57 13.29
1/16/2021 2:45:00 AM 2.58 36.644 0.062 6.17 12.81 13.29
1/16/2021 3:00:00 AM 2.57 36.626 0.061 6.17 15.07 13.3
1/16/2021 3:15:00 AM 2.56 36.608 0.06 6.14 15.97 13.31
1/16/2021 3:30:00 AM 2.54 36.572 0.059 6.12 16.22 13.32
1/16/2021 3:45:00 AM 2.53 36.554 0.059 6.11 15.8 13.32
1/16/2021 4:00:00 AM 2.51 36.518 0.058 6.09 15.69 13.32
1/16/2021 4:15:00 AM 2.49 36.482 0.058 6.07 15.78 13.33
1/16/2021 4:30:00 AM 2.48 36.464 0.057 6.06 15.21 13.33
1/16/2021 4:45:00 AM 2.45 36.41 0.056 6.06 14.58 13.34
1/16/2021 5:00:00 AM 2.43 36.374 0.055 6.03 13.73 13.35
1/16/2021 5:15:00 AM 2.41 36.338 0.055 6.02 13.09 13.36
1/16/2021 5:30:00 AM 2.39 36.302 0.055 6.02 12.75 13.36
1/16/2021 5:45:00 AM 2.37 36.266 0.056 6.01 12.24 13.37
1/16/2021 6:00:00 AM 2.34 36.212 0.058 6.02 12.38 13.37
1/16/2021 6:15:00 AM 2.31 36.158 0.059 6.01 12.56 13.38
1/16/2021 6:30:00 AM 2.29 36.122 0.06 6.02 11.74 13.39
1/16/2021 6:45:00 AM 2.27 36.086 0.06 6.05 11.98 13.4
1/16/2021 7:00:00 AM 2.25 36.05 0.061 6.03 11.54 13.41
1/16/2021 7:15:00 AM 2.23 36.014 0.061 6.02 13.75 13.4
1/16/2021 7:30:00 AM 2.2 35.96 0.061 6.01 13.31 13.41
1/16/2021 7:45:00 AM 2.18 35.924 0.061 6.01 12.77 13.42
1/16/2021 8:00:00 AM 2.17 35.906 0.061 5.99 12.42 13.42
1/16/2021 8:15:00 AM 2.16 35.888 0.061 6 11.42 13.42
1/16/2021 8:30:00 AM 2.16 35.888 0.061 6 12.31 13.43
1/16/2021 8:45:00 AM 2.16 35.888 0.061 5.99 11.51 13.43
1/16/2021 9:00:00 AM 2.17 35.906 0.061 5.99 10.05 13.43
1/16/2021 9:15:00 AM 2.18 35.924 0.061 6 11.44 13.43
1/16/2021 9:30:00 AM 2.2 35.96 0.061 6 10.66 13.42
1/16/2021 9:45:00 AM 2.22 35.996 0.061 6 8.52 13.42
1/16/2021 10:00:00 AM 2.24 36.032 0.061 6 9.23 13.41
1/16/2021 10:15:00 AM 2.26 36.068 0.061 5.99 8.22 13.41
1/16/2021 10:30:00 AM 2.28 36.104 0.062 5.98 7.92 13.4
1/16/2021 10:45:00 AM 2.31 36.158 0.062 5.98 7.55 13.39
1/16/2021 11:00:00 AM 2.32 36.176 0.063 5.99 7.14 13.38
1/16/2021 11:15:00 AM 2.34 36.212 0.063 5.99 7.2 13.37
1/16/2021 11:30:00 AM 2.36 36.248 0.063 5.99 6.92 13.37
1/16/2021 11:45:00 AM 2.4 36.32 0.064 6 6.6 13.36
1/16/2021 12:00:00 PM 2.48 36.464 0.064 6.02 6.55 13.34
1/16/2021 12:15:00 PM 2.53 36.554 0.064 6.01 6.31 13.32
1/16/2021 12:30:00 PM 2.56 36.608 0.064 6.01 6.37 13.31
1/16/2021 12:45:00 PM 2.59 36.662 0.064 6 5.88 13.29
1/16/2021 1:00:00 PM 2.61 36.698 0.064 6 5.98 13.27
1/16/2021 1:15:00 PM 2.66 36.788 0.064 6.01 5.83 13.26
1/16/2021 1:30:00 PM 2.7 36.86 0.063 5.99 5.97 13.23
1/16/2021 1:45:00 PM 2.71 36.878 0.063 6 5.79 13.22
1/16/2021 2:00:00 PM 2.75 36.95 0.063 6 5.54 13.21
1/16/2021 2:15:00 PM 2.74 36.932 0.063 5.99 5.77 13.2
1/16/2021 2:30:00 PM 2.74 36.932 0.063 6 5.39 13.19
1/16/2021 2:45:00 PM 2.75 36.95 0.063 6 5.51 13.19
1/16/2021 3:00:00 PM 2.77 36.986 0.063 5.99 5.46 13.18
1/16/2021 3:15:00 PM 2.78 37.004 0.063 5.99 5.27 13.18
1/16/2021 3:30:00 PM 2.77 36.986 0.063 5.99 5.24 13.17
1/16/2021 3:45:00 PM 2.76 36.968 0.063 5.96 5.15 13.17
1/16/2021 4:00:00 PM 2.73 36.914 0.063 5.98 5.06 13.18
1/16/2021 4:15:00 PM 2.71 36.878 0.063 5.97 5.14 13.19
1/16/2021 4:30:00 PM 2.69 36.842 0.063 5.97 5.01 13.19
1/16/2021 4:45:00 PM 2.67 36.806 0.063 5.96 4.8 13.2
1/16/2021 5:00:00 PM 2.65 36.77 0.063 5.96 4.88 13.2
1/16/2021 5:15:00 PM 2.62 36.716 0.063 5.97 4.87 13.21
1/16/2021 5:30:00 PM 2.59 36.662 0.063 5.96 4.91 13.22
1/16/2021 5:45:00 PM 2.56 36.608 0.063 5.94 4.9 13.24
1/16/2021 6:00:00 PM 2.54 36.572 0.063 5.94 4.65 13.24
1/16/2021 6:15:00 PM 2.51 36.518 0.063 5.95 4.67 13.26
1/16/2021 6:30:00 PM 2.48 36.464 0.063 5.96 4.63 13.27
1/16/2021 6:45:00 PM 2.46 36.428 0.063 5.94 4.66 13.28
1/16/2021 7:00:00 PM 2.43 36.374 0.063 5.94 4.63 13.29
1/16/2021 7:15:00 PM 2.4 36.32 0.063 5.95 4.68 13.3
1/16/2021 7:30:00 PM 2.38 36.284 0.063 5.95 4.65 13.31
1/16/2021 7:45:00 PM 2.36 36.248 0.063 5.94 4.61 13.32
1/16/2021 8:00:00 PM 2.33 36.194 0.063 5.95 4.57 13.33
1/16/2021 8:15:00 PM 2.31 36.158 0.063 5.96 4.58 13.33
1/16/2021 8:30:00 PM 2.29 36.122 0.063 5.95 4.53 13.34
1/16/2021 8:45:00 PM 2.27 36.086 0.063 5.95 4.49 13.35
1/16/2021 9:00:00 PM 2.25 36.05 0.064 5.95 4.38 13.36
1/16/2021 9:15:00 PM 2.23 36.014 0.064 5.96 4.53 13.36
1/16/2021 9:30:00 PM 2.21 35.978 0.064 5.95 4.42 13.37
1/16/2021 9:45:00 PM 2.2 35.96 0.064 5.94 4.47 13.38
1/16/2021 10:00:00 PM 2.19 35.942 0.064 5.96 4.34 13.38
1/16/2021 10:15:00 PM 2.17 35.906 0.064 5.95 4.36 13.39
1/16/2021 10:30:00 PM 2.15 35.87 0.064 5.96 4.4 13.39
1/16/2021 10:45:00 PM 2.12 35.816 0.064 5.95 4.24 13.4
1/16/2021 11:00:00 PM 2.1 35.78 0.064 5.95 4.11 13.41
1/16/2021 11:15:00 PM 2.1 35.78 0.064 5.96 4.32 13.42
1/16/2021 11:30:00 PM 2.08 35.744 0.064 5.95 4.21 13.42
1/16/2021 11:45:00 PM 2.07 35.726 0.064 5.97 4.2 13.43
1/17/2021 12:00:00 AM 2.06 35.708 0.064 5.97 4.21 13.43
1/17/2021 12:15:00 AM 2.04 35.672 0.065 5.94 4.16 13.43
1/17/2021 12:30:00 AM 2.02 35.636 0.065 5.94 4.24 13.44
1/17/2021 12:45:00 AM 2 35.6 0.065 5.95 4.08 13.45
1/17/2021 1:00:00 AM 1.97 35.546 0.065 5.96 4.07 13.46
1/17/2021 1:15:00 AM 1.96 35.528 0.065 5.96 3.94 13.46
1/17/2021 1:30:00 AM 1.93 35.474 0.065 5.96 4.09 13.47
1/17/2021 1:45:00 AM 1.91 35.438 0.065 5.97 4.09 13.48
1/17/2021 2:00:00 AM 1.91 35.438 0.065 5.97 4.02 13.49
1/17/2021 2:15:00 AM 1.9 35.42 0.065 5.98 4.01 13.49
1/17/2021 2:30:00 AM 1.9 35.42 0.066 5.97 3.91 13.49
1/17/2021 2:45:00 AM 1.9 35.42 0.066 5.97 4 13.5
1/17/2021 3:00:00 AM 1.9 35.42 0.066 5.96 3.95 13.5
1/17/2021 3:15:00 AM 1.89 35.402 0.066 5.98 3.89 13.5
1/17/2021 3:30:00 AM 1.89 35.402 0.066 5.97 3.92 13.51
1/17/2021 3:45:00 AM 1.89 35.402 0.066 5.96 3.88 13.51
1/17/2021 4:00:00 AM 1.89 35.402 0.066 5.96 3.72 13.51
1/17/2021 4:15:00 AM 1.88 35.384 0.066 5.97 3.84 13.51
1/17/2021 4:30:00 AM 1.88 35.384 0.066 5.97 3.84 13.52
1/17/2021 4:45:00 AM 1.87 35.366 0.066 5.97 3.88 13.52
1/17/2021 5:00:00 AM 1.86 35.348 0.066 5.98 4.19 13.52
1/17/2021 5:15:00 AM 1.84 35.312 0.067 5.98 3.93 13.53
1/17/2021 5:30:00 AM 1.83 35.294 0.067 5.97 3.79 13.53
1/17/2021 5:45:00 AM 1.82 35.276 0.067 5.97 3.8 13.54
1/17/2021 6:00:00 AM 1.8 35.24 0.067 5.97 3.7 13.55
1/17/2021 6:15:00 AM 1.77 35.186 0.067 5.96 3.67 13.56
1/17/2021 6:30:00 AM 1.75 35.15 0.067 5.97 3.8 13.57
1/17/2021 6:45:00 AM 1.73 35.114 0.067 5.96 3.71 13.57
1/17/2021 7:00:00 AM 1.7 35.06 0.067 5.95 3.82 13.59
1/17/2021 7:15:00 AM 1.68 35.024 0.067 5.97 3.72 13.6
1/17/2021 7:30:00 AM 1.66 34.988 0.067 5.98 3.78 13.61
1/17/2021 7:45:00 AM 1.66 34.988 0.067 5.96 3.7 13.61
1/17/2021 8:00:00 AM 1.65 34.97 0.067 5.97 3.74 13.63
1/17/2021 8:15:00 AM 1.66 34.988 0.067 5.97 3.68 13.62
1/17/2021 8:30:00 AM 1.66 34.988 0.067 5.98 3.69 13.64
1/17/2021 8:45:00 AM 1.67 35.006 0.067 5.99 3.63 13.64
1/17/2021 9:00:00 AM 1.69 35.042 0.068 5.99 3.69 13.64
1/17/2021 9:15:00 AM 1.7 35.06 0.068 5.99 3.66 13.64
1/17/2021 9:30:00 AM 1.71 35.078 0.068 5.99 3.62 13.64
1/17/2021 9:45:00 AM 1.73 35.114 0.068 5.99 3.6 13.64
1/17/2021 10:00:00 AM 1.75 35.15 0.068 5.99 3.56 13.64
1/17/2021 10:15:00 AM 1.79 35.222 0.068 6 3.63 13.63
1/17/2021 10:30:00 AM 1.82 35.276 0.068 6.01 3.6 13.62
1/17/2021 10:45:00 AM 1.85 35.33 0.068 6.02 3.58 13.61
1/17/2021 11:00:00 AM 1.89 35.402 0.068 6.01 3.57 13.6
1/17/2021 11:15:00 AM 1.94 35.492 0.068 6.02 3.59 13.59
1/17/2021 11:30:00 AM 1.99 35.582 0.068 6.02 3.68 13.57
1/17/2021 11:45:00 AM 2.06 35.708 0.068 6.04 3.55 13.56
1/17/2021 12:00:00 PM 2.09 35.762 0.068 6 3.53 13.53
1/17/2021 12:15:00 PM 2.11 35.798 0.068 6 3.6 13.52
1/17/2021 12:30:00 PM 2.13 35.834 0.068 5.99 3.51 13.51
1/17/2021 12:45:00 PM 2.14 35.852 0.068 6.02 3.59 13.51
1/17/2021 1:00:00 PM 2.15 35.87 0.068 6 3.59 13.51
1/17/2021 1:15:00 PM 2.16 35.888 0.068 5.99 3.54 13.5
1/17/2021 1:30:00 PM 2.18 35.924 0.068 5.99 3.51 13.49
1/17/2021 1:45:00 PM 2.2 35.96 0.068 5.99 3.55 13.49
1/17/2021 2:00:00 PM 2.21 35.978 0.068 5.98 3.54 13.48
1/17/2021 2:15:00 PM 2.23 36.014 0.068 5.99 3.61 13.47
1/17/2021 2:30:00 PM 2.24 36.032 0.068 5.98 3.55 13.47
1/17/2021 2:45:00 PM 2.25 36.05 0.068 5.99 3.64 13.46
1/17/2021 3:00:00 PM 2.26 36.068 0.068 5.97 3.6 13.45
1/17/2021 3:15:00 PM 2.27 36.086 0.068 5.98 3.51 13.45
1/17/2021 3:30:00 PM 2.28 36.104 0.068 5.99 3.57 13.45
1/17/2021 3:45:00 PM 2.29 36.122 0.069 5.99 3.52 13.44
1/17/2021 4:00:00 PM 2.29 36.122 0.069 5.98 3.55 13.44
1/17/2021 4:15:00 PM 2.29 36.122 0.069 5.97 3.52 13.43
1/17/2021 4:30:00 PM 2.29 36.122 0.069 5.99 3.47 13.43
1/17/2021 4:45:00 PM 2.3 36.14 0.069 5.98 3.62 13.42
1/17/2021 5:00:00 PM 2.3 36.14 0.069 5.98 3.44 13.42
1/17/2021 5:15:00 PM 2.3 36.14 0.069 5.98 3.47 13.41
1/17/2021 5:30:00 PM 2.3 36.14 0.069 5.98 3.54 13.41
1/17/2021 5:45:00 PM 2.3 36.14 0.069 5.98 3.49 13.41
1/17/2021 6:00:00 PM 2.31 36.158 0.069 5.97 3.43 13.41
1/17/2021 6:15:00 PM 2.31 36.158 0.069 5.97 3.51 13.41
1/17/2021 6:30:00 PM 2.31 36.158 0.069 5.98 3.42 13.41
1/17/2021 6:45:00 PM 2.31 36.158 0.069 5.99 3.41 13.41
1/17/2021 7:00:00 PM 2.31 36.158 0.069 5.99 3.37 13.41
1/17/2021 7:15:00 PM 2.3 36.14 0.069 5.97 3.48 13.41
1/17/2021 7:30:00 PM 2.3 36.14 0.069 5.98 3.47 13.42
1/17/2021 7:45:00 PM 2.3 36.14 0.069 5.96 3.47 13.42
1/17/2021 8:00:00 PM 2.29 36.122 0.069 5.97 3.38 13.42
1/17/2021 8:15:00 PM 2.29 36.122 0.069 5.98 3.32 13.42
1/17/2021 8:30:00 PM 2.28 36.104 0.069 5.98 3.45 13.42
1/17/2021 8:45:00 PM 2.27 36.086 0.069 5.97 3.43 13.42
1/17/2021 9:00:00 PM 2.27 36.086 0.069 5.99 3.39 13.42
1/17/2021 9:15:00 PM 2.28 36.104 0.069 5.98 3.36 13.43
1/17/2021 9:30:00 PM 2.28 36.104 0.068 6.01 3.38 13.43
1/17/2021 9:45:00 PM 2.27 36.086 0.068 5.99 3.36 13.43
1/17/2021 10:00:00 PM 2.27 36.086 0.068 5.99 3.35 13.43
1/17/2021 10:15:00 PM 2.28 36.104 0.068 6.01 3.34 13.43
1/17/2021 10:30:00 PM 2.27 36.086 0.068 6 3.35 13.43
1/17/2021 10:45:00 PM 2.27 36.086 0.068 5.99 6.14 13.43
1/17/2021 11:00:00 PM 2.27 36.086 0.068 5.98 3.38 13.43
1/17/2021 11:15:00 PM 2.26 36.068 0.068 6 3.34 13.42
1/17/2021 11:30:00 PM 2.24 36.032 0.068 5.99 3.34 13.43
1/17/2021 11:45:00 PM 2.23 36.014 0.068 5.98 3.31 13.43
1/18/2021 12:00:00 AM 2.22 35.996 0.068 5.97 3.3 13.43
1/18/2021 12:15:00 AM 2.22 35.996 0.068 5.96 3.3 13.44
1/18/2021 12:30:00 AM 2.22 35.996 0.068 5.97 3.31 13.44
1/18/2021 12:45:00 AM 2.21 35.978 0.068 5.97 3.33 13.44
1/18/2021 1:00:00 AM 2.21 35.978 0.068 5.98 3.26 13.44
1/18/2021 1:15:00 AM 2.2 35.96 0.068 5.99 3.32 13.44
1/18/2021 1:30:00 AM 2.2 35.96 0.068 5.98 3.41 13.44
1/18/2021 1:45:00 AM 2.2 35.96 0.068 6 3.3 13.44
1/18/2021 2:00:00 AM 2.19 35.942 0.068 6 3.32 13.45
1/18/2021 2:15:00 AM 2.19 35.942 0.068 6 3.36 13.45
1/18/2021 2:30:00 AM 2.2 35.96 0.068 6.01 3.4 13.45
1/18/2021 2:45:00 AM 2.2 35.96 0.068 5.99 3.41 13.45
1/18/2021 3:00:00 AM 2.2 35.96 0.068 6 3.39 13.45
1/18/2021 3:15:00 AM 2.2 35.96 0.068 5.99 3.4 13.45
1/18/2021 3:30:00 AM 2.2 35.96 0.068 5.96 3.36 13.45
1/18/2021 3:45:00 AM 2.2 35.96 0.068 5.99 3.4 13.45
1/18/2021 4:00:00 AM 2.2 35.96 0.068 6 3.38 13.45
1/18/2021 4:15:00 AM 2.2 35.96 0.068 5.99 3.32 13.45
1/18/2021 4:30:00 AM 2.2 35.96 0.068 5.99 3.33 13.45
1/18/2021 4:45:00 AM 2.2 35.96 0.068 5.98 3.31 13.45
1/18/2021 5:00:00 AM 2.19 35.942 0.068 6.01 3.26 13.45
1/18/2021 5:15:00 AM 2.19 35.942 0.067 6.01 3.27 13.45
1/18/2021 5:30:00 AM 2.18 35.924 0.067 6 3.33 13.45
1/18/2021 5:45:00 AM 2.18 35.924 0.067 5.98 3.22 13.45
1/18/2021 6:00:00 AM 2.16 35.888 0.067 5.98 3.33 13.46
1/18/2021 6:15:00 AM 2.15 35.87 0.067 6 3.34 13.46
1/18/2021 6:30:00 AM 2.14 35.852 0.067 6 3.28 13.47
1/18/2021 6:45:00 AM 2.13 35.834 0.067 5.99 3.3 13.47
1/18/2021 7:00:00 AM 2.12 35.816 0.067 5.98 3.24 13.48
1/18/2021 7:15:00 AM 2.11 35.798 0.067 5.98 3.26 13.48
1/18/2021 7:30:00 AM 2.11 35.798 0.067 5.98 3.25 13.49
1/18/2021 7:45:00 AM 2.1 35.78 0.067 5.99 3.27 13.5
1/18/2021 8:00:00 AM 2.09 35.762 0.067 5.99 3.24 13.5
1/18/2021 8:15:00 AM 2.08 35.744 0.067 5.99 3.22 13.52
1/18/2021 8:30:00 AM 2.09 35.762 0.067 5.99 3.24 13.53
1/18/2021 8:45:00 AM 2.1 35.78 0.067 6 3.24 13.53
1/18/2021 9:00:00 AM 2.1 35.78 0.067 6 3.17 13.53
1/18/2021 9:15:00 AM 2.12 35.816 0.067 5.99 3.19 13.54
1/18/2021 9:30:00 AM 2.16 35.888 0.067 6 3.21 13.54
1/18/2021 9:45:00 AM 2.19 35.942 0.067 6.01 3.21 13.54
1/18/2021 10:00:00 AM 2.22 35.996 0.067 6 3.16 13.53
1/18/2021 10:15:00 AM 2.25 36.05 0.067 6.03 3.2 13.52
1/18/2021 10:30:00 AM 2.3 36.14 0.067 6.03 3.16 13.51
1/18/2021 10:45:00 AM 2.36 36.248 0.067 6.03 3.14 13.49
1/18/2021 11:00:00 AM 2.4 36.32 0.067 6.02 3.13 13.47
1/18/2021 11:15:00 AM 2.44 36.392 0.067 6.01 3.18 13.45
1/18/2021 11:30:00 AM 2.46 36.428 0.067 6 3.27 13.45
1/18/2021 11:45:00 AM 2.49 36.482 0.067 6.02 3.16 13.43
1/18/2021 12:00:00 PM 2.53 36.554 0.067 6.04 3.14 13.41
1/18/2021 12:15:00 PM 2.6 36.68 0.067 6.05 3.17 13.38
1/18/2021 12:30:00 PM 2.65 36.77 0.066 6.03 3.14 13.35
1/18/2021 12:45:00 PM 2.69 36.842 0.066 6.03 3.14 13.34
1/18/2021 1:00:00 PM 2.74 36.932 0.066 6.03 3.13 13.32
1/18/2021 1:15:00 PM 2.74 36.932 0.066 6.03 3.11 13.31
1/18/2021 1:30:00 PM 2.72 36.896 0.066 6.02 3.11 13.3
1/18/2021 1:45:00 PM 2.75 36.95 0.066 6.02 3.24 13.3
1/18/2021 2:00:00 PM 2.76 36.968 0.066 6.03 3.17 13.3
1/18/2021 2:15:00 PM 2.75 36.95 0.066 6.02 3.16 13.3
1/18/2021 2:30:00 PM 2.74 36.932 0.066 6.03 3.17 13.3
1/18/2021 2:45:00 PM 2.75 36.95 0.066 6.02 3.18 13.31
1/18/2021 3:00:00 PM 2.75 36.95 0.066 6.01 3.14 13.31
1/18/2021 3:15:00 PM 2.74 36.932 0.066 6.01 3.16 13.31
1/18/2021 3:30:00 PM 2.72 36.896 0.066 6.01 3.14 13.31
1/18/2021 3:45:00 PM 2.71 36.878 0.066 6.01 3.12 13.31
1/18/2021 4:00:00 PM 2.7 36.86 0.066 6.02 3.15 13.32
1/18/2021 4:15:00 PM 2.7 36.86 0.066 6 3.11 13.32
1/18/2021 4:30:00 PM 2.68 36.824 0.066 6.02 3.15 13.32
1/18/2021 4:45:00 PM 2.67 36.806 0.066 6.01 3.18 13.32
1/18/2021 5:00:00 PM 2.65 36.77 0.066 5.99 3.22 13.32
1/18/2021 5:15:00 PM 2.64 36.752 0.066 6.01 3.17 13.32
1/18/2021 5:30:00 PM 2.61 36.698 0.066 6 3.19 13.33
1/18/2021 5:45:00 PM 2.59 36.662 0.066 6.01 3.19 13.34
1/18/2021 6:00:00 PM 2.56 36.608 0.066 6 3.28 13.35
1/18/2021 6:15:00 PM 2.54 36.572 0.066 6 3.3 13.36
1/18/2021 6:30:00 PM 2.51 36.518 0.066 6.01 3.27 13.37
1/18/2021 6:45:00 PM 2.49 36.482 0.066 6.01 3.31 13.38
1/18/2021 7:00:00 PM 2.47 36.446 0.066 6.01 3.28 13.4
1/18/2021 7:15:00 PM 2.46 36.428 0.066 6 3.36 13.41
1/18/2021 7:30:00 PM 2.45 36.41 0.066 6 3.34 13.41
1/18/2021 7:45:00 PM 2.43 36.374 0.066 6 3.31 13.42
1/18/2021 8:00:00 PM 2.42 36.356 0.066 6.02 3.32 13.43
1/18/2021 8:15:00 PM 2.41 36.338 0.066 6 3.31 13.44
1/18/2021 8:30:00 PM 2.4 36.32 0.066 6.01 3.27 13.45
1/18/2021 8:45:00 PM 2.39 36.302 0.066 6.01 3.38 13.45
1/18/2021 9:00:00 PM 2.38 36.284 0.066 6 3.25 13.46
1/18/2021 9:15:00 PM 2.36 36.248 0.066 6 3.36 13.47
1/18/2021 9:30:00 PM 2.35 36.23 0.066 6 3.33 13.47
1/18/2021 9:45:00 PM 2.34 36.212 0.066 6.01 3.34 13.48
1/18/2021 10:00:00 PM 2.33 36.194 0.066 6.01 3.31 13.48
1/18/2021 10:15:00 PM 2.32 36.176 0.066 6.02 3.37 13.49
1/18/2021 10:30:00 PM 2.31 36.158 0.066 6.01 3.31 13.5
1/18/2021 10:45:00 PM 2.3 36.14 0.066 6.02 3.37 13.5
1/18/2021 11:00:00 PM 2.3 36.14 0.066 6.01 3.35 13.51
1/18/2021 11:15:00 PM 2.29 36.122 0.066 6.01 3.33 13.52
1/18/2021 11:30:00 PM 2.28 36.104 0.066 6.01 3.63 13.52
1/18/2021 11:45:00 PM 2.26 36.068 0.066 6.01 3.3 13.53
1/19/2021 12:00:00 AM 2.24 36.032 0.066 6 3.35 13.53
1/19/2021 12:15:00 AM 2.21 35.978 0.066 6 3.31 13.54
1/19/2021 12:30:00 AM 2.19 35.942 0.066 6.01 3.31 13.56
1/19/2021 12:45:00 AM 2.18 35.924 0.066 5.99 3.26 13.56
1/19/2021 1:00:00 AM 2.17 35.906 0.066 6 3.35 13.57
1/19/2021 1:15:00 AM 2.16 35.888 0.066 5.99 3.24 13.57
1/19/2021 1:30:00 AM 2.15 35.87 0.066 6.01 3.21 13.58
1/19/2021 1:45:00 AM 2.15 35.87 0.066 6 3.19 13.58
1/19/2021 2:00:00 AM 2.14 35.852 0.066 6.01 3.21 13.58
1/19/2021 2:15:00 AM 2.14 35.852 0.066 6 3.24 13.59
1/19/2021 2:30:00 AM 2.14 35.852 0.066 6.01 3.18 13.59
1/19/2021 2:45:00 AM 2.13 35.834 0.066 6.03 3.23 13.59
1/19/2021 3:00:00 AM 2.13 35.834 0.066 6.03 3.26 13.6
1/19/2021 3:15:00 AM 2.12 35.816 0.066 6.01 3.23 13.6
1/19/2021 3:30:00 AM 2.1 35.78 0.066 6.01 3.21 13.61
1/19/2021 3:45:00 AM 2.09 35.762 0.066 6.02 3.19 13.61
1/19/2021 4:00:00 AM 2.08 35.744 0.066 6.03 3.21 13.62
1/19/2021 4:15:00 AM 2.07 35.726 0.066 6.02 3.18 13.62
1/19/2021 4:30:00 AM 2.06 35.708 0.066 6.02 3.17 13.63
1/19/2021 4:45:00 AM 2.05 35.69 0.066 6.01 3.2 13.63
1/19/2021 5:00:00 AM 2.03 35.654 0.066 6.02 3.18 13.64
1/19/2021 5:15:00 AM 2.01 35.618 0.066 6.02 3.18 13.65
1/19/2021 5:30:00 AM 2 35.6 0.066 6.02 3.14 13.66
1/19/2021 5:45:00 AM 1.98 35.564 0.066 6.01 3.15 13.67
1/19/2021 6:00:00 AM 1.96 35.528 0.066 6.02 3.16 13.68
1/19/2021 6:15:00 AM 1.95 35.51 0.066 6.01 3.15 13.68
1/19/2021 6:30:00 AM 1.92 35.456 0.066 6.01 3.2 13.69
1/19/2021 6:45:00 AM 1.91 35.438 0.066 6.02 3.27 13.7
1/19/2021 7:00:00 AM 1.9 35.42 0.066 6.02 3.21 13.71
1/19/2021 7:15:00 AM 1.88 35.384 0.066 6.01 3.28 13.71
1/19/2021 7:30:00 AM 1.87 35.366 0.066 6.03 3.24 13.72
1/19/2021 7:45:00 AM 1.86 35.348 0.066 6.03 3.22 13.73
1/19/2021 8:00:00 AM 1.86 35.348 0.066 6.02 3.2 13.73
1/19/2021 8:15:00 AM 1.85 35.33 0.066 6.03 3.21 13.74
1/19/2021 8:30:00 AM 1.85 35.33 0.066 6.02 3.22 13.75
1/19/2021 8:45:00 AM 1.86 35.348 0.066 6.02 3.25 13.77
1/19/2021 9:00:00 AM 1.87 35.366 0.066 6.04 3.17 13.78
1/19/2021 9:15:00 AM 1.88 35.384 0.065 6.05 3.18 13.78
1/19/2021 9:30:00 AM 1.89 35.402 0.065 6.03 3.19 13.78
1/19/2021 9:45:00 AM 1.9 35.42 0.065 6.05 3.15 13.78
1/19/2021 10:00:00 AM 1.91 35.438 0.065 6.06 3.1 13.78
1/19/2021 10:15:00 AM 1.94 35.492 0.065 6.05 3.21 13.78
1/19/2021 10:30:00 AM 1.96 35.528 0.065 6.06 3.14 13.78
1/19/2021 10:45:00 AM 1.98 35.564 0.065 6.07 3.14 13.77
1/19/2021 11:00:00 AM 2.01 35.618 0.065 6.06 3.16 13.77
1/19/2021 11:15:00 AM 2.03 35.654 0.065 6.06 3.09 13.76
1/19/2021 11:30:00 AM 2.04 35.672 0.065 6.07 3.12 13.75
1/19/2021 11:45:00 AM 2.03 35.654 0.065 6.06 3.13 13.73
1/19/2021 12:00:00 PM 2.05 35.69 0.065 6.06 3.12 13.73
1/19/2021 12:15:00 PM 2.07 35.726 0.065 6.06 3.2 13.73
1/19/2021 12:30:00 PM 2.1 35.78 0.065 6.07 3.12 13.73
1/19/2021 12:45:00 PM 2.12 35.816 0.065 6.07 3.14 13.72
1/19/2021 1:00:00 PM 2.13 35.834 0.065 6.07 3.11 13.7
1/19/2021 1:15:00 PM 2.14 35.852 0.065 6.06 3.12 13.69
1/19/2021 1:30:00 PM 2.17 35.906 0.065 6.07 3.16 13.68
1/19/2021 1:45:00 PM 2.19 35.942 0.065 6.07 3.06 13.68
1/19/2021 2:00:00 PM 2.19 35.942 0.065 6.06 3.11 13.66
1/19/2021 2:15:00 PM 2.19 35.942 0.065 6.05 3.08 13.66
1/19/2021 2:30:00 PM 2.2 35.96 0.065 6.07 3.08 13.66
1/19/2021 2:45:00 PM 2.22 35.996 0.065 6.07 3.08 13.66
1/19/2021 3:00:00 PM 2.23 36.014 0.065 6.07 3.01 13.65
1/19/2021 3:15:00 PM 2.23 36.014 0.065 6.06 3.07 13.65
1/19/2021 3:30:00 PM 2.23 36.014 0.065 6.07 3.07 13.64
1/19/2021 3:45:00 PM 2.21 35.978 0.065 6.04 3.09 13.65
1/19/2021 4:00:00 PM 2.19 35.942 0.065 6.06 3.08 13.65
1/19/2021 4:15:00 PM 2.18 35.924 0.065 6.06 3.09 13.65
1/19/2021 4:30:00 PM 2.16 35.888 0.065 6.05 3.05 13.65
1/19/2021 4:45:00 PM 2.13 35.834 0.065 6.05 3.08 13.65
1/19/2021 5:00:00 PM 2.1 35.78 0.065 6.05 3.07 13.66
1/19/2021 5:15:00 PM 2.08 35.744 0.065 6.04 3.07 13.66
1/19/2021 5:30:00 PM 2.06 35.708 0.065 6.04 3.09 13.66
1/19/2021 5:45:00 PM 2.04 35.672 0.065 6.03 3.11 13.66
1/19/2021 6:00:00 PM 2.01 35.618 0.065 6.03 3.1 13.67
1/19/2021 6:15:00 PM 1.97 35.546 0.065 6.04 3.07 13.69
1/19/2021 6:30:00 PM 1.95 35.51 0.065 6.02 3.13 13.7
1/19/2021 6:45:00 PM 1.92 35.456 0.065 6.02 3.09 13.7
1/19/2021 7:00:00 PM 1.89 35.402 0.065 6.02 3.06 13.72
1/19/2021 7:15:00 PM 1.86 35.348 0.065 6.02 3.07 13.73
1/19/2021 7:30:00 PM 1.84 35.312 0.065 6.02 3.08 13.74
1/19/2021 7:45:00 PM 1.81 35.258 0.065 6.02 3.11 13.74
1/19/2021 8:00:00 PM 1.79 35.222 0.065 6.03 3.1 13.75
1/19/2021 8:15:00 PM 1.76 35.168 0.065 6.03 3.08 13.76
1/19/2021 8:30:00 PM 1.73 35.114 0.065 6.01 3.07 13.77
1/19/2021 8:45:00 PM 1.7 35.06 0.065 6.02 3.1 13.78
1/19/2021 9:00:00 PM 1.67 35.006 0.065 6.02 3.06 13.78
1/19/2021 9:15:00 PM 1.65 34.97 0.065 6.02 3.06 13.79
1/19/2021 9:30:00 PM 1.64 34.952 0.065 6.02 3.05 13.8
1/19/2021 9:45:00 PM 1.62 34.916 0.065 6.01 3.12 13.8
1/19/2021 10:00:00 PM 1.6 34.88 0.065 6.01 3.06 13.8
1/19/2021 10:15:00 PM 1.58 34.844 0.065 6.02 3.06 13.81
1/19/2021 10:30:00 PM 1.57 34.826 0.065 6.01 3.07 13.81
1/19/2021 10:45:00 PM 1.56 34.808 0.065 6.03 3.07 13.81
1/19/2021 11:00:00 PM 1.56 34.808 0.065 6.02 3.03 13.82
1/19/2021 11:15:00 PM 1.55 34.79 0.065 6.02 3.06 13.81
1/19/2021 11:30:00 PM 1.55 34.79 0.065 6.03 3.08 13.81
1/19/2021 11:45:00 PM 1.54 34.772 0.065 6.03 3.03 13.81
1/20/2021 12:00:00 AM 1.54 34.772 0.065 6.03 3.09 13.81
1/20/2021 12:15:00 AM 1.53 34.754 0.065 6.03 3.05 13.81
1/20/2021 12:30:00 AM 1.53 34.754 0.065 6.03 3.07 13.81
1/20/2021 12:45:00 AM 1.52 34.736 0.065 6.03 3.01 13.81
1/20/2021 1:00:00 AM 1.51 34.718 0.065 6.03 3.07 13.81
1/20/2021 1:15:00 AM 1.51 34.718 0.065 6.02 3.03 13.81
1/20/2021 1:30:00 AM 1.5 34.7 0.065 6.03 3.08 13.81
1/20/2021 1:45:00 AM 1.49 34.682 0.065 6.03 3.06 13.81
1/20/2021 2:00:00 AM 1.49 34.682 0.065 6.03 3.08 13.81
1/20/2021 2:15:00 AM 1.47 34.646 0.065 6.01 3.08 13.81
1/20/2021 2:30:00 AM 1.47 34.646 0.065 6.02 3.11 13.81
1/20/2021 2:45:00 AM 1.46 34.628 0.065 6.03 3.13 13.81
1/20/2021 3:00:00 AM 1.45 34.61 0.065 6.03 3.09 13.81
1/20/2021 3:15:00 AM 1.45 34.61 0.065 6.03 3.07 13.81
1/20/2021 3:30:00 AM 1.45 34.61 0.065 6.03 3.04 13.81
1/20/2021 3:45:00 AM 1.44 34.592 0.065 6.03 3.12 13.81
1/20/2021 4:00:00 AM 1.44 34.592 0.065 6.02 3.15 13.81
1/20/2021 4:15:00 AM 1.44 34.592 0.065 6.03 3.11 13.81
1/20/2021 4:30:00 AM 1.43 34.574 0.065 6.03 3.1 13.81
1/20/2021 4:45:00 AM 1.43 34.574 0.064 6.04 3.11 13.81
1/20/2021 5:00:00 AM 1.43 34.574 0.064 6.03 3.09 13.81
1/20/2021 5:15:00 AM 1.43 34.574 0.064 6.04 3.09 13.81
1/20/2021 5:30:00 AM 1.42 34.556 0.064 6.03 3.05 13.81
1/20/2021 5:45:00 AM 1.41 34.538 0.064 6.03 3.11 13.81
1/20/2021 6:00:00 AM 1.4 34.52 0.064 6.04 3.12 13.82
1/20/2021 6:15:00 AM 1.39 34.502 0.064 6.02 3.07 13.82
1/20/2021 6:30:00 AM 1.38 34.484 0.064 6.03 3.07 13.82
1/20/2021 6:45:00 AM 1.35 34.43 0.064 6.04 3.05 13.83
1/20/2021 7:00:00 AM 1.35 34.43 0.064 6.03 3.04 13.83
1/20/2021 7:15:00 AM 1.34 34.412 0.064 6.03 3.06 13.84
1/20/2021 7:30:00 AM 1.34 34.412 0.064 6.03 3.88 13.85
1/20/2021 7:45:00 AM 1.34 34.412 0.064 6.01 3 13.86
1/20/2021 8:00:00 AM 1.34 34.412 0.064 6.01 3.02 13.87
1/20/2021 8:15:00 AM 1.34 34.412 0.064 6.03 2.98 13.88
1/20/2021 8:30:00 AM 1.32 34.376 0.064 6.03 2.96 13.89
1/20/2021 8:45:00 AM 1.31 34.358 0.064 6.04 3.04 13.92
1/20/2021 9:00:00 AM 1.32 34.376 0.064 6.04 3.05 13.93
1/20/2021 9:15:00 AM 1.33 34.394 0.064 6.04 3.03 13.94
1/20/2021 9:30:00 AM 1.33 34.394 0.064 6.04 3.01 13.95
1/20/2021 9:45:00 AM 1.33 34.394 0.064 6.03 2.99 13.95
1/20/2021 10:00:00 AM 1.33 34.394 0.064 6.04 2.98 13.96
1/20/2021 10:15:00 AM 1.35 34.43 0.064 6.04 3.07 13.96
1/20/2021 10:30:00 AM 1.36 34.448 0.064 6.05 3.01 13.95
1/20/2021 10:45:00 AM 1.45 34.61 0.064 6.07 3 13.94
1/20/2021 11:00:00 AM 1.5 34.7 0.064 6.05 3 13.92
1/20/2021 11:15:00 AM 1.59 34.862 0.064 6.09 2.95 13.89
1/20/2021 11:30:00 AM 1.64 34.952 0.064 6.11 2.97 13.87
1/20/2021 11:45:00 AM 1.76 35.168 0.064 6.12 3 13.84
1/20/2021 12:00:00 PM 1.83 35.294 0.064 6.12 3 13.82
1/20/2021 12:15:00 PM 1.9 35.42 0.064 6.11 2.98 13.8
1/20/2021 12:30:00 PM 1.95 35.51 0.064 6.1 2.96 13.79
1/20/2021 12:45:00 PM 2.04 35.672 0.064 6.1 2.95 13.77
1/20/2021 1:00:00 PM 2.08 35.744 0.064 6.1 2.94 13.75
1/20/2021 1:15:00 PM 2.1 35.78 0.064 6.09 2.95 13.75
1/20/2021 1:30:00 PM 2.08 35.744 0.064 6.09 2.91 13.75
1/20/2021 1:45:00 PM 2.03 35.654 0.064 6.08 2.97 13.76
1/20/2021 2:00:00 PM 1.98 35.564 0.064 6.08 2.94 13.76
1/20/2021 2:15:00 PM 1.89 35.402 0.064 6.06 2.94 13.78
1/20/2021 2:30:00 PM 1.8 35.24 0.064 6.05 2.96 13.79
1/20/2021 2:45:00 PM 1.74 35.132 0.064 6.04 2.98 13.81
1/20/2021 3:00:00 PM 1.66 34.988 0.064 6.04 3.01 13.84
1/20/2021 3:15:00 PM 1.58 34.844 0.064 6.04 2.95 13.87
1/20/2021 3:30:00 PM 1.51 34.718 0.064 6.04 3.01 13.9
1/20/2021 3:45:00 PM 1.47 34.646 0.064 6.04 2.99 13.93
1/20/2021 4:00:00 PM 1.43 34.574 0.064 6.05 2.92 13.94
1/20/2021 4:15:00 PM 1.37 34.466 0.064 6.03 3 13.95
1/20/2021 4:30:00 PM 1.31 34.358 0.064 6.02 3.02 13.97
1/20/2021 4:45:00 PM 1.26 34.268 0.064 6.03 3.02 13.98
1/20/2021 5:00:00 PM 1.21 34.178 0.064 6.03 2.98 14
1/20/2021 5:15:00 PM 1.16 34.088 0.064 6.03 2.96 14.01
1/20/2021 5:30:00 PM 1.11 33.998 0.064 6.02 2.99 14.02
1/20/2021 5:45:00 PM 1.07 33.926 0.064 6.03 2.96 14.04
1/20/2021 6:00:00 PM 1.03 33.854 0.064 6.01 3.02 14.05
1/20/2021 6:15:00 PM 1 33.8 0.064 6.01 3.09 14.07
1/20/2021 6:30:00 PM 0.97 33.746 0.064 6.02 3.39 14.09
1/20/2021 6:45:00 PM 0.93 33.674 0.064 6.03 3.42 14.1
1/20/2021 7:00:00 PM 0.9 33.62 0.064 6.02 3.3 14.11
1/20/2021 7:15:00 PM 0.86 33.548 0.064 6.01 3.2 14.13
1/20/2021 7:30:00 PM 0.82 33.476 0.064 6.01 3.24 14.13
1/20/2021 7:45:00 PM 0.79 33.422 0.064 6.01 3.22 14.15
1/20/2021 8:00:00 PM 0.75 33.35 0.064 6.01 3.25 14.16
1/20/2021 8:15:00 PM 0.72 33.296 0.064 6 3.26 14.17
1/20/2021 8:30:00 PM 0.69 33.242 0.064 6 3.17 14.18
1/20/2021 8:45:00 PM 0.67 33.206 0.064 6.01 3.12 14.19
1/20/2021 9:00:00 PM 0.63 33.134 0.064 6 3.24 14.2
1/20/2021 9:15:00 PM 0.6 33.08 0.064 6 3.26 14.22
1/20/2021 9:30:00 PM 0.58 33.044 0.064 6.02 3.07 14.23
1/20/2021 9:45:00 PM 0.56 33.008 0.064 6.02 3.07 14.24
1/20/2021 10:00:00 PM 0.54 32.972 0.064 6.03 3.02 14.24
1/20/2021 10:15:00 PM 0.52 32.936 0.064 6.02 3.01 14.25
1/20/2021 10:30:00 PM 0.5 32.9 0.064 6.04 3.02 14.26
1/20/2021 10:45:00 PM 0.48 32.864 0.064 6.02 3 14.27
1/20/2021 11:00:00 PM 0.46 32.828 0.064 6.04 3.02 14.27
1/20/2021 11:15:00 PM 0.43 32.774 0.064 6.03 3.09 14.28
1/20/2021 11:30:00 PM 0.4 32.72 0.064 6.03 3.04 14.29
1/20/2021 11:45:00 PM 0.37 32.666 0.064 6.03 3.03 14.3
1/21/2021 12:00:00 AM 0.33 32.594 0.064 6.04 3.04 14.32
1/21/2021 12:15:00 AM 0.29 32.522 0.064 6.03 3.12 14.33
1/21/2021 12:30:00 AM 0.25 32.45 0.064 6.03 3.04 14.34
1/21/2021 12:45:00 AM 0.21 32.378 0.064 6.01 3.04 14.36
1/21/2021 1:00:00 AM 0.17 32.306 0.064 6.03 3.09 14.37
1/21/2021 1:15:00 AM 0.14 32.252 0.064 6.02 3.14 14.39
1/21/2021 1:30:00 AM 0.11 32.198 0.064 6.03 3.11 14.39
1/21/2021 1:45:00 AM 0.09 32.162 0.064 6.04 3.11 14.41
1/21/2021 2:00:00 AM 0.06 32.108 0.064 6.03 3.17 14.42
1/21/2021 2:15:00 AM 0.02 32.036 0.064 6.03 3.05 14.43
1/21/2021 2:30:00 AM -0.01 31.982 0.065 6.03 3.07 14.44
1/21/2021 2:45:00 AM -0.04 31.928 0.065 6.04 3.09 14.46
1/21/2021 3:00:00 AM -0.08 31.856 0.065 6.03 3.09 14.46
1/21/2021 3:15:00 AM -0.11 31.802 0.065 6.04 3.08 14.47
1/21/2021 3:30:00 AM -0.1 31.82 0.065 6.05 3.89 14.49
1/21/2021 3:45:00 AM -0.1 31.82 0.065 6.11 3.24 14.49
1/21/2021 4:00:00 AM -0.1 31.82 0.065 6.08 3.19 14.48
1/21/2021 4:15:00 AM -0.1 31.82 0.065 6.1 3.13 14.49
1/21/2021 4:30:00 AM -0.1 31.82 0.065 6.1 3.15 14.48
1/21/2021 4:45:00 AM -0.1 31.82 0.065 6.09 3.15 14.49
1/21/2021 5:00:00 AM -0.1 31.82 0.066 6.06 3.09 14.48
1/21/2021 5:15:00 AM -0.1 31.82 0.066 6.09 3.1 14.48
1/21/2021 5:30:00 AM -0.1 31.82 0.066 6.12 3.11 14.47
1/21/2021 5:45:00 AM -0.09 31.838 0.066 6.12 3.1 14.46
1/21/2021 6:00:00 AM -0.09 31.838 0.066 6.11 3.12 14.45
1/21/2021 6:15:00 AM -0.09 31.838 0.066 6.12 3.09 14.45
1/21/2021 6:30:00 AM -0.09 31.838 0.066 6.11 3.12 14.45
1/21/2021 6:45:00 AM -0.09 31.838 0.066 6.11 3.11 14.44
1/21/2021 7:00:00 AM -0.09 31.838 0.066 6.11 3.14 14.44
1/21/2021 7:15:00 AM -0.09 31.838 0.066 6.11 3.12 14.43
1/21/2021 7:30:00 AM -0.09 31.838 0.066 6.12 3.09 14.43
1/21/2021 7:45:00 AM -0.09 31.838 0.066 6.11 3.11 14.43
1/21/2021 8:00:00 AM -0.09 31.838 0.066 6.11 3.14 14.44
1/21/2021 8:15:00 AM -0.08 31.856 0.066 6.13 3.12 14.45
1/21/2021 8:30:00 AM -0.08 31.856 0.066 6.11 3.12 14.45
1/21/2021 8:45:00 AM -0.08 31.856 0.065 6.08 3.12 14.46
1/21/2021 9:00:00 AM -0.07 31.874 0.065 6.07 3.42 14.46
1/21/2021 9:15:00 AM -0.07 31.874 0.064 6.1 3.13 14.46
1/21/2021 9:30:00 AM -0.06 31.892 0.064 6.07 3.03 14.46
1/21/2021 9:45:00 AM -0.05 31.91 0.064 6.09 3.03 14.46
1/21/2021 10:00:00 AM -0.05 31.91 0.064 6.09 3 14.46
1/21/2021 10:15:00 AM -0.05 31.91 0.064 6.08 3.03 14.45
1/21/2021 10:30:00 AM -0.05 31.91 0.064 6.09 3.09 14.45
1/21/2021 10:45:00 AM -0.04 31.928 0.064 6.1 3.09 14.43
1/21/2021 11:00:00 AM -0.04 31.928 0.064 6.1 3.06 14.43
1/21/2021 11:15:00 AM -0.04 31.928 0.064 6.09 3.07 14.42
1/21/2021 11:30:00 AM 0.01 32.018 0.064 6.09 3.08 14.4
1/21/2021 11:45:00 AM 0.12 32.216 0.064 6.1 3.07 14.37
1/21/2021 12:00:00 PM 0.19 32.342 0.064 6.11 3.09 14.35
1/21/2021 12:15:00 PM 0.25 32.45 0.064 6.1 3.08 14.33
1/21/2021 12:30:00 PM 0.3 32.54 0.065 6.11 3.04 14.31
1/21/2021 12:45:00 PM 0.39 32.702 0.065 6.12 3.02 14.27
1/21/2021 1:00:00 PM 0.44 32.792 0.065 6.12 3.03 14.24
1/21/2021 1:15:00 PM 0.51 32.918 0.065 6.12 3.03 14.21
1/21/2021 1:30:00 PM 0.56 33.008 0.065 6.13 3.02 14.18
1/21/2021 1:45:00 PM 0.6 33.08 0.065 6.1 3.01 14.15
1/21/2021 2:00:00 PM 0.62 33.116 0.064 6.09 3.04 14.14
1/21/2021 2:15:00 PM 0.66 33.188 0.064 6.1 3.03 14.12
1/21/2021 2:30:00 PM 0.68 33.224 0.064 6.11 3.02 14.1
1/21/2021 2:45:00 PM 0.7 33.26 0.063 6.09 2.96 14.09
1/21/2021 3:00:00 PM 0.7 33.26 0.063 6.1 2.97 14.09
1/21/2021 3:15:00 PM 0.71 33.278 0.063 6.09 2.98 14.08
1/21/2021 3:30:00 PM 0.7 33.26 0.063 6.09 2.92 14.07
1/21/2021 3:45:00 PM 0.72 33.296 0.063 6.09 2.98 14.08
1/21/2021 4:00:00 PM 0.72 33.296 0.063 6.09 2.99 14.06
1/21/2021 4:15:00 PM 0.73 33.314 0.063 6.1 2.93 14.04
1/21/2021 4:30:00 PM 0.75 33.35 0.063 6.06 2.93 14.02
1/21/2021 4:45:00 PM 0.75 33.35 0.063 6.07 2.96 14
1/21/2021 5:00:00 PM 0.76 33.368 0.063 6.06 2.97 13.99
1/21/2021 5:15:00 PM 0.75 33.35 0.063 6.06 2.99 13.98
1/21/2021 5:30:00 PM 0.74 33.332 0.063 6.06 2.97 13.97
1/21/2021 5:45:00 PM 0.73 33.314 0.063 6.06 3 13.97
1/21/2021 6:00:00 PM 0.72 33.296 0.063 6.05 2.98 13.97
1/21/2021 6:15:00 PM 0.71 33.278 0.063 6.04 2.94 13.97
1/21/2021 6:30:00 PM 0.7 33.26 0.063 6.04 2.96 13.98
1/21/2021 6:45:00 PM 0.69 33.242 0.063 6.04 2.95 13.98
1/21/2021 7:00:00 PM 0.68 33.224 0.063 6.04 2.96 13.99
1/21/2021 7:15:00 PM 0.66 33.188 0.063 6.05 3.01 13.99
1/21/2021 7:30:00 PM 0.65 33.17 0.063 6.04 2.97 14
1/21/2021 7:45:00 PM 0.64 33.152 0.063 6.05 2.98 14.01
1/21/2021 8:00:00 PM 0.64 33.152 0.063 6.06 3 14.01
1/21/2021 8:15:00 PM 0.64 33.152 0.063 6.04 3.03 14.01
1/21/2021 8:30:00 PM 0.65 33.17 0.063 6.05 3.05 14.01
1/21/2021 8:45:00 PM 0.66 33.188 0.063 6.03 2.95 14
1/21/2021 9:00:00 PM 0.67 33.206 0.063 6.07 2.99 14
1/21/2021 9:15:00 PM 0.68 33.224 0.063 6.08 2.96 13.99
1/21/2021 9:30:00 PM 0.69 33.242 0.063 6.07 3.01 13.99
1/21/2021 9:45:00 PM 0.7 33.26 0.063 6.07 2.97 13.98
1/21/2021 10:00:00 PM 0.71 33.278 0.063 6.07 2.96 13.98
1/21/2021 10:15:00 PM 0.72 33.296 0.063 6.05 3.03 13.98
1/21/2021 10:30:00 PM 0.73 33.314 0.063 6.07 2.95 13.97
1/21/2021 10:45:00 PM 0.74 33.332 0.063 6.07 2.99 13.97
1/21/2021 11:00:00 PM 0.75 33.35 0.063 6.07 2.94 13.97
1/21/2021 11:15:00 PM 0.75 33.35 0.063 6.06 2.92 13.97
1/21/2021 11:30:00 PM 0.75 33.35 0.063 6.06 2.94 13.96
1/21/2021 11:45:00 PM 0.74 33.332 0.063 6.06 2.92 13.96
1/22/2021 12:00:00 AM 0.73 33.314 0.063 6.05 2.92 13.96
1/22/2021 12:15:00 AM 0.71 33.278 0.063 6.06 2.96 13.96
1/22/2021 12:30:00 AM 0.7 33.26 0.063 6.06 2.95 13.97
1/22/2021 12:45:00 AM 0.7 33.26 0.063 6.07 2.97 13.98
1/22/2021 1:00:00 AM 0.69 33.242 0.063 6.06 2.96 13.98
1/22/2021 1:15:00 AM 0.69 33.242 0.064 6.06 2.95 13.99
1/22/2021 1:30:00 AM 0.7 33.26 0.063 6.04 2.91 13.98
1/22/2021 1:45:00 AM 0.7 33.26 0.063 6.04 3.01 13.98
1/22/2021 2:00:00 AM 0.69 33.242 0.063 6.05 2.97 13.99
1/22/2021 2:15:00 AM 0.68 33.224 0.063 6.05 2.95 13.99
1/22/2021 2:30:00 AM 0.66 33.188 0.063 6.04 2.95 14
1/22/2021 2:45:00 AM 0.65 33.17 0.063 6.05 2.96 14.01
1/22/2021 3:00:00 AM 0.63 33.134 0.063 6.05 2.92 14.02
1/22/2021 3:15:00 AM 0.63 33.134 0.063 6.04 2.93 14.02
1/22/2021 3:30:00 AM 0.63 33.134 0.063 6.05 2.99 14.03
1/22/2021 3:45:00 AM 0.63 33.134 0.063 6.04 2.94 14.03
1/22/2021 4:00:00 AM 0.63 33.134 0.063 6.05 2.93 14.03
1/22/2021 4:15:00 AM 0.63 33.134 0.063 6.05 2.95 14.03
1/22/2021 4:30:00 AM 0.64 33.152 0.063 6.04 2.94 14.02
1/22/2021 4:45:00 AM 0.65 33.17 0.063 6.04 2.92 14.02
1/22/2021 5:00:00 AM 0.66 33.188 0.063 6.04 2.92 14.02
1/22/2021 5:15:00 AM 0.66 33.188 0.063 6.04 2.91 14.02
1/22/2021 5:30:00 AM 0.66 33.188 0.063 6.05 2.95 14.02
1/22/2021 5:45:00 AM 0.66 33.188 0.063 6.05 2.9 14.02
1/22/2021 6:00:00 AM 0.67 33.206 0.063 6.05 2.97 14.02
1/22/2021 6:15:00 AM 0.68 33.224 0.063 6.06 2.93 14.01
1/22/2021 6:30:00 AM 0.69 33.242 0.063 6.08 2.93 14.01
1/22/2021 6:45:00 AM 0.7 33.26 0.063 6.07 2.89 14.01
1/22/2021 7:00:00 AM 0.7 33.26 0.063 6.05 2.91 14.01
1/22/2021 7:15:00 AM 0.71 33.278 0.063 6.06 2.91 14
1/22/2021 7:30:00 AM 0.73 33.314 0.063 6.07 2.9 14
1/22/2021 7:45:00 AM 0.74 33.332 0.063 6.09 2.94 14
1/22/2021 8:00:00 AM 0.75 33.35 0.063 6.05 2.92 14.01
1/22/2021 8:15:00 AM 0.77 33.386 0.063 6.06 2.91 14
1/22/2021 8:30:00 AM 0.79 33.422 0.063 6.08 2.9 14
1/22/2021 8:45:00 AM 0.81 33.458 0.063 6.08 2.93 14
1/22/2021 9:00:00 AM 0.84 33.512 0.063 6.08 2.88 14.03
1/22/2021 9:15:00 AM 0.87 33.566 0.063 6.1 2.91 14.03
1/22/2021 9:30:00 AM 0.9 33.62 0.063 6.09 2.91 14.03
1/22/2021 9:45:00 AM 0.95 33.71 0.063 6.11 2.89 14.03
1/22/2021 10:00:00 AM 1 33.8 0.063 6.12 2.88 14.02
1/22/2021 10:15:00 AM 1.05 33.89 0.063 6.12 2.9 14.02
1/22/2021 10:30:00 AM 1.1 33.98 0.063 6.12 2.85 14.01
1/22/2021 10:45:00 AM 1.17 34.106 0.063 6.13 2.88 13.99
1/22/2021 11:00:00 AM 1.24 34.232 0.063 6.13 2.9 13.97
1/22/2021 11:15:00 AM 1.31 34.358 0.063 6.14 2.91 13.94
1/22/2021 11:30:00 AM 1.39 34.502 0.063 6.14 2.85 13.91
1/22/2021 11:45:00 AM 1.45 34.61 0.063 6.12 2.83 13.88
1/22/2021 12:00:00 PM 1.51 34.718 0.063 6.15 2.87 13.86
1/22/2021 12:15:00 PM 1.59 34.862 0.063 6.15 2.92 13.82
1/22/2021 12:30:00 PM 1.64 34.952 0.063 6.14 2.86 13.8
1/22/2021 12:45:00 PM 1.65 34.97 0.063 6.14 2.9 13.78
1/22/2021 1:00:00 PM 1.65 34.97 0.063 6.13 2.87 13.76
1/22/2021 1:15:00 PM 1.66 34.988 0.063 6.1 2.93 13.75
1/22/2021 1:30:00 PM 1.68 35.024 0.063 6.12 2.83 13.75
1/22/2021 1:45:00 PM 1.68 35.024 0.063 6.12 2.86 13.74
1/22/2021 2:00:00 PM 1.69 35.042 0.063 6.12 2.86 13.74
1/22/2021 2:15:00 PM 1.69 35.042 0.063 6.12 2.85 13.73
1/22/2021 2:30:00 PM 1.71 35.078 0.063 6.12 2.85 13.73
1/22/2021 2:45:00 PM 1.73 35.114 0.063 6.12 2.91 13.72
1/22/2021 3:00:00 PM 1.73 35.114 0.063 6.12 2.87 13.71
1/22/2021 3:15:00 PM 1.73 35.114 0.063 6.1 2.89 13.7
1/22/2021 3:30:00 PM 1.73 35.114 0.063 6.1 2.82 13.7
1/22/2021 3:45:00 PM 1.72 35.096 0.063 6.1 2.88 13.7
1/22/2021 4:00:00 PM 1.71 35.078 0.063 6.09 2.87 13.71
1/22/2021 4:15:00 PM 1.7 35.06 0.063 6.09 2.89 13.71
1/22/2021 4:30:00 PM 1.7 35.06 0.063 6.09 2.9 13.71
1/22/2021 4:45:00 PM 1.67 35.006 0.063 6.07 2.92 13.7
1/22/2021 5:00:00 PM 1.66 34.988 0.063 6.08 2.91 13.7
1/22/2021 5:15:00 PM 1.64 34.952 0.063 6.08 2.89 13.71
1/22/2021 5:30:00 PM 1.63 34.934 0.063 6.08 2.93 13.71
1/22/2021 5:45:00 PM 1.62 34.916 0.063 6.06 2.92 13.71
1/22/2021 6:00:00 PM 1.59 34.862 0.063 6.07 2.92 13.72
1/22/2021 6:15:00 PM 1.56 34.808 0.063 6.08 2.92 13.73
1/22/2021 6:30:00 PM 1.52 34.736 0.063 6.07 2.93 13.74
1/22/2021 6:45:00 PM 1.51 34.718 0.063 6.07 2.92 13.75
1/22/2021 7:00:00 PM 1.5 34.7 0.063 6.07 2.88 13.77
1/22/2021 7:15:00 PM 1.49 34.682 0.063 6.07 2.91 13.77
1/22/2021 7:30:00 PM 1.48 34.664 0.063 6.08 2.92 13.78
1/22/2021 7:45:00 PM 1.47 34.646 0.063 6.09 2.9 13.79
1/22/2021 8:00:00 PM 1.46 34.628 0.063 6.08 2.9 13.79
1/22/2021 8:15:00 PM 1.45 34.61 0.063 6.08 2.86 13.8
1/22/2021 8:30:00 PM 1.43 34.574 0.063 6.08 2.86 13.81
1/22/2021 8:45:00 PM 1.41 34.538 0.063 6.07 2.91 13.82
1/22/2021 9:00:00 PM 1.39 34.502 0.063 6.07 2.84 13.83
1/22/2021 9:15:00 PM 1.38 34.484 0.063 6.07 2.88 13.84
1/22/2021 9:30:00 PM 1.35 34.43 0.063 6.07 2.89 13.85
1/22/2021 9:45:00 PM 1.32 34.376 0.063 6.09 2.88 13.87
1/22/2021 10:00:00 PM 1.29 34.322 0.063 6.08 2.89 13.88
1/22/2021 10:15:00 PM 1.27 34.286 0.063 6.08 2.9 13.89
1/22/2021 10:30:00 PM 1.25 34.25 0.063 6.07 2.92 13.9
1/22/2021 10:45:00 PM 1.23 34.214 0.063 6.07 2.87 13.91
1/22/2021 11:00:00 PM 1.19 34.142 0.063 6.08 2.89 13.92
1/22/2021 11:15:00 PM 1.17 34.106 0.063 6.07 2.87 13.94
1/22/2021 11:30:00 PM 1.13 34.034 0.063 6.08 2.89 13.95
1/22/2021 11:45:00 PM 1.1 33.98 0.063 6.08 2.89 13.97
1/23/2021 12:00:00 AM 1.05 33.89 0.063 6.06 2.9 13.99
1/23/2021 12:15:00 AM 1.02 33.836 0.063 6.05 3.45 14
1/23/2021 12:30:00 AM 0.99 33.782 0.063 6.05 4.51 14.01
1/23/2021 12:45:00 AM 0.96 33.728 0.063 6.05 3.62 14.02
1/23/2021 1:00:00 AM 0.92 33.656 0.063 6.05 3.21 14.04
1/23/2021 1:15:00 AM 0.88 33.584 0.063 6.05 3.04 14.06
1/23/2021 1:30:00 AM 0.84 33.512 0.063 6.06 2.98 14.07
1/23/2021 1:45:00 AM 0.81 33.458 0.063 6.06 2.92 14.09
1/23/2021 2:00:00 AM 0.78 33.404 0.063 6.06 2.95 14.1
1/23/2021 2:15:00 AM 0.75 33.35 0.063 6.06 3.03 14.11
1/23/2021 2:30:00 AM 0.71 33.278 0.063 6.07 2.94 14.13
1/23/2021 2:45:00 AM 0.69 33.242 0.063 6.05 2.92 14.14
1/23/2021 3:00:00 AM 0.66 33.188 0.063 6.06 2.93 14.15
1/23/2021 3:15:00 AM 0.62 33.116 0.063 6.06 2.89 14.17
1/23/2021 3:30:00 AM 0.58 33.044 0.063 6.06 2.94 14.19
1/23/2021 3:45:00 AM 0.55 32.99 0.063 6.08 2.93 14.21
1/23/2021 4:00:00 AM 0.51 32.918 0.063 6.06 2.9 14.22
1/23/2021 4:15:00 AM 0.47 32.846 0.063 6.07 2.89 14.24
1/23/2021 4:30:00 AM 0.43 32.774 0.063 6.07 2.93 14.25
1/23/2021 4:45:00 AM 0.4 32.72 0.063 6.06 2.91 14.27
1/23/2021 5:00:00 AM 0.35 32.63 0.063 6.06 2.9 14.29
1/23/2021 5:15:00 AM 0.32 32.576 0.063 6.07 2.91 14.31
1/23/2021 5:30:00 AM 0.29 32.522 0.063 6.07 2.93 14.33
1/23/2021 5:45:00 AM 0.24 32.432 0.064 6.07 2.9 14.35
1/23/2021 6:00:00 AM 0.2 32.36 0.064 6.07 2.89 14.37
1/23/2021 6:15:00 AM 0.16 32.288 0.064 6.07 2.93 14.39
1/23/2021 6:30:00 AM 0.11 32.198 0.064 6.08 2.93 14.42
1/23/2021 6:45:00 AM 0.07 32.126 0.064 6.06 2.91 14.43
1/23/2021 7:00:00 AM 0.03 32.054 0.064 6.07 2.92 14.46
1/23/2021 7:15:00 AM -0.01 31.982 0.064 6.08 2.9 14.49
1/23/2021 7:30:00 AM -0.06 31.892 0.064 6.09 2.9 14.5
1/23/2021 7:45:00 AM -0.1 31.82 0.064 6.1 2.93 14.54
1/23/2021 8:00:00 AM -0.12 31.784 0.064 6.13 2.91 14.57
1/23/2021 8:15:00 AM -0.1 31.82 0.064 6.15 2.98 14.59
1/23/2021 8:30:00 AM -0.09 31.838 0.064 6.15 3.05 14.61
1/23/2021 8:45:00 AM -0.09 31.838 0.064 6.15 3.04 14.63
1/23/2021 9:00:00 AM -0.09 31.838 0.064 6.16 3.06 14.64
1/23/2021 9:15:00 AM -0.09 31.838 0.064 6.17 3.03 14.65
1/23/2021 9:30:00 AM -0.08 31.856 0.064 6.17 2.99 14.66
1/23/2021 9:45:00 AM -0.08 31.856 0.064 6.17 2.98 14.66
1/23/2021 10:00:00 AM -0.08 31.856 0.064 6.17 3.29 14.67
1/23/2021 10:15:00 AM -0.08 31.856 0.065 6.19 3.54 14.67
1/23/2021 10:30:00 AM -0.06 31.892 0.065 6.15 3.23 14.67
1/23/2021 10:45:00 AM -0.06 31.892 0.065 6.14 2.99 14.67
1/23/2021 11:00:00 AM -0.05 31.91 0.065 6.16 2.98 14.66
1/23/2021 11:15:00 AM -0.04 31.928 0.066 6.16 3.01 14.64
1/23/2021 11:30:00 AM -0.02 31.964 0.066 6.17 3.03 14.61
1/23/2021 11:45:00 AM 0.24 32.432 0.066 6.2 3.1 14.55
1/23/2021 12:00:00 PM 0.38 32.684 0.066 6.19 3.06 14.5
1/23/2021 12:15:00 PM 0.46 32.828 0.066 6.19 2.96 14.46
1/23/2021 12:30:00 PM 0.46 32.828 0.066 6.17 3.12 14.46
1/23/2021 12:45:00 PM 0.44 32.792 0.066 6.16 3.36 14.46
1/23/2021 1:00:00 PM 0.41 32.738 0.065 6.15 3.12 14.46
1/23/2021 1:15:00 PM 0.38 32.684 0.065 6.14 2.98 14.47
1/23/2021 1:30:00 PM 0.38 32.684 0.065 6.18 2.91 14.48
1/23/2021 1:45:00 PM 0.39 32.702 0.065 6.15 2.9 14.49
1/23/2021 2:00:00 PM 0.38 32.684 0.065 6.14 2.91 14.49
1/23/2021 2:15:00 PM 0.38 32.684 0.065 6.15 2.92 14.49
1/23/2021 2:30:00 PM 0.36 32.648 0.064 6.14 2.86 14.48
1/23/2021 2:45:00 PM 0.34 32.612 0.064 6.13 2.91 14.49
1/23/2021 3:00:00 PM 0.31 32.558 0.064 6.14 2.88 14.5
1/23/2021 3:15:00 PM 0.29 32.522 0.064 6.13 2.88 14.51
1/23/2021 3:30:00 PM 0.26 32.468 0.064 6.12 2.91 14.52
1/23/2021 3:45:00 PM 0.24 32.432 0.064 6.12 2.91 14.53
1/23/2021 4:00:00 PM 0.2 32.36 0.064 6.13 2.9 14.54
1/23/2021 4:15:00 PM 0.16 32.288 0.064 6.12 2.88 14.54
1/23/2021 4:30:00 PM 0.12 32.216 0.064 6.1 2.91 14.54
1/23/2021 4:45:00 PM 0.09 32.162 0.064 6.1 2.93 14.55
1/23/2021 5:00:00 PM 0.04 32.072 0.063 6.1 2.85 14.56
1/23/2021 5:15:00 PM 0 32 0.063 6.09 2.88 14.56
1/23/2021 5:30:00 PM -0.03 31.946 0.063 6.06 2.89 14.57
1/23/2021 5:45:00 PM -0.08 31.856 0.063 6.08 2.87 14.58
1/23/2021 6:00:00 PM -0.12 31.784 0.063 6.09 2.93 14.6
1/23/2021 6:15:00 PM -0.1 31.82 0.063 6.13 2.96 14.62
1/23/2021 6:30:00 PM -0.1 31.82 0.063 6.13 2.96 14.63
1/23/2021 6:45:00 PM -0.1 31.82 0.064 6.12 2.98 14.64
1/23/2021 7:00:00 PM -0.09 31.838 0.064 6.14 2.98 14.64
1/23/2021 7:15:00 PM -0.1 31.82 0.064 6.13 3.04 14.64
1/23/2021 7:30:00 PM -0.09 31.838 0.064 6.14 3.03 14.64
1/23/2021 7:45:00 PM -0.09 31.838 0.064 6.12 3.04 14.64
1/23/2021 8:00:00 PM -0.09 31.838 0.064 6.1 3.13 14.64
1/23/2021 8:15:00 PM -0.09 31.838 0.064 6.1 3.18 14.64
1/23/2021 8:30:00 PM -0.09 31.838 0.064 6.1 3.29 14.64
1/23/2021 8:45:00 PM -0.09 31.838 0.064 6.13 3.25 14.64
1/23/2021 9:00:00 PM -0.09 31.838 0.064 6.13 3.36 14.64
1/23/2021 9:15:00 PM -0.09 31.838 0.064 6.14 3.34 14.63
1/23/2021 9:30:00 PM -0.09 31.838 0.064 6.16 3.37 14.63
1/23/2021 9:45:00 PM -0.09 31.838 0.065 6.16 3.41 14.64
1/23/2021 10:00:00 PM -0.09 31.838 0.065 6.17 3.42 14.64
1/23/2021 10:15:00 PM -0.09 31.838 0.065 6.17 3.46 14.63
1/23/2021 10:30:00 PM -0.09 31.838 0.065 6.16 3.47 14.63
1/23/2021 10:45:00 PM -0.09 31.838 0.066 6.17 3.45 14.63
1/23/2021 11:00:00 PM -0.09 31.838 0.066 6.17 3.49 14.63
1/23/2021 11:15:00 PM -0.09 31.838 0.066 6.17 3.47 14.64
1/23/2021 11:30:00 PM -0.09 31.838 0.066 6.16 3.47 14.63
1/23/2021 11:45:00 PM -0.09 31.838 0.066 6.16 3.51 14.63
1/24/2021 12:00:00 AM -0.09 31.838 0.066 6.16 3.57 14.63
1/24/2021 12:15:00 AM -0.09 31.838 0.066 6.16 3.52 14.63
1/24/2021 12:30:00 AM -0.09 31.838 0.067 6.17 3.48 14.63
1/24/2021 12:45:00 AM -0.09 31.838 0.067 6.16 3.47 14.63
1/24/2021 1:00:00 AM -0.09 31.838 0.067 6.18 3.53 14.63
1/24/2021 1:15:00 AM -0.09 31.838 0.067 6.17 3.41 14.63
1/24/2021 1:30:00 AM -0.09 31.838 0.067 6.17 3.4 14.63
1/24/2021 1:45:00 AM -0.09 31.838 0.067 6.17 3.37 14.62
1/24/2021 2:00:00 AM -0.09 31.838 0.067 6.17 3.36 14.62
1/24/2021 2:15:00 AM -0.09 31.838 0.067 6.17 3.34 14.62
1/24/2021 2:30:00 AM -0.09 31.838 0.066 6.17 3.41 14.62
1/24/2021 2:45:00 AM -0.09 31.838 0.066 6.16 3.37 14.62
1/24/2021 3:00:00 AM -0.09 31.838 0.066 6.16 3.4 14.62
1/24/2021 3:15:00 AM -0.09 31.838 0.065 6.17 3.42 14.62
1/24/2021 3:30:00 AM -0.09 31.838 0.065 6.16 3.36 14.62
1/24/2021 3:45:00 AM -0.09 31.838 0.064 6.15 3.4 14.62
1/24/2021 4:00:00 AM -0.09 31.838 0.064 6.16 3.41 14.62
1/24/2021 4:15:00 AM -0.09 31.838 0.064 6.16 3.41 14.62
1/24/2021 4:30:00 AM -0.09 31.838 0.064 6.17 3.45 14.63
1/24/2021 4:45:00 AM -0.09 31.838 0.065 6.17 3.48 14.63
1/24/2021 5:00:00 AM -0.09 31.838 0.065 6.16 3.39 14.63
1/24/2021 5:15:00 AM -0.09 31.838 0.065 6.17 2.94 14.63
1/24/2021 5:30:00 AM -0.09 31.838 0.064 6.17 2.97 14.63
1/24/2021 5:45:00 AM -0.09 31.838 0.064 6.16 2.97 14.63
1/24/2021 6:00:00 AM -0.09 31.838 0.064 6.17 2.87 14.63
1/24/2021 6:15:00 AM -0.09 31.838 0.063 6.16 2.92 14.63
1/24/2021 6:30:00 AM -0.09 31.838 0.064 6.14 2.96 14.63
1/24/2021 6:45:00 AM -0.09 31.838 0.064 6.15 2.9 14.63
1/24/2021 7:00:00 AM -0.09 31.838 0.064 6.15 3 14.63
1/24/2021 7:15:00 AM -0.09 31.838 0.065 6.16 2.94 14.64
1/24/2021 7:30:00 AM -0.09 31.838 0.066 6.16 2.97 14.64
1/24/2021 7:45:00 AM -0.09 31.838 0.066 6.17 3 14.65
1/24/2021 8:00:00 AM -0.09 31.838 0.067 6.17 2.9 14.66
1/24/2021 8:15:00 AM -0.09 31.838 0.067 6.18 2.91 14.67
1/24/2021 8:30:00 AM -0.09 31.838 0.067 6.18 2.93 14.68
1/24/2021 8:45:00 AM -0.09 31.838 0.067 6.18 2.97 14.69
1/24/2021 9:00:00 AM -0.09 31.838 0.067 6.18 2.99 14.69
1/24/2021 9:15:00 AM -0.09 31.838 0.067 6.19 2.95 14.7
1/24/2021 9:30:00 AM -0.09 31.838 0.067 6.19 2.92 14.7
1/24/2021 9:45:00 AM -0.09 31.838 0.067 6.18 2.91 14.7
1/24/2021 10:00:00 AM -0.09 31.838 0.067 6.19 2.89 14.7
1/24/2021 10:15:00 AM -0.09 31.838 0.067 6.19 2.92 14.7
1/24/2021 10:30:00 AM -0.09 31.838 0.067 6.18 2.92 14.7
1/24/2021 10:45:00 AM -0.08 31.856 0.066 6.19 2.94 14.7
1/24/2021 11:00:00 AM -0.08 31.856 0.066 6.19 2.96 14.69
1/24/2021 11:15:00 AM -0.08 31.856 0.066 6.2 2.93 14.68
1/24/2021 11:30:00 AM -0.08 31.856 0.066 6.19 3 14.67
1/24/2021 11:45:00 AM -0.08 31.856 0.066 6.18 3.01 14.66
1/24/2021 12:00:00 PM -0.08 31.856 0.066 6.18 3.05 14.65
1/24/2021 12:15:00 PM -0.08 31.856 0.066 6.19 2.99 14.64
1/24/2021 12:30:00 PM -0.08 31.856 0.066 6.19 3.05 14.64
1/24/2021 12:45:00 PM -0.09 31.838 0.066 6.18 3.03 14.64
1/24/2021 1:00:00 PM -0.09 31.838 0.066 6.19 3.09 14.64
1/24/2021 1:15:00 PM -0.09 31.838 0.066 6.19 3.07 14.63
1/24/2021 1:30:00 PM -0.08 31.856 0.066 6.2 3.14 14.64
1/24/2021 1:45:00 PM -0.08 31.856 0.066 6.2 3.08 14.64
1/24/2021 2:00:00 PM -0.08 31.856 0.066 6.2 3.08 14.65
1/24/2021 2:15:00 PM -0.08 31.856 0.066 6.21 3.09 14.65
1/24/2021 2:30:00 PM -0.08 31.856 0.067 6.21 3.11 14.65
1/24/2021 2:45:00 PM -0.08 31.856 0.067 6.2 3.06 14.65
1/24/2021 3:00:00 PM -0.08 31.856 0.067 6.21 3.16 14.65
1/24/2021 3:15:00 PM -0.08 31.856 0.067 6.2 3.1 14.65
1/24/2021 3:30:00 PM -0.08 31.856 0.067 6.19 3.1 14.65
1/24/2021 3:45:00 PM -0.08 31.856 0.067 6.2 3.12 14.65
1/24/2021 4:00:00 PM -0.08 31.856 0.067 6.18 3.16 14.65
1/24/2021 4:15:00 PM -0.08 31.856 0.067 6.19 3.12 14.64
1/24/2021 4:30:00 PM -0.09 31.838 0.067 6.18 3.13 14.64
1/24/2021 4:45:00 PM -0.09 31.838 0.067 6.18 3.12 14.63
1/24/2021 5:00:00 PM -0.09 31.838 0.067 6.18 3.12 14.62
1/24/2021 5:15:00 PM -0.09 31.838 0.066 6.17 3.1 14.61
1/24/2021 5:30:00 PM -0.09 31.838 0.066 6.16 3.07 14.6
1/24/2021 5:45:00 PM -0.09 31.838 0.066 6.13 3.04 14.6
1/24/2021 6:00:00 PM -0.09 31.838 0.066 6.13 3.07 14.59
1/24/2021 6:15:00 PM -0.09 31.838 0.066 6.12 3.01 14.59
1/24/2021 6:30:00 PM -0.09 31.838 0.065 6.11 3.04 14.59
1/24/2021 6:45:00 PM -0.09 31.838 0.065 6.12 3.04 14.59
1/24/2021 7:00:00 PM -0.09 31.838 0.065 6.13 2.98 14.59
1/24/2021 7:15:00 PM -0.09 31.838 0.065 6.13 2.97 14.58
1/24/2021 7:30:00 PM -0.09 31.838 0.065 6.12 3.08 14.59
1/24/2021 7:45:00 PM -0.09 31.838 0.064 6.12 2.97 14.59
1/24/2021 8:00:00 PM -0.09 31.838 0.064 6.12 2.95 14.59
1/24/2021 8:15:00 PM -0.09 31.838 0.064 6.13 3.01 14.59
1/24/2021 8:30:00 PM -0.09 31.838 0.064 6.13 2.97 14.59
1/24/2021 8:45:00 PM -0.09 31.838 0.064 6.13 2.98 14.59
1/24/2021 9:00:00 PM -0.09 31.838 0.064 6.13 2.99 14.59
1/24/2021 9:15:00 PM -0.09 31.838 0.064 6.13 3.07 14.59
1/24/2021 9:30:00 PM -0.09 31.838 0.064 6.14 3.03 14.59
1/24/2021 9:45:00 PM -0.09 31.838 0.064 6.13 2.96 14.58
1/24/2021 10:00:00 PM -0.09 31.838 0.064 6.14 3 14.59
1/24/2021 10:15:00 PM -0.09 31.838 0.064 6.14 3 14.58
1/24/2021 10:30:00 PM -0.09 31.838 0.064 6.14 3.02 14.58
1/24/2021 10:45:00 PM -0.09 31.838 0.065 6.13 3.02 14.58
1/24/2021 11:00:00 PM -0.09 31.838 0.065 6.13 3.06 14.58
1/24/2021 11:15:00 PM -0.09 31.838 0.065 6.14 3.03 14.58
1/24/2021 11:30:00 PM -0.09 31.838 0.065 6.14 3.01 14.58
1/24/2021 11:45:00 PM -0.09 31.838 0.065 6.14 3 14.57
1/25/2021 12:00:00 AM -0.09 31.838 0.065 6.13 3.03 14.57
1/25/2021 12:15:00 AM -0.09 31.838 0.065 6.14 3 14.58
1/25/2021 12:30:00 AM -0.09 31.838 0.065 6.14 3.01 14.57
1/25/2021 12:45:00 AM -0.09 31.838 0.065 6.13 3.03 14.57
1/25/2021 1:00:00 AM -0.09 31.838 0.065 6.14 2.99 14.57
1/25/2021 1:15:00 AM -0.09 31.838 0.065 6.13 2.98 14.57
1/25/2021 1:30:00 AM -0.09 31.838 0.065 6.14 3.04 14.57
1/25/2021 1:45:00 AM -0.09 31.838 0.065 6.14 3 14.57
1/25/2021 2:00:00 AM -0.09 31.838 0.065 6.14 3.01 14.57
1/25/2021 2:15:00 AM -0.1 31.82 0.065 6.14 3.03 14.57
1/25/2021 2:30:00 AM -0.1 31.82 0.065 6.13 3.05 14.57
1/25/2021 2:45:00 AM -0.1 31.82 0.065 6.14 3.01 14.58
1/25/2021 3:00:00 AM -0.1 31.82 0.066 6.13 3.06 14.58
1/25/2021 3:15:00 AM -0.1 31.82 0.066 6.13 3.11 14.58
1/25/2021 3:30:00 AM -0.1 31.82 0.066 6.13 3.08 14.58
1/25/2021 3:45:00 AM -0.1 31.82 0.066 6.14 3.09 14.59
1/25/2021 4:00:00 AM -0.1 31.82 0.066 6.14 3.08 14.58
1/25/2021 4:15:00 AM -0.1 31.82 0.066 6.14 3.07 14.58
1/25/2021 4:30:00 AM -0.1 31.82 0.066 6.14 3.04 14.57
1/25/2021 4:45:00 AM -0.1 31.82 0.066 6.15 3.05 14.57
1/25/2021 5:00:00 AM -0.1 31.82 0.066 6.17 3.04 14.57
1/25/2021 5:15:00 AM -0.09 31.838 0.066 6.16 3.01 14.57
1/25/2021 5:30:00 AM -0.09 31.838 0.066 6.16 3.05 14.58
1/25/2021 5:45:00 AM -0.09 31.838 0.067 6.16 3.09 14.57
1/25/2021 6:00:00 AM -0.09 31.838 0.067 6.16 3.05 14.58
1/25/2021 6:15:00 AM -0.09 31.838 0.067 6.16 3.04 14.57
1/25/2021 6:30:00 AM -0.09 31.838 0.067 6.16 3.03 14.58
1/25/2021 6:45:00 AM -0.09 31.838 0.067 6.16 3.04 14.58
1/25/2021 7:00:00 AM -0.09 31.838 0.067 6.15 3.04 14.58
1/25/2021 7:15:00 AM -0.09 31.838 0.067 6.17 3.05 14.58
1/25/2021 7:30:00 AM -0.09 31.838 0.067 6.17 3.1 14.6
1/25/2021 7:45:00 AM -0.09 31.838 0.067 6.18 3.09 14.6
1/25/2021 8:00:00 AM -0.09 31.838 0.067 6.18 3.05 14.62
1/25/2021 8:15:00 AM -0.09 31.838 0.067 6.19 3.07 14.63
1/25/2021 8:30:00 AM -0.09 31.838 0.067 6.19 3.09 14.64
1/25/2021 8:45:00 AM -0.09 31.838 0.067 6.19 3.01 14.66
1/25/2021 9:00:00 AM -0.09 31.838 0.067 6.2 3.06 14.66
1/25/2021 9:15:00 AM -0.08 31.856 0.067 6.19 3.02 14.67
1/25/2021 9:30:00 AM -0.09 31.838 0.067 6.2 3.04 14.67
1/25/2021 9:45:00 AM -0.08 31.856 0.067 6.21 3.03 14.66
1/25/2021 10:00:00 AM -0.08 31.856 0.067 6.2 3.02 14.66
1/25/2021 10:15:00 AM -0.08 31.856 0.067 6.22 3.01 14.66
1/25/2021 10:30:00 AM -0.08 31.856 0.067 6.21 3 14.66
1/25/2021 10:45:00 AM -0.08 31.856 0.067 6.22 3.06 14.65
1/25/2021 11:00:00 AM -0.08 31.856 0.067 6.21 3.04 14.64
1/25/2021 11:15:00 AM -0.07 31.874 0.067 6.18 3.08 14.63
1/25/2021 11:30:00 AM -0.06 31.892 0.066 6.17 3.07 14.62
1/25/2021 11:45:00 AM -0.05 31.91 0.066 6.18 3.06 14.61
1/25/2021 12:00:00 PM -0.05 31.91 0.066 6.17 3.05 14.61
1/25/2021 12:15:00 PM -0.05 31.91 0.065 6.16 3 14.6
1/25/2021 12:30:00 PM -0.05 31.91 0.065 6.17 2.98 14.6
1/25/2021 12:45:00 PM -0.05 31.91 0.065 6.13 2.99 14.59
1/25/2021 1:00:00 PM -0.05 31.91 0.064 6.15 2.97 14.59
1/25/2021 1:15:00 PM -0.04 31.928 0.064 6.16 2.95 14.59
1/25/2021 1:30:00 PM -0.03 31.946 0.063 6.15 2.99 14.59
1/25/2021 1:45:00 PM -0.03 31.946 0.062 6.14 2.97 14.58
1/25/2021 2:00:00 PM -0.03 31.946 0.063 6.15 2.98 14.58
1/25/2021 2:15:00 PM -0.04 31.928 0.064 6.18 3.02 14.58
1/25/2021 2:30:00 PM -0.04 31.928 0.065 6.16 3.02 14.58
1/25/2021 2:45:00 PM -0.04 31.928 0.066 6.17 3.01 14.58
1/25/2021 3:00:00 PM -0.04 31.928 0.066 6.16 3.31 14.57
1/25/2021 3:15:00 PM -0.05 31.91 0.066 6.15 3.04 14.57
1/25/2021 3:30:00 PM -0.05 31.91 0.066 6.14 3.05 14.57
1/25/2021 3:45:00 PM -0.05 31.91 0.065 6.19 3.11 14.57
1/25/2021 4:00:00 PM -0.05 31.91 0.065 6.2 3.1 14.56
1/25/2021 4:15:00 PM -0.06 31.892 0.065 6.18 3.1 14.55
1/25/2021 4:30:00 PM -0.06 31.892 0.065 6.17 3.05 14.55
1/25/2021 4:45:00 PM -0.06 31.892 0.065 6.19 3.06 14.53
1/25/2021 5:00:00 PM -0.07 31.874 0.065 6.16 3.07 14.52
1/25/2021 5:15:00 PM -0.07 31.874 0.064 6.16 3.04 14.51
1/25/2021 5:30:00 PM -0.07 31.874 0.064 6.17 2.99 14.5
1/25/2021 5:45:00 PM -0.07 31.874 0.063 6.15 3.04 14.5
1/25/2021 6:00:00 PM -0.07 31.874 0.063 6.16 3.05 14.5
1/25/2021 6:15:00 PM -0.07 31.874 0.062 6.15 3.02 14.49
1/25/2021 6:30:00 PM -0.08 31.856 0.062 6.15 3 14.49
1/25/2021 6:45:00 PM -0.07 31.874 0.062 6.15 2.96 14.49
1/25/2021 7:00:00 PM -0.07 31.874 0.062 6.12 2.97 14.49
1/25/2021 7:15:00 PM -0.07 31.874 0.062 6.08 2.97 14.49
1/25/2021 7:30:00 PM -0.07 31.874 0.062 6.1 3 14.49
1/25/2021 7:45:00 PM -0.07 31.874 0.062 6.07 2.96 14.49
1/25/2021 8:00:00 PM -0.07 31.874 0.062 6.08 3 14.49
1/25/2021 8:15:00 PM -0.07 31.874 0.062 6.07 2.96 14.49
1/25/2021 8:30:00 PM -0.07 31.874 0.062 6.08 2.99 14.49
1/25/2021 8:45:00 PM -0.07 31.874 0.062 6.1 2.95 14.49
1/25/2021 9:00:00 PM -0.07 31.874 0.062 6.11 2.98 14.49
1/25/2021 9:15:00 PM -0.08 31.856 0.062 6.12 3.06 14.48
1/25/2021 9:30:00 PM -0.08 31.856 0.062 6.11 3.05 14.49
1/25/2021 9:45:00 PM -0.08 31.856 0.062 6.1 3.05 14.48
1/25/2021 10:00:00 PM -0.07 31.874 0.062 6.08 3.05 14.49
1/25/2021 10:15:00 PM -0.07 31.874 0.062 6.11 3.06 14.49
1/25/2021 10:30:00 PM -0.07 31.874 0.062 6.16 3.05 14.48
1/25/2021 10:45:00 PM -0.07 31.874 0.062 6.09 3.09 14.48
1/25/2021 11:00:00 PM -0.07 31.874 0.062 6.12 3.05 14.48
1/25/2021 11:15:00 PM -0.07 31.874 0.063 6.11 3.02 14.48
1/25/2021 11:30:00 PM -0.07 31.874 0.063 6.12 3.07 14.48
1/25/2021 11:45:00 PM -0.07 31.874 0.063 6.11 3.04 14.48
1/26/2021 12:00:00 AM -0.07 31.874 0.063 6.13 3.06 14.47
1/26/2021 12:15:00 AM -0.07 31.874 0.063 6.14 3.04 14.47
1/26/2021 12:30:00 AM -0.07 31.874 0.063 6.11 3 14.47
1/26/2021 12:45:00 AM -0.06 31.892 0.063 6.13 2.99 14.46
1/26/2021 1:00:00 AM -0.06 31.892 0.063 6.13 3.13 14.46
1/26/2021 1:15:00 AM -0.06 31.892 0.063 6.12 3.04 14.46
1/26/2021 1:30:00 AM -0.05 31.91 0.063 6.15 2.99 14.45
1/26/2021 1:45:00 AM -0.05 31.91 0.063 6.09 2.96 14.45
1/26/2021 2:00:00 AM -0.04 31.928 0.063 6.09 2.98 14.45
1/26/2021 2:15:00 AM -0.04 31.928 0.063 6.09 2.95 14.45
1/26/2021 2:30:00 AM -0.03 31.946 0.063 6.11 3.03 14.44
1/26/2021 2:45:00 AM -0.02 31.964 0.063 6.11 3.44 14.44
1/26/2021 3:00:00 AM -0.01 31.982 0.063 6.12 3.07 14.44
1/26/2021 3:15:00 AM 0 32 0.063 6.13 3.06 14.43
1/26/2021 3:30:00 AM 0 32 0.063 6.13 2.98 14.43
1/26/2021 3:45:00 AM 0.01 32.018 0.063 6.13 2.95 14.42
1/26/2021 4:00:00 AM 0.02 32.036 0.063 6.13 2.93 14.42
1/26/2021 4:15:00 AM 0.03 32.054 0.064 6.13 2.93 14.41
1/26/2021 4:30:00 AM 0.04 32.072 0.064 6.12 2.94 14.4
1/26/2021 4:45:00 AM 0.05 32.09 0.064 6.13 2.89 14.4
1/26/2021 5:00:00 AM 0.06 32.108 0.064 6.13 2.92 14.39
1/26/2021 5:15:00 AM 0.06 32.108 0.064 6.12 2.91 14.39
1/26/2021 5:30:00 AM 0.07 32.126 0.064 6.13 2.91 14.38
1/26/2021 5:45:00 AM 0.08 32.144 0.064 6.13 2.91 14.38
1/26/2021 6:00:00 AM 0.08 32.144 0.064 6.14 2.9 14.37
1/26/2021 6:15:00 AM 0.09 32.162 0.064 6.15 2.89 14.37
1/26/2021 6:30:00 AM 0.09 32.162 0.064 6.14 3.03 14.37
1/26/2021 6:45:00 AM 0.1 32.18 0.064 6.14 2.94 14.36
1/26/2021 7:00:00 AM 0.1 32.18 0.064 6.12 2.92 14.37
1/26/2021 7:15:00 AM 0.11 32.198 0.064 6.14 2.89 14.37
1/26/2021 7:30:00 AM 0.12 32.216 0.064 6.15 2.9 14.36
1/26/2021 7:45:00 AM 0.13 32.234 0.064 6.13 2.86 14.36
1/26/2021 8:00:00 AM 0.14 32.252 0.064 6.14 2.88 14.37
1/26/2021 8:15:00 AM 0.15 32.27 0.064 6.14 2.9 14.38
1/26/2021 8:30:00 AM 0.15 32.27 0.064 6.13 3.31 14.38
1/26/2021 8:45:00 AM 0.14 32.252 0.064 6.15 3.1 14.39
1/26/2021 9:00:00 AM 0.12 32.216 0.064 6.15 2.87 14.38
1/26/2021 9:15:00 AM 0.05 32.09 0.063 6.13 2.92 14.39
1/26/2021 9:30:00 AM -0.01 31.982 0.063 6.13 2.93 14.42
1/26/2021 9:45:00 AM -0.04 31.928 0.063 6.15 2.87 14.44
1/26/2021 10:00:00 AM -0.07 31.874 0.063 6.15 2.89 14.46
1/26/2021 10:15:00 AM -0.08 31.856 0.063 6.14 2.93 14.48
1/26/2021 10:30:00 AM -0.08 31.856 0.063 6.11 2.92 14.5
1/26/2021 10:45:00 AM -0.09 31.838 0.063 6.11 2.85 14.52
1/26/2021 11:00:00 AM -0.09 31.838 0.063 6.12 2.85 14.52
1/26/2021 11:15:00 AM -0.09 31.838 0.063 6.18 2.86 14.53
1/26/2021 11:30:00 AM -0.09 31.838 0.063 6.19 2.93 14.52
1/26/2021 11:45:00 AM -0.09 31.838 0.063 6.19 2.96 14.53
1/26/2021 12:00:00 PM -0.09 31.838 0.063 6.19 2.87 14.53
1/26/2021 12:15:00 PM -0.09 31.838 0.063 6.18 2.9 14.52
1/26/2021 12:30:00 PM -0.09 31.838 0.063 6.17 2.92 14.52
1/26/2021 12:45:00 PM -0.08 31.856 0.063 6.15 2.94 14.5
1/26/2021 1:00:00 PM -0.08 31.856 0.063 6.13 2.87 14.5
1/26/2021 1:15:00 PM -0.08 31.856 0.063 6.15 2.85 14.5
1/26/2021 1:30:00 PM -0.08 31.856 0.063 6.15 2.85 14.49
1/26/2021 1:45:00 PM -0.08 31.856 0.063 6.14 2.82 14.49
1/26/2021 2:00:00 PM -0.08 31.856 0.063 6.13 2.88 14.48
1/26/2021 2:15:00 PM -0.08 31.856 0.063 6.14 2.85 14.48
1/26/2021 2:30:00 PM -0.08 31.856 0.063 6.15 2.88 14.48
1/26/2021 2:45:00 PM -0.08 31.856 0.063 6.16 2.89 14.47
1/26/2021 3:00:00 PM -0.08 31.856 0.063 6.14 2.84 14.47
1/26/2021 3:15:00 PM -0.09 31.838 0.063 6.14 2.83 14.47
1/26/2021 3:30:00 PM -0.09 31.838 0.063 6.15 2.92 14.48
1/26/2021 3:45:00 PM -0.09 31.838 0.063 6.16 2.88 14.47
1/26/2021 4:00:00 PM -0.08 31.856 0.063 6.16 2.89 14.46
1/26/2021 4:15:00 PM -0.08 31.856 0.063 6.12 2.9 14.45
1/26/2021 4:30:00 PM -0.08 31.856 0.063 6.15 2.87 14.44
1/26/2021 4:45:00 PM -0.08 31.856 0.063 6.15 2.85 14.44
1/26/2021 5:00:00 PM -0.08 31.856 0.063 6.14 2.92 14.43
1/26/2021 5:15:00 PM -0.07 31.874 0.063 6.14 2.88 14.42
1/26/2021 5:30:00 PM -0.07 31.874 0.063 6.13 2.87 14.41
1/26/2021 5:45:00 PM -0.07 31.874 0.063 6.12 2.82 14.41
1/26/2021 6:00:00 PM -0.07 31.874 0.063 6.13 2.89 14.4
1/26/2021 6:15:00 PM -0.07 31.874 0.063 6.13 2.86 14.4
1/26/2021 6:30:00 PM -0.08 31.856 0.063 6.14 2.91 14.4
1/26/2021 6:45:00 PM -0.08 31.856 0.063 6.13 2.84 14.4
1/26/2021 7:00:00 PM -0.07 31.874 0.063 6.13 2.86 14.4
1/26/2021 7:15:00 PM -0.07 31.874 0.063 6.13 2.86 14.4
1/26/2021 7:30:00 PM -0.07 31.874 0.063 6.13 2.85 14.4
1/26/2021 7:45:00 PM -0.08 31.856 0.063 6.13 2.83 14.4
1/26/2021 8:00:00 PM -0.07 31.874 0.063 6.12 2.87 14.39
1/26/2021 8:15:00 PM -0.06 31.892 0.063 6.14 2.84 14.4
1/26/2021 8:30:00 PM -0.06 31.892 0.063 6.14 2.86 14.39
1/26/2021 8:45:00 PM -0.05 31.91 0.063 6.13 2.88 14.39
1/26/2021 9:00:00 PM -0.07 31.874 0.063 6.13 2.86 14.39
1/26/2021 9:15:00 PM -0.08 31.856 0.063 6.13 2.9 14.39
1/26/2021 9:30:00 PM -0.07 31.874 0.063 6.13 2.86 14.39
1/26/2021 9:45:00 PM -0.06 31.892 0.063 6.14 2.86 14.39
1/26/2021 10:00:00 PM -0.05 31.91 0.063 6.14 2.87 14.39
1/26/2021 10:15:00 PM -0.04 31.928 0.063 6.15 2.85 14.39
1/26/2021 10:30:00 PM -0.04 31.928 0.063 6.15 2.83 14.39
1/26/2021 10:45:00 PM -0.03 31.946 0.063 6.13 2.84 14.38
1/26/2021 11:00:00 PM -0.02 31.964 0.063 6.14 2.85 14.38
1/26/2021 11:15:00 PM -0.01 31.982 0.063 6.14 2.84 14.37
1/26/2021 11:30:00 PM 0 32 0.063 6.14 2.86 14.37
1/26/2021 11:45:00 PM 0.01 32.018 0.063 6.13 2.85 14.37
1/27/2021 12:00:00 AM 0.03 32.054 0.063 6.14 2.84 14.36
1/27/2021 12:15:00 AM 0.04 32.072 0.063 6.12 2.83 14.36
1/27/2021 12:30:00 AM 0.05 32.09 0.063 6.14 2.85 14.35
1/27/2021 12:45:00 AM 0.06 32.108 0.063 6.13 2.86 14.35
1/27/2021 1:00:00 AM 0.07 32.126 0.063 6.14 2.83 14.35
1/27/2021 1:15:00 AM 0.08 32.144 0.063 6.13 2.84 14.35
1/27/2021 1:30:00 AM 0.09 32.162 0.063 6.12 2.84 14.35
1/27/2021 1:45:00 AM 0.1 32.18 0.063 6.14 2.89 14.34
1/27/2021 2:00:00 AM 0.11 32.198 0.063 6.13 2.82 14.35
1/27/2021 2:15:00 AM 0.12 32.216 0.063 6.14 2.81 14.34
1/27/2021 2:30:00 AM 0.13 32.234 0.063 6.14 2.86 14.34
1/27/2021 2:45:00 AM 0.14 32.252 0.063 6.14 2.83 14.34
1/27/2021 3:00:00 AM 0.15 32.27 0.063 6.15 2.83 14.35
1/27/2021 3:15:00 AM 0.16 32.288 0.063 6.13 2.84 14.34
1/27/2021 3:30:00 AM 0.18 32.324 0.063 6.13 2.78 14.34
1/27/2021 3:45:00 AM 0.19 32.342 0.063 6.13 2.82 14.34
1/27/2021 4:00:00 AM 0.2 32.36 0.063 6.12 2.84 14.34
1/27/2021 4:15:00 AM 0.21 32.378 0.062 6.13 2.82 14.33
1/27/2021 4:30:00 AM 0.21 32.378 0.062 6.12 2.81 14.33
1/27/2021 4:45:00 AM 0.22 32.396 0.062 6.13 2.83 14.34
1/27/2021 5:00:00 AM 0.23 32.414 0.062 6.12 2.8 14.33
1/27/2021 5:15:00 AM 0.23 32.414 0.062 6.14 2.82 14.33
1/27/2021 5:30:00 AM 0.24 32.432 0.062 6.16 2.82 14.33
1/27/2021 5:45:00 AM 0.25 32.45 0.062 6.15 2.86 14.34
1/27/2021 6:00:00 AM 0.25 32.45 0.062 6.15 2.82 14.34
1/27/2021 6:15:00 AM 0.25 32.45 0.062 6.15 2.84 14.34
1/27/2021 6:30:00 AM 0.24 32.432 0.062 6.15 2.84 14.35
1/27/2021 6:45:00 AM 0.24 32.432 0.062 6.16 2.82 14.35
1/27/2021 7:00:00 AM 0.24 32.432 0.062 6.16 2.84 14.36
1/27/2021 7:15:00 AM 0.23 32.414 0.062 6.16 2.84 14.37
1/27/2021 7:30:00 AM 0.23 32.414 0.062 6.16 2.8 14.37
1/27/2021 7:45:00 AM 0.23 32.414 0.062 6.16 2.84 14.38
1/27/2021 8:00:00 AM 0.23 32.414 0.062 6.16 2.84 14.39
1/27/2021 8:15:00 AM 0.22 32.396 0.062 6.17 2.85 14.4
1/27/2021 8:30:00 AM 0.22 32.396 0.062 6.17 2.87 14.43
1/27/2021 8:45:00 AM 0.23 32.414 0.062 6.18 2.84 14.44
1/27/2021 9:00:00 AM 0.24 32.432 0.062 6.18 2.83 14.46
1/27/2021 9:15:00 AM 0.26 32.468 0.062 6.18 2.82 14.47
1/27/2021 9:30:00 AM 0.28 32.504 0.062 6.19 2.82 14.47
1/27/2021 9:45:00 AM 0.31 32.558 0.062 6.2 2.84 14.47
1/27/2021 10:00:00 AM 0.33 32.594 0.062 6.2 2.81 14.47
1/27/2021 10:15:00 AM 0.36 32.648 0.062 6.22 2.8 14.47
1/27/2021 10:30:00 AM 0.41 32.738 0.062 6.21 2.8 14.47
1/27/2021 10:45:00 AM 0.44 32.792 0.062 6.21 2.8 14.46
1/27/2021 11:00:00 AM 0.47 32.846 0.062 6.22 4.13 14.45
1/27/2021 11:15:00 AM 0.49 32.882 0.062 6.22 2.8 14.44
1/27/2021 11:30:00 AM 0.52 32.936 0.062 6.22 2.8 14.42
1/27/2021 11:45:00 AM 0.55 32.99 0.063 6.22 2.82 14.42
1/27/2021 12:00:00 PM 0.57 33.026 0.063 6.21 2.82 14.41
1/27/2021 12:15:00 PM 0.58 33.044 0.063 6.22 2.8 14.39
1/27/2021 12:30:00 PM 0.58 33.044 0.063 6.21 2.81 14.39
1/27/2021 12:45:00 PM 0.59 33.062 0.063 6.21 2.79 14.39
1/27/2021 1:00:00 PM 0.6 33.08 0.063 6.22 2.83 14.38
1/27/2021 1:15:00 PM 0.62 33.116 0.063 6.2 2.8 14.39
1/27/2021 1:30:00 PM 0.63 33.134 0.063 6.23 2.81 14.38
1/27/2021 1:45:00 PM 0.64 33.152 0.063 6.21 2.86 14.37
1/27/2021 2:00:00 PM 0.66 33.188 0.063 6.21 2.81 14.36
1/27/2021 2:15:00 PM 0.66 33.188 0.063 6.23 2.82 14.35
1/27/2021 2:30:00 PM 0.67 33.206 0.063 6.22 2.81 14.35
1/27/2021 2:45:00 PM 0.67 33.206 0.063 6.21 2.82 14.34
1/27/2021 3:00:00 PM 0.67 33.206 0.063 6.22 2.79 14.34
1/27/2021 3:15:00 PM 0.67 33.206 0.063 6.21 2.81 14.33
1/27/2021 3:30:00 PM 0.67 33.206 0.063 6.22 2.83 14.34
1/27/2021 3:45:00 PM 0.66 33.188 0.063 6.2 2.81 14.32
1/27/2021 4:00:00 PM 0.65 33.17 0.063 6.2 2.83 14.32
1/27/2021 4:15:00 PM 0.64 33.152 0.063 6.19 2.81 14.31
1/27/2021 4:30:00 PM 0.62 33.116 0.063 6.2 2.86 14.3
1/27/2021 4:45:00 PM 0.6 33.08 0.063 6.2 2.8 14.3
1/27/2021 5:00:00 PM 0.59 33.062 0.063 6.18 2.8 14.29
1/27/2021 5:15:00 PM 0.57 33.026 0.063 6.18 2.85 14.29
1/27/2021 5:30:00 PM 0.55 32.99 0.063 6.18 2.81 14.3
1/27/2021 5:45:00 PM 0.53 32.954 0.063 6.17 2.83 14.3
1/27/2021 6:00:00 PM 0.51 32.918 0.063 6.16 2.8 14.3
1/27/2021 6:15:00 PM 0.5 32.9 0.063 6.16 2.81 14.31
1/27/2021 6:30:00 PM 0.47 32.846 0.063 6.16 2.85 14.32
1/27/2021 6:45:00 PM 0.46 32.828 0.063 6.17 2.8 14.33
1/27/2021 7:00:00 PM 0.44 32.792 0.063 6.17 2.84 14.33
1/27/2021 7:15:00 PM 0.42 32.756 0.063 6.17 2.85 14.34
1/27/2021 7:30:00 PM 0.41 32.738 0.063 6.15 2.82 14.35
1/27/2021 7:45:00 PM 0.4 32.72 0.063 6.17 2.8 14.35
1/27/2021 8:00:00 PM 0.38 32.684 0.063 6.16 2.81 14.36
1/27/2021 8:15:00 PM 0.36 32.648 0.063 6.16 2.81 14.37
1/27/2021 8:30:00 PM 0.35 32.63 0.063 6.15 2.83 14.38
1/27/2021 8:45:00 PM 0.34 32.612 0.063 6.15 2.81 14.38
1/27/2021 9:00:00 PM 0.32 32.576 0.063 6.16 2.81 14.38
1/27/2021 9:15:00 PM 0.31 32.558 0.063 6.16 2.83 14.39
1/27/2021 9:30:00 PM 0.3 32.54 0.063 6.16 2.81 14.39
1/27/2021 9:45:00 PM 0.27 32.486 0.063 6.16 2.82 14.4
1/27/2021 10:00:00 PM 0.25 32.45 0.063 6.15 2.83 14.41
1/27/2021 10:15:00 PM 0.23 32.414 0.063 6.16 2.86 14.42
1/27/2021 10:30:00 PM 0.2 32.36 0.063 6.16 2.85 14.43
1/27/2021 10:45:00 PM 0.19 32.342 0.063 6.16 2.83 14.44
1/27/2021 11:00:00 PM 0.18 32.324 0.063 6.17 2.82 14.44
1/27/2021 11:15:00 PM 0.17 32.306 0.063 6.17 2.8 14.45
1/27/2021 11:30:00 PM 0.16 32.288 0.063 6.16 2.81 14.46
1/27/2021 11:45:00 PM 0.15 32.27 0.063 6.17 2.81 14.46
1/28/2021 12:00:00 AM 0.14 32.252 0.063 6.16 2.82 14.46
1/28/2021 12:15:00 AM 0.13 32.234 0.063 6.16 2.84 14.46
1/28/2021 12:30:00 AM 0.11 32.198 0.063 6.16 2.81 14.47
1/28/2021 12:45:00 AM 0.08 32.144 0.063 6.16 2.8 14.48
1/28/2021 1:00:00 AM 0.05 32.09 0.063 6.16 2.81 14.49
1/28/2021 1:15:00 AM 0.02 32.036 0.064 6.16 2.82 14.5
1/28/2021 1:30:00 AM -0.01 31.982 0.064 6.16 2.83 14.51
1/28/2021 1:45:00 AM -0.05 31.91 0.064 6.16 2.82 14.52
1/28/2021 2:00:00 AM -0.09 31.838 0.064 6.15 2.8 14.54
1/28/2021 2:15:00 AM -0.12 31.784 0.064 6.17 2.83 14.55
1/28/2021 2:30:00 AM -0.1 31.82 0.063 6.16 2.84 14.57
1/28/2021 2:45:00 AM -0.1 31.82 0.064 6.13 2.81 14.58
1/28/2021 3:00:00 AM -0.09 31.838 0.064 6.12 2.81 14.58
1/28/2021 3:15:00 AM -0.09 31.838 0.064 6.13 2.81 14.58
1/28/2021 3:30:00 AM -0.09 31.838 0.064 6.16 2.77 14.58
1/28/2021 3:45:00 AM -0.09 31.838 0.064 6.16 2.76 14.58
1/28/2021 4:00:00 AM -0.09 31.838 0.064 6.18 2.75 14.58
1/28/2021 4:15:00 AM -0.09 31.838 0.064 6.19 2.8 14.58
1/28/2021 4:30:00 AM -0.09 31.838 0.064 6.2 2.83 14.57
1/28/2021 4:45:00 AM -0.09 31.838 0.064 6.19 2.83 14.57
1/28/2021 5:00:00 AM -0.09 31.838 0.064 6.18 2.82 14.57
1/28/2021 5:15:00 AM -0.09 31.838 0.064 6.19 2.86 14.57
1/28/2021 5:30:00 AM -0.09 31.838 0.064 6.2 2.88 14.57
1/28/2021 5:45:00 AM -0.09 31.838 0.065 6.2 2.88 14.57
1/28/2021 6:00:00 AM -0.09 31.838 0.065 6.2 2.88 14.57
1/28/2021 6:15:00 AM -0.09 31.838 0.065 6.2 2.85 14.57
1/28/2021 6:30:00 AM -0.09 31.838 0.065 6.19 2.83 14.58
1/28/2021 6:45:00 AM -0.09 31.838 0.065 6.2 2.79 14.58
1/28/2021 7:00:00 AM -0.09 31.838 0.066 6.19 2.81 14.58
1/28/2021 7:15:00 AM -0.09 31.838 0.066 6.2 2.83 14.59
1/28/2021 7:30:00 AM -0.09 31.838 0.066 6.22 2.83 14.6
1/28/2021 7:45:00 AM -0.09 31.838 0.067 6.21 2.83 14.61
1/28/2021 8:00:00 AM -0.09 31.838 0.067 6.22 2.79 14.63
1/28/2021 8:15:00 AM -0.09 31.838 0.067 6.23 2.84 14.64
1/28/2021 8:30:00 AM -0.09 31.838 0.067 6.24 2.81 14.66
1/28/2021 8:45:00 AM -0.09 31.838 0.067 6.24 2.79 14.68
1/28/2021 9:00:00 AM -0.09 31.838 0.067 6.25 2.83 14.69
1/28/2021 9:15:00 AM -0.09 31.838 0.067 6.25 2.83 14.7
1/28/2021 9:30:00 AM -0.09 31.838 0.067 6.25 2.8 14.7
1/28/2021 9:45:00 AM -0.09 31.838 0.067 6.26 2.82 14.71
1/28/2021 10:00:00 AM -0.09 31.838 0.066 6.25 2.83 14.71
1/28/2021 10:15:00 AM -0.09 31.838 0.066 6.24 2.83 14.72
1/28/2021 10:30:00 AM -0.09 31.838 0.066 6.26 2.86 14.71
1/28/2021 10:45:00 AM -0.08 31.856 0.066 6.26 2.82 14.71
1/28/2021 11:00:00 AM -0.08 31.856 0.066 6.25 2.84 14.71
1/28/2021 11:15:00 AM -0.08 31.856 0.066 6.26 2.88 14.7
1/28/2021 11:30:00 AM -0.08 31.856 0.066 6.24 2.86 14.68
1/28/2021 11:45:00 AM -0.08 31.856 0.065 6.26 2.84 14.67
1/28/2021 12:00:00 PM -0.08 31.856 0.065 6.25 2.85 14.67
1/28/2021 12:15:00 PM -0.08 31.856 0.065 6.22 2.83 14.65
1/28/2021 12:30:00 PM -0.08 31.856 0.065 6.17 2.89 14.65
1/28/2021 12:45:00 PM -0.08 31.856 0.064 6.14 2.9 14.64
1/28/2021 1:00:00 PM -0.07 31.874 0.064 6.19 2.9 14.64
1/28/2021 1:15:00 PM -0.08 31.856 0.064 6.23 2.85 14.63
1/28/2021 1:30:00 PM -0.08 31.856 0.064 6.22 2.82 14.63
1/28/2021 1:45:00 PM -0.09 31.838 0.064 6.22 2.83 14.64
1/28/2021 2:00:00 PM -0.09 31.838 0.064 6.23 2.86 14.64
1/28/2021 2:15:00 PM -0.09 31.838 0.065 6.23 2.86 14.65
1/28/2021 2:30:00 PM -0.09 31.838 0.065 6.22 3.01 14.65
1/28/2021 2:45:00 PM -0.09 31.838 0.065 6.23 2.81 14.65
1/28/2021 3:00:00 PM -0.09 31.838 0.065 6.23 2.87 14.66
1/28/2021 3:15:00 PM -0.1 31.82 0.065 6.22 2.83 14.68
1/28/2021 3:30:00 PM -0.1 31.82 0.065 6.19 2.79 14.69
1/28/2021 3:45:00 PM -0.1 31.82 0.065 6.2 2.81 14.69
1/28/2021 4:00:00 PM -0.1 31.82 0.065 6.16 2.8 14.69
1/28/2021 4:15:00 PM -0.1 31.82 0.065 6.16 2.81 14.7
1/28/2021 4:30:00 PM -0.1 31.82 0.065 6.15 2.77 14.7
1/28/2021 4:45:00 PM -0.1 31.82 0.065 6.15 2.79 14.69
1/28/2021 5:00:00 PM -0.1 31.82 0.065 6.14 2.79 14.68
1/28/2021 5:15:00 PM -0.1 31.82 0.065 6.14 2.79 14.67
1/28/2021 5:30:00 PM -0.1 31.82 0.065 6.17 2.84 14.66
1/28/2021 5:45:00 PM -0.09 31.838 0.065 6.18 2.8 14.65
1/28/2021 6:00:00 PM -0.09 31.838 0.066 6.16 2.76 14.64
1/28/2021 6:15:00 PM -0.09 31.838 0.066 6.17 2.77 14.64
1/28/2021 6:30:00 PM -0.09 31.838 0.066 6.2 2.76 14.64
1/28/2021 6:45:00 PM -0.09 31.838 0.066 6.19 2.77 14.64
1/28/2021 7:00:00 PM -0.1 31.82 0.065 6.18 2.74 14.65
1/28/2021 7:15:00 PM -0.1 31.82 0.065 6.18 2.76 14.65
1/28/2021 7:30:00 PM -0.09 31.838 0.065 6.2 2.77 14.65
1/28/2021 7:45:00 PM -0.09 31.838 0.065 6.22 2.77 14.64
1/28/2021 8:00:00 PM -0.09 31.838 0.065 6.22 2.75 14.64
1/28/2021 8:15:00 PM -0.09 31.838 0.066 6.21 2.79 14.64
1/28/2021 8:30:00 PM -0.09 31.838 0.066 6.22 2.77 14.64
1/28/2021 8:45:00 PM -0.09 31.838 0.066 6.21 2.79 14.64
1/28/2021 9:00:00 PM -0.09 31.838 0.066 6.22 2.73 14.64
1/28/2021 9:15:00 PM -0.09 31.838 0.066 6.22 2.77 14.64
1/28/2021 9:30:00 PM -0.09 31.838 0.066 6.22 2.77 14.64
1/28/2021 9:45:00 PM -0.09 31.838 0.066 6.21 2.76 14.64
1/28/2021 10:00:00 PM -0.09 31.838 0.066 6.22 2.82 14.64
1/28/2021 10:15:00 PM -0.09 31.838 0.067 6.22 2.8 14.63
1/28/2021 10:30:00 PM -0.09 31.838 0.067 6.22 2.75 14.63
1/28/2021 10:45:00 PM -0.09 31.838 0.068 6.22 2.74 14.62
1/28/2021 11:00:00 PM -0.09 31.838 0.068 6.22 2.74 14.62
1/28/2021 11:15:00 PM -0.09 31.838 0.068 6.22 2.74 14.62
1/28/2021 11:30:00 PM -0.09 31.838 0.069 6.23 2.75 14.62
1/28/2021 11:45:00 PM -0.09 31.838 0.069 6.23 2.68 14.62
1/29/2021 12:00:00 AM -0.09 31.838 0.069 6.22 2.73 14.61
1/29/2021 12:15:00 AM -0.09 31.838 0.069 6.22 2.77 14.61
1/29/2021 12:30:00 AM -0.09 31.838 0.069 6.22 2.74 14.6
1/29/2021 12:45:00 AM -0.09 31.838 0.069 6.22 2.71 14.6
1/29/2021 1:00:00 AM -0.09 31.838 0.069 6.22 2.73 14.59
1/29/2021 1:15:00 AM -0.09 31.838 0.069 6.22 2.72 14.59
1/29/2021 1:30:00 AM -0.09 31.838 0.069 6.21 2.73 14.59
1/29/2021 1:45:00 AM -0.09 31.838 0.069 6.22 2.7 14.59
1/29/2021 2:00:00 AM -0.09 31.838 0.069 6.21 2.7 14.58
1/29/2021 2:15:00 AM -0.09 31.838 0.069 6.22 2.68 14.58
1/29/2021 2:30:00 AM -0.09 31.838 0.068 6.22 2.71 14.58
1/29/2021 2:45:00 AM -0.09 31.838 0.068 6.22 2.73 14.58
1/29/2021 3:00:00 AM -0.09 31.838 0.068 6.22 2.7 14.59
1/29/2021 3:15:00 AM -0.09 31.838 0.068 6.21 2.68 14.58
1/29/2021 3:30:00 AM -0.09 31.838 0.068 6.21 2.67 14.58
1/29/2021 3:45:00 AM -0.09 31.838 0.067 6.22 2.74 14.58
1/29/2021 4:00:00 AM -0.09 31.838 0.067 6.21 2.69 14.58
1/29/2021 4:15:00 AM -0.09 31.838 0.066 6.2 2.67 14.58
1/29/2021 4:30:00 AM -0.09 31.838 0.066 6.21 2.72 14.57
1/29/2021 4:45:00 AM -0.09 31.838 0.065 6.21 2.79 14.58
1/29/2021 5:00:00 AM -0.09 31.838 0.065 6.2 2.78 14.58
1/29/2021 5:15:00 AM -0.09 31.838 0.065 6.2 2.75 14.59
1/29/2021 5:30:00 AM -0.09 31.838 0.064 6.2 2.75 14.59
1/29/2021 5:45:00 AM -0.09 31.838 0.064 6.2 2.79 14.59
1/29/2021 6:00:00 AM -0.09 31.838 0.064 6.2 2.73 14.59
1/29/2021 6:15:00 AM -0.09 31.838 0.064 6.2 2.78 14.6
1/29/2021 6:30:00 AM -0.09 31.838 0.064 6.19 2.76 14.59
1/29/2021 6:45:00 AM -0.09 31.838 0.065 6.2 2.76 14.59
1/29/2021 7:00:00 AM -0.09 31.838 0.065 6.19 2.76 14.6
1/29/2021 7:15:00 AM -0.09 31.838 0.066 6.2 2.76 14.6
1/29/2021 7:30:00 AM -0.09 31.838 0.066 6.19 2.78 14.61
1/29/2021 7:45:00 AM -0.09 31.838 0.066 6.2 2.75 14.63
1/29/2021 8:00:00 AM -0.09 31.838 0.067 6.21 2.78 14.64
1/29/2021 8:15:00 AM -0.09 31.838 0.067 6.21 2.78 14.65
1/29/2021 8:30:00 AM -0.09 31.838 0.067 6.22 2.77 14.67
1/29/2021 8:45:00 AM -0.09 31.838 0.068 6.22 2.78 14.68
1/29/2021 9:00:00 AM -0.08 31.856 0.068 6.23 2.77 14.69
1/29/2021 9:15:00 AM -0.08 31.856 0.068 6.24 2.78 14.69
1/29/2021 9:30:00 AM -0.08 31.856 0.068 6.23 2.77 14.7
1/29/2021 9:45:00 AM -0.08 31.856 0.069 6.23 2.8 14.71
1/29/2021 10:00:00 AM -0.08 31.856 0.069 6.24 2.75 14.72
1/29/2021 10:15:00 AM -0.08 31.856 0.069 6.24 2.77 14.72
1/29/2021 10:30:00 AM -0.08 31.856 0.069 6.25 2.71 14.72
1/29/2021 10:45:00 AM -0.08 31.856 0.069 6.25 2.75 14.72
1/29/2021 11:00:00 AM -0.08 31.856 0.069 6.25 2.75 14.72
1/29/2021 11:15:00 AM -0.08 31.856 0.069 6.26 2.78 14.71
1/29/2021 11:30:00 AM -0.08 31.856 0.069 6.26 2.77 14.72
1/29/2021 11:45:00 AM -0.08 31.856 0.069 6.26 2.79 14.71
1/29/2021 12:00:00 PM -0.08 31.856 0.069 6.26 2.75 14.72
1/29/2021 12:15:00 PM -0.08 31.856 0.069 6.26 2.78 14.71
1/29/2021 12:30:00 PM -0.08 31.856 0.069 6.26 2.76 14.71
1/29/2021 12:45:00 PM -0.08 31.856 0.069 6.25 2.82 14.71
1/29/2021 1:00:00 PM -0.08 31.856 0.069 6.25 2.78 14.71
1/29/2021 1:15:00 PM -0.08 31.856 0.069 6.26 2.78 14.71
1/29/2021 1:30:00 PM -0.08 31.856 0.069 6.25 2.79 14.7
1/29/2021 1:45:00 PM -0.08 31.856 0.069 6.26 2.82 14.7
1/29/2021 2:00:00 PM -0.08 31.856 0.069 6.26 2.81 14.7
1/29/2021 2:15:00 PM -0.08 31.856 0.069 6.27 2.83 14.7
1/29/2021 2:30:00 PM -0.08 31.856 0.069 6.26 2.8 14.7
1/29/2021 2:45:00 PM -0.08 31.856 0.069 6.25 2.77 14.7
1/29/2021 3:00:00 PM -0.08 31.856 0.069 6.26 2.79 14.71
1/29/2021 3:15:00 PM -0.08 31.856 0.069 6.26 2.82 14.71
1/29/2021 3:30:00 PM -0.08 31.856 0.069 6.26 2.81 14.7
1/29/2021 3:45:00 PM -0.09 31.838 0.069 6.26 2.76 14.7
1/29/2021 4:00:00 PM -0.09 31.838 0.069 6.26 2.79 14.7
1/29/2021 4:15:00 PM -0.09 31.838 0.069 6.26 2.81 14.7
1/29/2021 4:30:00 PM -0.09 31.838 0.069 6.25 2.79 14.69
1/29/2021 4:45:00 PM -0.09 31.838 0.069 6.25 2.84 14.69
1/29/2021 5:00:00 PM -0.09 31.838 0.069 6.24 2.82 14.68
1/29/2021 5:15:00 PM -0.09 31.838 0.07 6.23 2.82 14.66
1/29/2021 5:30:00 PM -0.09 31.838 0.07 6.22 2.83 14.65
1/29/2021 5:45:00 PM -0.09 31.838 0.07 6.22 2.8 14.64
1/29/2021 6:00:00 PM -0.09 31.838 0.07 6.22 2.83 14.63
1/29/2021 6:15:00 PM -0.09 31.838 0.07 6.22 2.82 14.63
1/29/2021 6:30:00 PM -0.09 31.838 0.07 6.21 2.79 14.62
1/29/2021 6:45:00 PM -0.09 31.838 0.07 6.22 2.82 14.62
1/29/2021 7:00:00 PM -0.09 31.838 0.07 6.21 2.83 14.61
1/29/2021 7:15:00 PM -0.09 31.838 0.07 6.21 2.82 14.61
1/29/2021 7:30:00 PM -0.09 31.838 0.07 6.2 2.81 14.61
1/29/2021 7:45:00 PM -0.09 31.838 0.07 6.2 2.83 14.61
1/29/2021 8:00:00 PM -0.09 31.838 0.07 6.21 2.84 14.6
1/29/2021 8:15:00 PM -0.09 31.838 0.07 6.2 2.8 14.6
1/29/2021 8:30:00 PM -0.09 31.838 0.07 6.19 2.85 14.61
1/29/2021 8:45:00 PM -0.09 31.838 0.07 6.2 2.75 14.6
1/29/2021 9:00:00 PM -0.09 31.838 0.069 6.19 2.81 14.61
1/29/2021 9:15:00 PM -0.09 31.838 0.069 6.2 2.82 14.61
1/29/2021 9:30:00 PM -0.09 31.838 0.069 6.19 2.81 14.61
1/29/2021 9:45:00 PM -0.09 31.838 0.069 6.19 2.8 14.61
1/29/2021 10:00:00 PM -0.09 31.838 0.069 6.19 2.79 14.6
1/29/2021 10:15:00 PM -99999.99 -179968 -99999.99 -99999.99 -99999.99 -99999.99
1/29/2021 10:30:00 PM -99999.99 -179968 -99999.99 -99999.99 -99999.99 -99999.99
1/29/2021 10:45:00 PM -99999.99 -179968 -99999.99 -99999.99 -99999.99 -99999.99
1/29/2021 11:00:00 PM -99999.99 -179968 -99999.99 -99999.99 -99999.99 -99999.99
1/29/2021 11:15:00 PM -99999.99 -179968 -99999.99 -99999.99 -99999.99 -99999.99
1/29/2021 11:30:00 PM -99999.99 -179968 -99999.99 -99999.99 -99999.99 -99999.99
1/29/2021 11:45:00 PM -99999.99 -179968 -99999.99 -99999.99 -99999.99 -99999.99
1/30/2021 12:00:00 AM -99999.99 -179968 -99999.99 -99999.99 -99999.99 -99999.99
1/30/2021 12:15:00 AM -99999.99 -179968 -99999.99 -99999.99 -99999.99 -99999.99
1/30/2021 12:30:00 AM -99999.99 -179968 -99999.99 -99999.99 -99999.99 -99999.99
1/30/2021 12:45:00 AM -99999.99 -179968 -99999.99 -99999.99 -99999.99 -99999.99
1/30/2021 1:00:00 AM -99999.99 -179968 -99999.99 -99999.99 -99999.99 -99999.99
1/30/2021 1:15:00 AM -99999.99 -179968 -99999.99 -99999.99 -99999.99 -99999.99
1/30/2021 1:30:00 AM -99999.99 -179968 -99999.99 -99999.99 -99999.99 -99999.99
1/30/2021 1:45:00 AM -99999.99 -179968 -99999.99 -99999.99 -99999.99 -99999.99
1/30/2021 2:00:00 AM -99999.99 -179968 -99999.99 -99999.99 -99999.99 -99999.99
1/30/2021 2:15:00 AM -99999.99 -179968 -99999.99 -99999.99 -99999.99 -99999.99
1/30/2021 2:30:00 AM -99999.99 -179968 -99999.99 -99999.99 -99999.99 -99999.99
1/30/2021 2:45:00 AM -99999.99 -179968 -99999.99 -99999.99 -99999.99 -99999.99
1/30/2021 3:00:00 AM -99999.99 -179968 -99999.99 -99999.99 -99999.99 -99999.99
1/30/2021 3:15:00 AM -0.09 31.838 0.069 6.2 2.76 14.62
1/30/2021 3:30:00 AM -0.09 31.838 0.069 6.19 2.75 14.61
1/30/2021 3:45:00 AM -0.09 31.838 0.069 6.19 2.75 14.61
1/30/2021 4:00:00 AM -0.09 31.838 0.069 6.2 2.8 14.61
1/30/2021 4:15:00 AM -0.09 31.838 0.069 6.19 2.76 14.61
1/30/2021 4:30:00 AM -0.09 31.838 0.069 6.19 2.76 14.61
1/30/2021 4:45:00 AM -0.09 31.838 0.069 6.2 2.73 14.61
1/30/2021 5:00:00 AM -0.09 31.838 0.069 6.19 2.74 14.6
1/30/2021 5:15:00 AM -0.09 31.838 0.069 6.19 2.76 14.6
1/30/2021 5:30:00 AM -0.09 31.838 0.069 6.19 2.74 14.61
1/30/2021 5:45:00 AM -0.09 31.838 0.069 6.19 2.77 14.6
1/30/2021 6:00:00 AM -0.09 31.838 0.069 6.19 2.75 14.6
1/30/2021 6:15:00 AM -0.09 31.838 0.069 6.19 2.75 14.61
1/30/2021 6:30:00 AM -0.09 31.838 0.069 6.18 2.76 14.61
1/30/2021 6:45:00 AM -0.09 31.838 0.069 6.19 2.78 14.61
1/30/2021 7:00:00 AM -0.09 31.838 0.069 6.19 2.8 14.62
1/30/2021 7:15:00 AM -0.09 31.838 0.069 6.19 2.77 14.62
1/30/2021 7:30:00 AM -0.09 31.838 0.069 6.19 2.74 14.63
1/30/2021 7:45:00 AM -0.09 31.838 0.069 6.2 2.73 14.64
1/30/2021 8:00:00 AM -0.09 31.838 0.069 6.2 2.71 14.67
1/30/2021 8:15:00 AM -0.09 31.838 0.069 6.2 2.74 14.69
1/30/2021 8:30:00 AM -0.09 31.838 0.069 6.2 2.74 14.7
1/30/2021 8:45:00 AM -0.09 31.838 0.069 6.21 2.76 14.71
1/30/2021 9:00:00 AM -0.09 31.838 0.069 6.22 2.75 14.73
1/30/2021 9:15:00 AM -0.08 31.856 0.069 6.22 2.76 14.73
1/30/2021 9:30:00 AM -0.08 31.856 0.069 6.22 2.71 14.74
1/30/2021 9:45:00 AM -0.08 31.856 0.069 6.22 2.73 14.75
1/30/2021 10:00:00 AM -0.08 31.856 0.069 6.23 2.7 14.75
1/30/2021 10:15:00 AM -0.08 31.856 0.069 6.24 2.73 14.75
1/30/2021 10:30:00 AM -0.08 31.856 0.069 6.24 2.75 14.76
1/30/2021 10:45:00 AM -0.08 31.856 0.069 6.23 2.81 14.76
1/30/2021 11:00:00 AM -0.08 31.856 0.069 6.25 2.76 14.76
1/30/2021 11:15:00 AM -0.07 31.874 0.069 6.25 2.75 14.76
1/30/2021 11:30:00 AM -0.07 31.874 0.069 6.25 2.8 14.75
1/30/2021 11:45:00 AM -0.08 31.856 0.069 6.25 2.76 14.74
1/30/2021 12:00:00 PM -0.08 31.856 0.069 6.25 2.8 14.73
1/30/2021 12:15:00 PM -0.08 31.856 0.069 6.25 2.81 14.73
1/30/2021 12:30:00 PM -0.08 31.856 0.069 6.25 2.9 14.72
1/30/2021 12:45:00 PM -0.08 31.856 0.069 6.25 2.8 14.71
1/30/2021 1:00:00 PM -0.08 31.856 0.068 6.25 2.8 14.71
1/30/2021 1:15:00 PM -0.08 31.856 0.068 6.25 2.86 14.71
1/30/2021 1:30:00 PM -0.08 31.856 0.068 6.25 2.81 14.71
1/30/2021 1:45:00 PM -0.08 31.856 0.069 6.25 2.82 14.71
1/30/2021 2:00:00 PM -0.08 31.856 0.069 6.25 2.84 14.71
1/30/2021 2:15:00 PM -0.08 31.856 0.069 6.25 2.78 14.72
1/30/2021 2:30:00 PM -0.08 31.856 0.069 6.24 2.84 14.72
1/30/2021 2:45:00 PM -0.08 31.856 0.069 6.25 2.82 14.72
1/30/2021 3:00:00 PM -0.08 31.856 0.069 6.24 2.85 14.72
1/30/2021 3:15:00 PM -0.08 31.856 0.069 6.25 2.83 14.72
1/30/2021 3:30:00 PM -0.08 31.856 0.069 6.24 2.81 14.71
1/30/2021 3:45:00 PM -0.08 31.856 0.069 6.25 2.82 14.71
1/30/2021 4:00:00 PM -0.08 31.856 0.069 6.24 2.82 14.71
1/30/2021 4:15:00 PM -0.09 31.838 0.069 6.25 2.81 14.71
1/30/2021 4:30:00 PM -0.09 31.838 0.069 6.24 3.48 14.7
1/30/2021 4:45:00 PM -0.09 31.838 0.069 6.24 2.78 14.69
1/30/2021 5:00:00 PM -0.09 31.838 0.069 6.24 2.78 14.68
1/30/2021 5:15:00 PM -0.09 31.838 0.069 6.22 2.8 14.66
1/30/2021 5:30:00 PM -0.09 31.838 0.069 6.22 2.78 14.65
1/30/2021 5:45:00 PM -0.09 31.838 0.069 6.2 2.82 14.64
1/30/2021 6:00:00 PM -0.09 31.838 0.069 6.21 2.81 14.63
1/30/2021 6:15:00 PM -0.09 31.838 0.069 6.2 2.76 14.63
1/30/2021 6:30:00 PM -0.09 31.838 0.069 6.2 2.79 14.62
1/30/2021 6:45:00 PM -0.09 31.838 0.069 6.2 2.8 14.62
1/30/2021 7:00:00 PM -0.09 31.838 0.069 6.2 2.81 14.62
1/30/2021 7:15:00 PM -0.09 31.838 0.069 6.2 2.75 14.62
1/30/2021 7:30:00 PM -0.09 31.838 0.069 6.19 2.78 14.62
1/30/2021 7:45:00 PM -0.09 31.838 0.069 6.19 2.79 14.62
1/30/2021 8:00:00 PM -0.09 31.838 0.069 6.18 2.77 14.62
1/30/2021 8:15:00 PM -0.09 31.838 0.068 6.19 2.76 14.62
1/30/2021 8:30:00 PM -0.09 31.838 0.068 6.19 2.84 14.62
1/30/2021 8:45:00 PM -0.09 31.838 0.068 6.19 2.78 14.63
1/30/2021 9:00:00 PM -0.09 31.838 0.068 6.18 2.73 14.63
1/30/2021 9:15:00 PM -0.09 31.838 0.068 6.19 2.73 14.63
1/30/2021 9:30:00 PM -0.09 31.838 0.068 6.18 2.73 14.63
1/30/2021 9:45:00 PM -0.09 31.838 0.068 6.19 2.77 14.63
1/30/2021 10:00:00 PM -0.09 31.838 0.068 6.18 2.73 14.63
1/30/2021 10:15:00 PM -0.09 31.838 0.067 6.18 2.77 14.63
1/30/2021 10:30:00 PM -0.09 31.838 0.067 6.18 2.71 14.63
1/30/2021 10:45:00 PM -0.09 31.838 0.068 6.19 2.72 14.63
1/30/2021 11:00:00 PM -0.09 31.838 0.067 6.18 2.72 14.63
1/30/2021 11:15:00 PM -0.09 31.838 0.067 6.19 2.74 14.63
1/30/2021 11:30:00 PM -0.09 31.838 0.067 6.18 2.74 14.63
1/30/2021 11:45:00 PM -0.09 31.838 0.067 6.18 2.75 14.63
1/31/2021 12:00:00 AM -0.09 31.838 0.067 6.17 2.72 14.63
1/31/2021 12:15:00 AM -0.09 31.838 0.067 6.17 2.71 14.63
1/31/2021 12:30:00 AM -0.09 31.838 0.067 6.18 2.76 14.63
1/31/2021 12:45:00 AM -0.09 31.838 0.068 6.18 2.71 14.63
1/31/2021 1:00:00 AM -0.09 31.838 0.068 6.18 2.73 14.63
1/31/2021 1:15:00 AM -0.09 31.838 0.068 6.18 2.74 14.63
1/31/2021 1:30:00 AM -0.09 31.838 0.068 6.18 2.75 14.63
1/31/2021 1:45:00 AM -0.09 31.838 0.068 6.18 2.71 14.63
1/31/2021 2:00:00 AM -0.09 31.838 0.068 6.18 2.73 14.62
1/31/2021 2:15:00 AM -0.09 31.838 0.068 6.18 2.76 14.62
1/31/2021 2:30:00 AM -0.09 31.838 0.068 6.19 2.69 14.62
1/31/2021 2:45:00 AM -0.09 31.838 0.068 6.18 2.75 14.61
1/31/2021 3:00:00 AM -0.09 31.838 0.068 6.17 2.7 14.62
1/31/2021 3:15:00 AM -0.09 31.838 0.068 6.18 2.72 14.61
1/31/2021 3:30:00 AM -0.09 31.838 0.068 6.18 2.73 14.61
1/31/2021 3:45:00 AM -0.09 31.838 0.068 6.18 2.68 14.61
1/31/2021 4:00:00 AM -0.09 31.838 0.068 6.18 2.69 14.6
1/31/2021 4:15:00 AM -0.09 31.838 0.068 6.18 2.69 14.6
1/31/2021 4:30:00 AM -0.09 31.838 0.068 6.18 2.72 14.6
1/31/2021 4:45:00 AM -0.09 31.838 0.068 6.18 2.7 14.6
1/31/2021 5:00:00 AM -0.09 31.838 0.067 6.18 2.7 14.6
1/31/2021 5:15:00 AM -0.09 31.838 0.067 6.18 2.73 14.59
1/31/2021 5:30:00 AM -0.09 31.838 0.067 6.18 2.7 14.6
1/31/2021 5:45:00 AM -0.09 31.838 0.067 6.18 2.69 14.59
1/31/2021 6:00:00 AM -0.09 31.838 0.067 6.17 2.68 14.59
1/31/2021 6:15:00 AM -0.09 31.838 0.067 6.18 2.74 14.59
1/31/2021 6:30:00 AM -0.09 31.838 0.067 6.18 2.71 14.59
1/31/2021 6:45:00 AM -0.09 31.838 0.067 6.18 2.71 14.58
1/31/2021 7:00:00 AM -0.09 31.838 0.067 6.18 2.67 14.58
1/31/2021 7:15:00 AM -0.09 31.838 0.068 6.18 2.77 14.58
1/31/2021 7:30:00 AM -0.09 31.838 0.068 6.17 2.72 14.59
1/31/2021 7:45:00 AM -0.09 31.838 0.068 6.18 2.74 14.59
1/31/2021 8:00:00 AM -0.09 31.838 0.068 6.18 2.72 14.6
1/31/2021 8:15:00 AM -0.09 31.838 0.068 6.19 2.74 14.62
1/31/2021 8:30:00 AM -0.09 31.838 0.068 6.2 2.71 14.64
1/31/2021 8:45:00 AM -0.09 31.838 0.068 6.2 2.69 14.66
1/31/2021 9:00:00 AM -0.09 31.838 0.068 6.21 2.72 14.67
1/31/2021 9:15:00 AM -0.09 31.838 0.068 6.22 2.74 14.67
1/31/2021 9:30:00 AM -0.08 31.856 0.068 6.22 2.72 14.68
1/31/2021 9:45:00 AM -0.09 31.838 0.068 6.22 2.75 14.7
1/31/2021 10:00:00 AM -0.09 31.838 0.068 6.22 2.7 14.71
1/31/2021 10:15:00 AM -0.08 31.856 0.068 6.23 2.69 14.71
1/31/2021 10:30:00 AM -0.08 31.856 0.068 6.24 2.74 14.72
1/31/2021 10:45:00 AM -0.08 31.856 0.068 6.24 2.73 14.73
1/31/2021 11:00:00 AM -0.09 31.838 0.068 6.24 2.75 14.73
1/31/2021 11:15:00 AM -0.08 31.856 0.068 6.24 2.71 14.74
1/31/2021 11:30:00 AM -0.08 31.856 0.068 6.25 2.71 14.74
1/31/2021 11:45:00 AM -0.08 31.856 0.068 6.25 2.75 14.75
1/31/2021 12:00:00 PM -0.08 31.856 0.068 6.26 2.86 14.74
1/31/2021 12:15:00 PM -0.08 31.856 0.068 6.26 2.7 14.74
1/31/2021 12:30:00 PM -0.08 31.856 0.068 6.26 2.66 14.74
1/31/2021 12:45:00 PM -0.08 31.856 0.068 6.26 2.69 14.74
1/31/2021 1:00:00 PM -0.08 31.856 0.068 6.25 2.75 14.74
1/31/2021 1:15:00 PM -0.08 31.856 0.068 6.25 2.7 14.74
1/31/2021 1:30:00 PM -0.08 31.856 0.068 6.25 2.73 14.74
1/31/2021 1:45:00 PM -0.08 31.856 0.068 6.26 2.78 14.73
1/31/2021 2:00:00 PM -0.08 31.856 0.068 6.25 2.71 14.72
1/31/2021 2:15:00 PM -0.08 31.856 0.068 6.26 2.7 14.72
1/31/2021 2:30:00 PM -0.08 31.856 0.068 6.26 2.81 14.71
1/31/2021 2:45:00 PM -0.08 31.856 0.068 6.25 2.73 14.71
1/31/2021 3:00:00 PM -0.08 31.856 0.068 6.25 2.74 14.7
1/31/2021 3:15:00 PM -0.08 31.856 0.068 6.24 2.76 14.69
1/31/2021 3:30:00 PM -0.08 31.856 0.068 6.25 2.76 14.69
1/31/2021 3:45:00 PM -0.08 31.856 0.068 6.24 2.8 14.68
1/31/2021 4:00:00 PM -0.09 31.838 0.068 6.24 2.73 14.67
1/31/2021 4:15:00 PM -0.09 31.838 0.068 6.24 2.71 14.65
1/31/2021 4:30:00 PM -0.09 31.838 0.068 6.23 2.75 14.64
1/31/2021 4:45:00 PM -0.09 31.838 0.068 6.23 2.76 14.63
1/31/2021 5:00:00 PM -0.09 31.838 0.067 6.22 2.75 14.62
1/31/2021 5:15:00 PM -0.09 31.838 0.067 6.22 2.74 14.6
1/31/2021 5:30:00 PM -0.09 31.838 0.067 6.21 2.74 14.58
1/31/2021 5:45:00 PM -0.09 31.838 0.067 6.2 2.72 14.56
1/31/2021 6:00:00 PM -0.09 31.838 0.067 6.2 2.72 14.55
1/31/2021 6:15:00 PM -0.09 31.838 0.067 6.19 2.75 14.54
1/31/2021 6:30:00 PM -0.09 31.838 0.067 6.19 2.76 14.54
1/31/2021 6:45:00 PM -0.09 31.838 0.067 6.19 2.74 14.53
1/31/2021 7:00:00 PM -0.09 31.838 0.067 6.18 2.71 14.52
1/31/2021 7:15:00 PM -0.09 31.838 0.067 6.18 2.7 14.52
1/31/2021 7:30:00 PM -0.09 31.838 0.067 6.19 2.69 14.51
1/31/2021 7:45:00 PM -0.09 31.838 0.067 6.18 2.73 14.51
1/31/2021 8:00:00 PM -0.09 31.838 0.067 6.18 2.74 14.5
1/31/2021 8:15:00 PM -0.09 31.838 0.067 6.17 2.73 14.5
1/31/2021 8:30:00 PM -0.09 31.838 0.067 6.19 2.74 14.49
1/31/2021 8:45:00 PM -0.09 31.838 0.067 6.17 2.74 14.49
1/31/2021 9:00:00 PM -0.09 31.838 0.067 6.18 2.76 14.48
1/31/2021 9:15:00 PM -0.09 31.838 0.067 6.17 2.69 14.48
1/31/2021 9:30:00 PM -0.09 31.838 0.067 6.17 2.76 14.48
1/31/2021 9:45:00 PM -0.09 31.838 0.067 6.18 2.69 14.48
1/31/2021 10:00:00 PM -0.09 31.838 0.067 6.17 2.69 14.48
1/31/2021 10:15:00 PM -0.09 31.838 0.067 6.17 2.7 14.47
1/31/2021 10:30:00 PM -0.09 31.838 0.067 6.18 2.67 14.47
1/31/2021 10:45:00 PM -0.09 31.838 0.067 6.17 2.7 14.47
1/31/2021 11:00:00 PM -0.09 31.838 0.067 6.17 2.68 14.46
1/31/2021 11:15:00 PM -0.09 31.838 0.067 6.17 2.72 14.46
1/31/2021 11:30:00 PM -0.09 31.838 0.067 6.17 2.72 14.47
1/31/2021 11:45:00 PM -0.09 31.838 0.067 6.17 2.67 14.46
2/1/2021 12:00:00 AM -0.09 31.838 0.067 6.17 2.69 14.46
2/1/2021 12:15:00 AM -0.09 31.838 0.067 6.16 2.68 14.46
2/1/2021 12:30:00 AM -0.09 31.838 0.067 6.18 2.68 14.45
2/1/2021 12:45:00 AM -0.09 31.838 0.067 6.18 2.66 14.45
2/1/2021 1:00:00 AM -0.09 31.838 0.067 6.17 2.66 14.45
2/1/2021 1:15:00 AM -0.09 31.838 0.067 6.17 2.7 14.45
2/1/2021 1:30:00 AM -0.09 31.838 0.067 6.16 2.71 14.45
2/1/2021 1:45:00 AM -0.09 31.838 0.067 6.16 2.71 14.45
2/1/2021 2:00:00 AM -0.09 31.838 0.067 6.17 2.71 14.45
2/1/2021 2:15:00 AM -0.09 31.838 0.067 6.17 2.7 14.44
2/1/2021 2:30:00 AM -0.09 31.838 0.067 6.16 2.69 14.44
2/1/2021 2:45:00 AM -0.09 31.838 0.067 6.17 2.69 14.44
2/1/2021 3:00:00 AM -0.09 31.838 0.067 6.17 2.76 14.44
2/1/2021 3:15:00 AM -0.09 31.838 0.067 6.17 2.73 14.44
2/1/2021 3:30:00 AM -0.09 31.838 0.067 6.16 2.67 14.44
2/1/2021 3:45:00 AM -0.09 31.838 0.067 6.17 2.73 14.44
2/1/2021 4:00:00 AM -0.09 31.838 0.067 6.17 2.72 14.44
2/1/2021 4:15:00 AM -0.09 31.838 0.067 6.17 2.72 14.44
2/1/2021 4:30:00 AM -0.09 31.838 0.067 6.17 2.71 14.44
2/1/2021 4:45:00 AM -0.09 31.838 0.067 6.16 2.69 14.43
2/1/2021 5:00:00 AM -0.09 31.838 0.067 6.17 2.74 14.43
2/1/2021 5:15:00 AM -0.09 31.838 0.067 6.17 2.74 14.42
2/1/2021 5:30:00 AM -0.09 31.838 0.067 6.16 2.73 14.43
2/1/2021 5:45:00 AM -0.09 31.838 0.067 6.17 2.74 14.42
2/1/2021 6:00:00 AM -0.09 31.838 0.067 6.17 2.77 14.42
2/1/2021 6:15:00 AM -0.09 31.838 0.067 6.17 2.72 14.42
2/1/2021 6:30:00 AM -0.09 31.838 0.067 6.17 2.72 14.42
2/1/2021 6:45:00 AM -0.09 31.838 0.067 6.16 2.7 14.41
2/1/2021 7:00:00 AM -0.09 31.838 0.067 6.16 2.75 14.41
2/1/2021 7:15:00 AM -0.09 31.838 0.067 6.17 2.7 14.41
2/1/2021 7:30:00 AM -0.09 31.838 0.067 6.16 2.71 14.41
2/1/2021 7:45:00 AM -0.09 31.838 0.067 6.16 2.72 14.41
2/1/2021 8:00:00 AM -0.09 31.838 0.067 6.16 2.71 14.42
2/1/2021 8:15:00 AM -0.09 31.838 0.067 6.17 2.7 14.42
2/1/2021 8:30:00 AM -0.09 31.838 0.067 6.17 2.74 14.43
2/1/2021 8:45:00 AM -0.09 31.838 0.067 6.17 2.74 14.44
2/1/2021 9:00:00 AM -0.09 31.838 0.067 6.17 2.7 14.44
2/1/2021 9:15:00 AM -0.09 31.838 0.067 6.17 2.7 14.45
2/1/2021 9:30:00 AM -0.08 31.856 0.067 6.18 2.72 14.46
2/1/2021 9:45:00 AM -0.09 31.838 0.066 6.18 2.7 14.48
2/1/2021 10:00:00 AM -0.08 31.856 0.066 6.19 2.74 14.5
2/1/2021 10:15:00 AM -0.08 31.856 0.066 6.19 2.73 14.5
2/1/2021 10:30:00 AM -0.08 31.856 0.066 6.2 2.72 14.52
2/1/2021 10:45:00 AM -0.08 31.856 0.066 6.2 3.04 14.53
2/1/2021 11:00:00 AM -0.08 31.856 0.066 6.2 2.71 14.54
2/1/2021 11:15:00 AM -0.08 31.856 0.066 6.22 2.74 14.54
2/1/2021 11:30:00 AM -0.08 31.856 0.066 6.22 2.77 14.54
2/1/2021 11:45:00 AM -0.08 31.856 0.066 6.21 2.69 14.54
2/1/2021 12:00:00 PM -0.08 31.856 0.066 6.22 2.72 14.54
2/1/2021 12:15:00 PM -0.08 31.856 0.066 6.22 2.74 14.54
2/1/2021 12:30:00 PM -0.08 31.856 0.066 6.22 2.71 14.54
2/1/2021 12:45:00 PM -0.08 31.856 0.066 6.22 2.82 14.53
2/1/2021 1:00:00 PM -0.08 31.856 0.066 6.22 2.71 14.52
2/1/2021 1:15:00 PM -0.08 31.856 0.066 6.22 2.79 14.52
2/1/2021 1:30:00 PM -0.08 31.856 0.066 6.21 2.74 14.52
2/1/2021 1:45:00 PM -0.08 31.856 0.065 6.22 2.71 14.51
2/1/2021 2:00:00 PM -0.08 31.856 0.065 6.22 2.76 14.51
2/1/2021 2:15:00 PM -0.08 31.856 0.065 6.22 2.69 14.51
2/1/2021 2:30:00 PM -0.08 31.856 0.065 6.22 2.76 14.5
2/1/2021 2:45:00 PM -0.08 31.856 0.065 6.22 2.74 14.5
2/1/2021 3:00:00 PM -0.08 31.856 0.065 6.22 2.78 14.5
2/1/2021 3:15:00 PM -0.08 31.856 0.065 6.22 2.71 14.5
2/1/2021 3:30:00 PM -0.08 31.856 0.065 6.21 2.76 14.49
2/1/2021 3:45:00 PM -0.08 31.856 0.065 6.22 2.78 14.49
2/1/2021 4:00:00 PM -0.08 31.856 0.065 6.22 2.74 14.47
2/1/2021 4:15:00 PM -0.08 31.856 0.065 6.21 2.77 14.46
2/1/2021 4:30:00 PM -0.08 31.856 0.065 6.2 2.81 14.44
2/1/2021 4:45:00 PM -0.08 31.856 0.065 6.2 2.75 14.43
2/1/2021 5:00:00 PM -0.09 31.838 0.065 6.2 2.73 14.42
2/1/2021 5:15:00 PM -0.08 31.856 0.065 6.2 2.79 14.4
2/1/2021 5:30:00 PM -0.08 31.856 0.065 6.18 2.8 14.38
2/1/2021 5:45:00 PM -0.08 31.856 0.065 6.19 2.78 14.37
2/1/2021 6:00:00 PM -0.09 31.838 0.065 6.17 2.8 14.37
2/1/2021 6:15:00 PM -0.09 31.838 0.065 6.17 2.76 14.36
2/1/2021 6:30:00 PM -0.09 31.838 0.065 6.17 2.74 14.35
2/1/2021 6:45:00 PM -0.09 31.838 0.065 6.17 2.74 14.34
2/1/2021 7:00:00 PM -0.09 31.838 0.065 6.16 2.77 14.33
2/1/2021 7:15:00 PM -0.09 31.838 0.065 6.15 2.78 14.33
2/1/2021 7:30:00 PM -0.09 31.838 0.065 6.16 2.77 14.33
2/1/2021 7:45:00 PM -0.09 31.838 0.065 6.16 2.82 14.32
2/1/2021 8:00:00 PM -0.09 31.838 0.065 6.15 2.79 14.32
2/1/2021 8:15:00 PM -0.09 31.838 0.065 6.15 2.78 14.32
2/1/2021 8:30:00 PM -0.09 31.838 0.065 6.15 2.79 14.31
2/1/2021 8:45:00 PM -0.09 31.838 0.065 6.16 2.81 14.31
2/1/2021 9:00:00 PM -0.09 31.838 0.065 6.15 2.77 14.31
2/1/2021 9:15:00 PM -0.09 31.838 0.065 6.15 2.78 14.31
2/1/2021 9:30:00 PM -0.09 31.838 0.065 6.15 2.76 14.31
2/1/2021 9:45:00 PM -0.09 31.838 0.065 6.14 2.81 14.31
2/1/2021 10:00:00 PM -0.09 31.838 0.065 6.15 2.77 14.3
2/1/2021 10:15:00 PM -0.09 31.838 0.066 6.15 2.77 14.3
2/1/2021 10:30:00 PM -0.09 31.838 0.066 6.15 2.79 14.3
2/1/2021 10:45:00 PM -0.09 31.838 0.066 6.14 2.78 14.3
2/1/2021 11:00:00 PM -0.09 31.838 0.066 6.13 2.79 14.29
2/1/2021 11:15:00 PM -0.09 31.838 0.065 6.14 2.77 14.29
2/1/2021 11:30:00 PM -0.09 31.838 0.065 6.14 2.76 14.29
2/1/2021 11:45:00 PM -0.09 31.838 0.065 6.14 2.79 14.29
2/2/2021 12:00:00 AM -0.09 31.838 0.065 6.14 2.76 14.29
2/2/2021 12:15:00 AM -0.09 31.838 0.065 6.14 2.78 14.28
2/2/2021 12:30:00 AM -0.09 31.838 0.065 6.14 2.81 14.28
2/2/2021 12:45:00 AM -0.09 31.838 0.065 6.13 2.81 14.28
2/2/2021 1:00:00 AM -0.09 31.838 0.065 6.15 2.74 14.27
2/2/2021 1:15:00 AM -0.09 31.838 0.065 6.14 2.77 14.27
2/2/2021 1:30:00 AM -0.09 31.838 0.064 6.14 2.78 14.27
2/2/2021 1:45:00 AM -0.09 31.838 0.064 6.14 2.77 14.27
2/2/2021 2:00:00 AM -0.09 31.838 0.064 6.14 2.78 14.27
2/2/2021 2:15:00 AM -0.09 31.838 0.064 6.13 2.76 14.27
2/2/2021 2:30:00 AM -0.09 31.838 0.064 6.12 2.78 14.26
2/2/2021 2:45:00 AM -0.09 31.838 0.064 6.14 2.76 14.26
2/2/2021 3:00:00 AM -0.09 31.838 0.064 6.14 2.8 14.26
2/2/2021 3:15:00 AM -0.09 31.838 0.064 6.14 2.74 14.26
2/2/2021 3:30:00 AM -0.09 31.838 0.064 6.14 2.76 14.26
2/2/2021 3:45:00 AM -0.09 31.838 0.064 6.12 2.79 14.26
2/2/2021 4:00:00 AM -0.09 31.838 0.064 6.14 2.79 14.26
2/2/2021 4:15:00 AM -0.09 31.838 0.063 6.14 2.74 14.25
2/2/2021 4:30:00 AM -0.09 31.838 0.063 6.13 2.77 14.25
2/2/2021 4:45:00 AM -0.09 31.838 0.063 6.13 2.83 14.25
2/2/2021 5:00:00 AM -0.09 31.838 0.063 6.13 2.76 14.25
2/2/2021 5:15:00 AM -0.09 31.838 0.063 6.14 2.79 14.25
2/2/2021 5:30:00 AM -0.09 31.838 0.063 6.13 2.77 14.25
2/2/2021 5:45:00 AM -0.09 31.838 0.063 6.13 2.8 14.25
2/2/2021 6:00:00 AM -0.09 31.838 0.063 6.13 2.78 14.24
2/2/2021 6:15:00 AM -0.09 31.838 0.063 6.13 2.77 14.25
2/2/2021 6:30:00 AM -0.09 31.838 0.063 6.13 2.75 14.24
2/2/2021 6:45:00 AM -0.09 31.838 0.063 6.13 2.78 14.24
2/2/2021 7:00:00 AM -0.09 31.838 0.063 6.13 2.78 14.24
2/2/2021 7:15:00 AM -0.09 31.838 0.063 6.13 2.8 14.24
2/2/2021 7:30:00 AM -0.09 31.838 0.063 6.14 2.78 14.25
2/2/2021 7:45:00 AM -0.09 31.838 0.063 6.14 2.78 14.25
2/2/2021 8:00:00 AM -0.09 31.838 0.063 6.13 2.73 14.26
2/2/2021 8:15:00 AM -0.09 31.838 0.063 6.14 2.8 14.28
2/2/2021 8:30:00 AM -0.08 31.856 0.063 6.15 2.78 14.29
2/2/2021 8:45:00 AM -0.08 31.856 0.063 6.15 2.83 14.31
2/2/2021 9:00:00 AM -0.08 31.856 0.063 6.16 2.8 14.32
2/2/2021 9:15:00 AM -0.08 31.856 0.063 6.16 2.85 14.34
2/2/2021 9:30:00 AM -0.08 31.856 0.062 6.17 2.79 14.36
2/2/2021 9:45:00 AM -0.08 31.856 0.062 6.19 2.86 14.37
2/2/2021 10:00:00 AM -0.08 31.856 0.062 6.19 2.83 14.38
2/2/2021 10:15:00 AM -0.08 31.856 0.062 6.2 2.82 14.4
2/2/2021 10:30:00 AM -0.08 31.856 0.062 6.2 2.89 14.4
2/2/2021 10:45:00 AM -0.08 31.856 0.062 6.2 2.95 14.41
2/2/2021 11:00:00 AM -0.08 31.856 0.062 6.21 2.9 14.41
2/2/2021 11:15:00 AM -0.08 31.856 0.062 6.22 2.88 14.42
2/2/2021 11:30:00 AM -0.08 31.856 0.062 6.21 2.91 14.42
2/2/2021 11:45:00 AM -0.08 31.856 0.062 6.21 2.88 14.42
2/2/2021 12:00:00 PM -0.08 31.856 0.062 6.22 2.91 14.42
2/2/2021 12:15:00 PM -0.08 31.856 0.062 6.21 3.06 14.42
2/2/2021 12:30:00 PM -0.08 31.856 0.061 6.23 2.97 14.42
2/2/2021 12:45:00 PM -0.08 31.856 0.061 6.22 2.95 14.42
2/2/2021 1:00:00 PM -0.08 31.856 0.061 6.21 2.94 14.42
2/2/2021 1:15:00 PM -0.08 31.856 0.061 6.21 2.99 14.42
2/2/2021 1:30:00 PM -0.08 31.856 0.061 6.21 2.94 14.41
2/2/2021 1:45:00 PM -0.08 31.856 0.061 6.23 2.99 14.41
2/2/2021 2:00:00 PM -0.07 31.874 0.061 6.24 3.01 14.42
2/2/2021 2:15:00 PM -0.07 31.874 0.061 6.23 2.96 14.41
2/2/2021 2:30:00 PM -0.07 31.874 0.061 6.23 2.96 14.42
2/2/2021 2:45:00 PM -0.07 31.874 0.061 6.24 3.03 14.4
2/2/2021 3:00:00 PM -0.08 31.856 0.061 6.23 3.02 14.4
2/2/2021 3:15:00 PM -0.08 31.856 0.061 6.22 2.98 14.38
2/2/2021 3:30:00 PM -0.08 31.856 0.061 6.23 2.96 14.38
2/2/2021 3:45:00 PM -0.08 31.856 0.061 6.22 2.93 14.37
2/2/2021 4:00:00 PM -0.08 31.856 0.061 6.21 2.91 14.35
2/2/2021 4:15:00 PM -0.08 31.856 0.061 6.21 2.96 14.35
2/2/2021 4:30:00 PM -0.08 31.856 0.061 6.21 2.92 14.33
2/2/2021 4:45:00 PM -0.08 31.856 0.061 6.2 2.94 14.32
2/2/2021 5:00:00 PM -0.08 31.856 0.061 6.2 2.91 14.3
2/2/2021 5:15:00 PM -0.08 31.856 0.061 6.19 2.94 14.29
2/2/2021 5:30:00 PM -0.08 31.856 0.061 6.19 2.9 14.28
2/2/2021 5:45:00 PM -0.08 31.856 0.061 6.18 2.95 14.27
2/2/2021 6:00:00 PM -0.08 31.856 0.061 6.18 2.93 14.26
2/2/2021 6:15:00 PM -0.08 31.856 0.061 6.18 2.9 14.24
2/2/2021 6:30:00 PM -0.08 31.856 0.061 6.17 2.96 14.23
2/2/2021 6:45:00 PM -0.08 31.856 0.061 6.17 2.9 14.23
2/2/2021 7:00:00 PM -0.08 31.856 0.061 6.17 2.96 14.22
2/2/2021 7:15:00 PM -0.08 31.856 0.061 6.16 2.93 14.22
2/2/2021 7:30:00 PM -0.08 31.856 0.061 6.16 2.95 14.22
2/2/2021 7:45:00 PM -0.08 31.856 0.061 6.17 2.87 14.21
2/2/2021 8:00:00 PM -0.08 31.856 0.061 6.15 3.05 14.21
2/2/2021 8:15:00 PM -0.08 31.856 0.061 6.16 2.9 14.21
2/2/2021 8:30:00 PM -0.08 31.856 0.061 6.16 2.89 14.21
2/2/2021 8:45:00 PM -0.08 31.856 0.061 6.15 2.9 14.21
2/2/2021 9:00:00 PM -0.08 31.856 0.061 6.16 2.97 14.21
2/2/2021 9:15:00 PM -0.08 31.856 0.061 6.16 2.96 14.21
2/2/2021 9:30:00 PM -0.08 31.856 0.061 6.15 2.89 14.21
2/2/2021 9:45:00 PM -0.08 31.856 0.061 6.15 2.92 14.2
2/2/2021 10:00:00 PM -0.08 31.856 0.061 6.15 2.9 14.21
2/2/2021 10:15:00 PM -0.08 31.856 0.061 6.16 2.92 14.21
2/2/2021 10:30:00 PM -0.08 31.856 0.061 6.15 2.85 14.2
2/2/2021 10:45:00 PM -0.08 31.856 0.061 6.15 2.94 14.21
2/2/2021 11:00:00 PM -0.08 31.856 0.061 6.15 2.91 14.21
2/2/2021 11:15:00 PM -0.08 31.856 0.061 6.14 2.89 14.2
2/2/2021 11:30:00 PM -0.08 31.856 0.061 6.14 2.89 14.22
2/2/2021 11:45:00 PM -0.08 31.856 0.061 6.15 2.96 14.21
2/3/2021 12:00:00 AM -0.08 31.856 0.061 6.14 2.93 14.21
2/3/2021 12:15:00 AM -0.08 31.856 0.061 6.15 2.93 14.21
2/3/2021 12:30:00 AM -0.08 31.856 0.061 6.15 2.9 14.21
2/3/2021 12:45:00 AM -0.08 31.856 0.061 6.15 2.89 14.21
2/3/2021 1:00:00 AM -0.08 31.856 0.061 6.15 2.93 14.2
2/3/2021 1:15:00 AM -0.08 31.856 0.061 6.16 2.95 14.21
2/3/2021 1:30:00 AM -0.08 31.856 0.061 6.15 2.95 14.2
2/3/2021 1:45:00 AM -0.08 31.856 0.061 6.15 2.86 14.21
2/3/2021 2:00:00 AM -0.08 31.856 0.061 6.15 2.9 14.2
2/3/2021 2:15:00 AM -0.08 31.856 0.061 6.14 2.8 14.2
2/3/2021 2:30:00 AM -0.08 31.856 0.061 6.15 2.92 14.2
2/3/2021 2:45:00 AM -0.08 31.856 0.061 6.15 2.92 14.2
2/3/2021 3:00:00 AM -0.08 31.856 0.061 6.14 2.9 14.2
2/3/2021 3:15:00 AM -0.08 31.856 0.061 6.15 2.93 14.2
2/3/2021 3:30:00 AM -0.08 31.856 0.061 6.15 2.95 14.2
2/3/2021 3:45:00 AM -0.08 31.856 0.061 6.15 2.95 14.2
2/3/2021 4:00:00 AM -0.08 31.856 0.061 6.15 2.94 14.2
2/3/2021 4:15:00 AM -0.08 31.856 0.061 6.16 2.9 14.2
2/3/2021 4:30:00 AM -0.08 31.856 0.061 6.16 2.94 14.2
2/3/2021 4:45:00 AM -0.08 31.856 0.061 6.15 2.94 14.21
2/3/2021 5:00:00 AM -0.08 31.856 0.061 6.15 2.92 14.21
2/3/2021 5:15:00 AM -0.08 31.856 0.061 6.16 2.96 14.2
2/3/2021 5:30:00 AM -0.08 31.856 0.061 6.15 2.92 14.2
2/3/2021 5:45:00 AM -0.08 31.856 0.061 6.16 2.91 14.21
2/3/2021 6:00:00 AM -0.08 31.856 0.061 6.15 2.92 14.21
2/3/2021 6:15:00 AM -0.08 31.856 0.061 6.16 2.93 14.21
2/3/2021 6:30:00 AM -0.08 31.856 0.061 6.16 2.92 14.21
2/3/2021 6:45:00 AM -0.08 31.856 0.061 6.15 2.94 14.21
2/3/2021 7:00:00 AM -0.08 31.856 0.061 6.15 2.95 14.22
2/3/2021 7:15:00 AM -0.08 31.856 0.061 6.16 2.95 14.22
2/3/2021 7:30:00 AM -0.08 31.856 0.061 6.16 2.99 14.23
2/3/2021 7:45:00 AM -0.08 31.856 0.061 6.16 2.97 14.24
2/3/2021 8:00:00 AM -0.08 31.856 0.061 6.17 2.92 14.25
2/3/2021 8:15:00 AM -0.08 31.856 0.061 6.17 2.94 14.26
2/3/2021 8:30:00 AM -0.08 31.856 0.061 6.17 2.93 14.28
2/3/2021 8:45:00 AM -0.08 31.856 0.061 6.18 2.91 14.3
2/3/2021 9:00:00 AM -0.07 31.874 0.061 6.19 2.93 14.32
2/3/2021 9:15:00 AM -0.07 31.874 0.061 6.19 2.93 14.34
2/3/2021 9:30:00 AM -0.07 31.874 0.06 6.2 2.93 14.36
2/3/2021 9:45:00 AM -0.07 31.874 0.06 6.21 2.88 14.37
2/3/2021 10:00:00 AM -0.07 31.874 0.06 6.21 2.92 14.39
2/3/2021 10:15:00 AM -0.07 31.874 0.06 6.22 2.93 14.4
2/3/2021 10:30:00 AM -0.07 31.874 0.06 6.22 2.91 14.41
2/3/2021 10:45:00 AM -0.06 31.892 0.06 6.23 3.2 14.42
2/3/2021 11:00:00 AM -0.06 31.892 0.06 6.24 2.9 14.43
2/3/2021 11:15:00 AM -0.06 31.892 0.06 6.23 2.92 14.44
2/3/2021 11:30:00 AM -0.06 31.892 0.06 6.23 2.93 14.45
2/3/2021 11:45:00 AM -0.06 31.892 0.06 6.23 2.89 14.45
2/3/2021 12:00:00 PM -0.06 31.892 0.06 6.25 2.93 14.46
2/3/2021 12:15:00 PM -0.05 31.91 0.06 6.24 3.04 14.46
2/3/2021 12:30:00 PM -0.06 31.892 0.06 6.24 2.97 14.46
2/3/2021 12:45:00 PM -0.06 31.892 0.06 6.24 2.98 14.45
2/3/2021 1:00:00 PM -0.06 31.892 0.06 6.24 2.98 14.45
2/3/2021 1:15:00 PM -0.06 31.892 0.06 6.24 2.91 14.45
2/3/2021 1:30:00 PM -0.06 31.892 0.06 6.24 2.9 14.45
2/3/2021 1:45:00 PM -0.06 31.892 0.06 6.23 2.95 14.46
2/3/2021 2:00:00 PM -0.06 31.892 0.06 6.24 3.01 14.46
2/3/2021 2:15:00 PM -0.06 31.892 0.06 6.24 2.97 14.46
2/3/2021 2:30:00 PM -0.06 31.892 0.06 6.24 2.98 14.46
2/3/2021 2:45:00 PM -0.06 31.892 0.06 6.24 3.17 14.46
2/3/2021 3:00:00 PM -0.06 31.892 0.06 6.23 2.99 14.46
2/3/2021 3:15:00 PM -0.06 31.892 0.06 6.23 3.07 14.46
2/3/2021 3:30:00 PM -0.06 31.892 0.059 6.23 2.99 14.46
2/3/2021 3:45:00 PM -0.06 31.892 0.059 6.23 3.05 14.46
2/3/2021 4:00:00 PM -0.06 31.892 0.06 6.23 3.03 14.45
2/3/2021 4:15:00 PM -0.06 31.892 0.06 6.23 3.05 14.44
2/3/2021 4:30:00 PM -0.07 31.874 0.06 6.23 3.03 14.43
2/3/2021 4:45:00 PM -0.07 31.874 0.06 6.21 3.04 14.42
2/3/2021 5:00:00 PM -0.07 31.874 0.06 6.19 3.03 14.4
2/3/2021 5:15:00 PM -0.07 31.874 0.06 6.2 3.06 14.38
2/3/2021 5:30:00 PM -0.07 31.874 0.06 6.19 3.04 14.36
2/3/2021 5:45:00 PM -0.07 31.874 0.06 6.19 3.08 14.35
2/3/2021 6:00:00 PM -0.07 31.874 0.06 6.19 3.05 14.34
2/3/2021 6:15:00 PM -0.07 31.874 0.06 6.18 3.06 14.33
2/3/2021 6:30:00 PM -0.07 31.874 0.06 6.18 3.08 14.33
2/3/2021 6:45:00 PM -0.07 31.874 0.06 6.17 3.09 14.32
2/3/2021 7:00:00 PM -0.07 31.874 0.06 6.17 3.13 14.32
2/3/2021 7:15:00 PM -0.07 31.874 0.06 6.17 2.99 14.32
2/3/2021 7:30:00 PM -0.06 31.892 0.06 6.17 3.02 14.32
2/3/2021 7:45:00 PM -0.06 31.892 0.06 6.17 3 14.32
2/3/2021 8:00:00 PM -0.06 31.892 0.06 6.16 3.02 14.32
2/3/2021 8:15:00 PM -0.06 31.892 0.06 6.15 2.96 14.32
2/3/2021 8:30:00 PM -0.07 31.874 0.06 6.16 3.06 14.32
2/3/2021 8:45:00 PM -0.07 31.874 0.06 6.16 3.05 14.32
2/3/2021 9:00:00 PM -0.07 31.874 0.06 6.16 2.99 14.33
2/3/2021 9:15:00 PM -0.07 31.874 0.06 6.17 2.99 14.32
2/3/2021 9:30:00 PM -0.07 31.874 0.06 6.16 3.06 14.32
2/3/2021 9:45:00 PM -0.07 31.874 0.06 6.16 2.97 14.32
2/3/2021 10:00:00 PM -0.08 31.856 0.06 6.17 3.02 14.33
2/3/2021 10:15:00 PM -0.08 31.856 0.06 6.17 3.05 14.33
2/3/2021 10:30:00 PM -0.08 31.856 0.06 6.17 3.02 14.33
2/3/2021 10:45:00 PM -0.08 31.856 0.06 6.17 3.05 14.34
2/3/2021 11:00:00 PM -0.08 31.856 0.06 6.16 3.04 14.34
2/3/2021 11:15:00 PM -0.08 31.856 0.06 6.17 3.04 14.35
2/3/2021 11:30:00 PM -0.08 31.856 0.061 6.16 3.05 14.35
2/3/2021 11:45:00 PM -0.08 31.856 0.061 6.16 3.05 14.35
2/4/2021 12:00:00 AM -0.08 31.856 0.061 6.17 2.97 14.36
2/4/2021 12:15:00 AM -0.08 31.856 0.061 6.17 3.02 14.36
2/4/2021 12:30:00 AM -0.08 31.856 0.061 6.17 3.01 14.37
2/4/2021 12:45:00 AM -0.08 31.856 0.061 6.17 3.07 14.36
2/4/2021 1:00:00 AM -0.08 31.856 0.061 6.17 2.92 14.37
2/4/2021 1:15:00 AM -0.08 31.856 0.061 6.17 2.93 14.37
2/4/2021 1:30:00 AM -0.08 31.856 0.061 6.17 2.97 14.37
2/4/2021 1:45:00 AM -0.08 31.856 0.061 6.17 2.93 14.37
2/4/2021 2:00:00 AM -0.08 31.856 0.061 6.17 2.99 14.38
2/4/2021 2:15:00 AM -0.08 31.856 0.061 6.17 2.98 14.38
2/4/2021 2:30:00 AM -0.08 31.856 0.061 6.17 2.94 14.38
2/4/2021 2:45:00 AM -0.09 31.838 0.061 6.17 2.89 14.39
2/4/2021 3:00:00 AM -0.09 31.838 0.061 6.16 2.95 14.39
2/4/2021 3:15:00 AM -0.09 31.838 0.061 6.16 2.91 14.38
2/4/2021 3:30:00 AM -0.09 31.838 0.061 6.16 2.95 14.39
2/4/2021 3:45:00 AM -0.09 31.838 0.061 6.17 2.94 14.39
2/4/2021 4:00:00 AM -0.09 31.838 0.061 6.16 2.83 14.39
2/4/2021 4:15:00 AM -0.09 31.838 0.061 6.17 2.92 14.4
2/4/2021 4:30:00 AM -0.09 31.838 0.061 6.16 2.93 14.4
2/4/2021 4:45:00 AM -0.1 31.82 0.061 6.17 2.9 14.4
2/4/2021 5:00:00 AM -0.1 31.82 0.061 6.16 2.82 14.4
2/4/2021 5:15:00 AM -0.1 31.82 0.061 6.15 2.97 14.41
2/4/2021 5:30:00 AM -0.1 31.82 0.061 6.16 2.93 14.41
2/4/2021 5:45:00 AM -0.1 31.82 0.061 6.16 2.95 14.41
2/4/2021 6:00:00 AM -0.1 31.82 0.061 6.17 2.93 14.42
2/4/2021 6:15:00 AM -0.1 31.82 0.062 6.17 2.96 14.42
2/4/2021 6:30:00 AM -0.1 31.82 0.062 6.17 2.94 14.42
2/4/2021 6:45:00 AM -0.1 31.82 0.062 6.17 2.96 14.43
2/4/2021 7:00:00 AM -0.1 31.82 0.062 6.18 2.92 14.43
2/4/2021 7:15:00 AM -0.1 31.82 0.062 6.18 2.85 14.44
2/4/2021 7:30:00 AM -0.1 31.82 0.062 6.17 2.85 14.44
2/4/2021 7:45:00 AM -0.1 31.82 0.062 6.16 2.9 14.46
2/4/2021 8:00:00 AM -0.1 31.82 0.062 6.17 2.88 14.48
2/4/2021 8:15:00 AM -0.09 31.838 0.062 6.18 2.92 14.49
2/4/2021 8:30:00 AM -0.09 31.838 0.062 6.2 2.91 14.51
2/4/2021 8:45:00 AM -0.09 31.838 0.062 6.19 2.87 14.53
2/4/2021 9:00:00 AM -0.08 31.856 0.062 6.21 2.83 14.54
2/4/2021 9:15:00 AM -0.08 31.856 0.062 6.22 2.91 14.56
2/4/2021 9:30:00 AM -0.07 31.874 0.062 6.21 2.81 14.56
2/4/2021 9:45:00 AM -0.06 31.892 0.062 6.21 2.84 14.58
2/4/2021 10:00:00 AM -0.05 31.91 0.062 6.23 2.83 14.59
2/4/2021 10:15:00 AM -0.04 31.928 0.062 6.23 2.9 14.6
2/4/2021 10:30:00 AM -0.03 31.946 0.062 6.23 2.94 14.61
2/4/2021 10:45:00 AM -0.03 31.946 0.062 6.23 2.86 14.61
2/4/2021 11:00:00 AM -0.02 31.964 0.062 6.24 2.87 14.62
2/4/2021 11:15:00 AM -0.02 31.964 0.062 6.25 2.84 14.62
2/4/2021 11:30:00 AM -0.01 31.982 0.062 6.25 2.9 14.62
2/4/2021 11:45:00 AM -0.01 31.982 0.062 6.25 2.94 14.62
2/4/2021 12:00:00 PM -0.01 31.982 0.062 6.25 2.92 14.62
2/4/2021 12:15:00 PM -0.02 31.964 0.062 6.26 3.02 14.61
2/4/2021 12:30:00 PM -0.02 31.964 0.062 6.26 3.06 14.61
2/4/2021 12:45:00 PM -0.02 31.964 0.062 6.26 3.02 14.59
2/4/2021 1:00:00 PM -0.03 31.946 0.062 6.24 3.04 14.58
2/4/2021 1:15:00 PM -0.03 31.946 0.062 6.25 3.03 14.57
2/4/2021 1:30:00 PM -0.03 31.946 0.062 6.25 2.99 14.56
2/4/2021 1:45:00 PM -0.03 31.946 0.062 6.25 3.01 14.55
2/4/2021 2:00:00 PM -0.04 31.928 0.062 6.24 2.99 14.54
2/4/2021 2:15:00 PM -0.04 31.928 0.062 6.24 3.01 14.54
2/4/2021 2:30:00 PM -0.04 31.928 0.062 6.24 3.01 14.53
2/4/2021 2:45:00 PM -0.04 31.928 0.062 6.24 3 14.53
2/4/2021 3:00:00 PM -0.04 31.928 0.062 6.23 2.97 14.53
2/4/2021 3:15:00 PM -0.05 31.91 0.061 6.23 2.92 14.52
2/4/2021 3:30:00 PM -0.05 31.91 0.061 6.22 2.98 14.52
2/4/2021 3:45:00 PM -0.05 31.91 0.061 6.22 2.93 14.51
2/4/2021 4:00:00 PM -0.05 31.91 0.061 6.21 2.97 14.5
2/4/2021 4:15:00 PM -0.05 31.91 0.061 6.21 2.99 14.5
2/4/2021 4:30:00 PM -0.05 31.91 0.061 6.21 2.96 14.49
2/4/2021 4:45:00 PM -0.06 31.892 0.061 6.19 2.96 14.48
2/4/2021 5:00:00 PM -0.06 31.892 0.061 6.2 2.97 14.47
2/4/2021 5:15:00 PM -0.06 31.892 0.061 6.2 2.99 14.46
2/4/2021 5:30:00 PM -0.06 31.892 0.061 6.19 2.99 14.45
2/4/2021 5:45:00 PM -0.07 31.874 0.061 6.18 3.15 14.43
2/4/2021 6:00:00 PM -0.07 31.874 0.061 6.17 3.1 14.42
2/4/2021 6:15:00 PM -0.07 31.874 0.061 6.18 3.07 14.42
2/4/2021 6:30:00 PM -0.07 31.874 0.061 6.18 3.09 14.41
2/4/2021 6:45:00 PM -0.07 31.874 0.061 6.19 3.04 14.41
2/4/2021 7:00:00 PM -0.07 31.874 0.061 6.17 3.11 14.41
2/4/2021 7:15:00 PM -0.07 31.874 0.061 6.18 2.96 14.41
2/4/2021 7:30:00 PM -0.07 31.874 0.061 6.18 2.96 14.41
2/4/2021 7:45:00 PM -0.08 31.856 0.061 6.18 2.96 14.41
2/4/2021 8:00:00 PM -0.08 31.856 0.061 6.17 3.02 14.42
2/4/2021 8:15:00 PM -0.07 31.874 0.062 6.17 2.91 14.42
2/4/2021 8:30:00 PM -0.08 31.856 0.062 6.18 2.93 14.41
2/4/2021 8:45:00 PM -0.07 31.874 0.062 6.16 2.87 14.41
2/4/2021 9:00:00 PM -0.07 31.874 0.062 6.18 2.96 14.41
2/4/2021 9:15:00 PM -0.07 31.874 0.062 6.18 2.87 14.41
2/4/2021 9:30:00 PM -0.07 31.874 0.062 6.17 2.95 14.4
2/4/2021 9:45:00 PM -0.08 31.856 0.062 6.16 2.89 14.4
2/4/2021 10:00:00 PM -0.08 31.856 0.062 6.17 2.85 14.4
2/4/2021 10:15:00 PM -0.07 31.874 0.062 6.17 2.84 14.4
2/4/2021 10:30:00 PM -0.07 31.874 0.062 6.15 2.81 14.4
2/4/2021 10:45:00 PM -0.07 31.874 0.062 6.16 2.85 14.4
2/4/2021 11:00:00 PM -0.07 31.874 0.062 6.17 2.85 14.39
2/4/2021 11:15:00 PM -0.07 31.874 0.062 6.18 2.88 14.39
2/4/2021 11:30:00 PM -0.07 31.874 0.062 6.17 2.88 14.39
2/4/2021 11:45:00 PM -0.07 31.874 0.062 6.16 2.86 14.38
2/5/2021 12:00:00 AM -0.07 31.874 0.062 6.17 2.86 14.38
2/5/2021 12:15:00 AM -0.07 31.874 0.062 6.17 2.88 14.38
2/5/2021 12:30:00 AM -0.07 31.874 0.062 6.15 2.85 14.37
2/5/2021 12:45:00 AM -0.07 31.874 0.062 6.16 2.86 14.37
2/5/2021 1:00:00 AM -0.06 31.892 0.062 6.17 2.84 14.37
2/5/2021 1:15:00 AM -0.06 31.892 0.062 6.16 2.89 14.37
2/5/2021 1:30:00 AM -0.06 31.892 0.062 6.16 2.85 14.36
2/5/2021 1:45:00 AM -0.07 31.874 0.062 6.16 2.86 14.36
2/5/2021 2:00:00 AM -0.06 31.892 0.062 6.17 2.84 14.35
2/5/2021 2:15:00 AM -0.06 31.892 0.062 6.18 2.88 14.35
2/5/2021 2:30:00 AM -0.06 31.892 0.062 6.17 2.84 14.35
2/5/2021 2:45:00 AM -0.06 31.892 0.062 6.16 2.87 14.34
2/5/2021 3:00:00 AM -0.08 31.856 0.062 6.16 2.86 14.34
2/5/2021 3:15:00 AM -0.07 31.874 0.062 6.17 2.93 14.33
2/5/2021 3:30:00 AM -0.06 31.892 0.062 6.17 2.84 14.33
2/5/2021 3:45:00 AM -0.06 31.892 0.062 6.16 2.84 14.32
2/5/2021 4:00:00 AM -0.06 31.892 0.062 6.17 2.86 14.31
2/5/2021 4:15:00 AM -0.06 31.892 0.062 6.16 2.8 14.3
2/5/2021 4:30:00 AM -0.06 31.892 0.062 6.16 2.85 14.3
2/5/2021 4:45:00 AM -0.06 31.892 0.062 6.17 2.86 14.3
2/5/2021 5:00:00 AM -0.06 31.892 0.062 6.18 2.85 14.29
2/5/2021 5:15:00 AM -0.06 31.892 0.062 6.17 2.83 14.28
2/5/2021 5:30:00 AM -0.06 31.892 0.062 6.19 2.86 14.28
2/5/2021 5:45:00 AM -0.07 31.874 0.062 6.15 2.84 14.28
2/5/2021 6:00:00 AM -0.09 31.838 0.062 6.15 2.94 14.27
2/5/2021 6:15:00 AM -0.09 31.838 0.062 6.16 2.94 14.28
2/5/2021 6:30:00 AM -0.09 31.838 0.062 6.16 2.89 14.28
2/5/2021 6:45:00 AM -0.08 31.856 0.062 6.16 2.83 14.28
2/5/2021 7:00:00 AM -0.08 31.856 0.062 6.17 2.89 14.28
2/5/2021 7:15:00 AM -0.08 31.856 0.062 6.16 2.88 14.28
2/5/2021 7:30:00 AM -0.08 31.856 0.062 6.17 3.05 14.29
2/5/2021 7:45:00 AM -0.06 31.892 0.062 6.18 3.17 14.29
2/5/2021 8:00:00 AM -0.05 31.91 0.062 6.18 2.92 14.3
2/5/2021 8:15:00 AM -0.05 31.91 0.063 6.18 3.09 14.31
2/5/2021 8:30:00 AM -0.05 31.91 0.063 6.19 3.11 14.31
2/5/2021 8:45:00 AM -0.04 31.928 0.063 6.19 3.05 14.34
2/5/2021 9:00:00 AM -0.03 31.946 0.063 6.19 2.99 14.36
2/5/2021 9:15:00 AM -0.02 31.964 0.063 6.2 3.07 14.37
2/5/2021 9:30:00 AM -0.01 31.982 0.063 6.21 3.12 14.39